<?xml version="1.0" encoding="UTF-8" standalone="no" ?>
<gpx xmlns="http://www.topografix.com/GPX/1/1" xmlns:xsi="http://www.w3.org/2001/XMLSchema-instance" xsi:schemaLocation="http://www.topografix.com/GPX/1/1 http://www.topografix.com/GPX/1/1/gpx.xsd" version="1.1" creator="VisuGPX - https://www.visugpx.com">
  <metadata>
    <name>St Geniez D - J1 - Espalion court</name>
    <desc><![CDATA[Projet de circuit pour mai 2017 - alternative au circuit St Geniez D - J1 - Espalion long.]]></desc>
  </metadata>
  <trk>
    <name><![CDATA[St Geniez D - J1 - Espalion court]]></name>
    <trkseg>
      <trkpt lat="44.52006" lon="2.77306">
        <ele>330.513</ele>
        <time>2013-06-23T06:37:54Z</time>
      </trkpt>
      <trkpt lat="44.51995" lon="2.77221">
        <ele>331.873</ele>
        <time>2013-06-23T06:38:03Z</time>
      </trkpt>
      <trkpt lat="44.51977" lon="2.77221">
        <ele>331.822</ele>
        <time>2013-06-23T06:38:10Z</time>
      </trkpt>
      <trkpt lat="44.51961" lon="2.7722">
        <ele>332.463</ele>
        <time>2013-06-23T06:38:16Z</time>
      </trkpt>
      <trkpt lat="44.51937" lon="2.7722">
        <ele>333.403</ele>
        <time>2013-06-23T06:38:25Z</time>
      </trkpt>
      <trkpt lat="44.51919" lon="2.77221">
        <ele>333.753</ele>
        <time>2013-06-23T06:38:32Z</time>
      </trkpt>
      <trkpt lat="44.51894" lon="2.77221">
        <ele>333.383</ele>
        <time>2013-06-23T06:38:41Z</time>
      </trkpt>
      <trkpt lat="44.51865" lon="2.77222">
        <ele>333.012</ele>
        <time>2013-06-23T06:38:50Z</time>
      </trkpt>
      <trkpt lat="44.51829" lon="2.77222">
        <ele>332.722</ele>
        <time>2013-06-23T06:39:00Z</time>
      </trkpt>
      <trkpt lat="44.51808" lon="2.77214">
        <ele>333.232</ele>
        <time>2013-06-23T06:39:06Z</time>
      </trkpt>
      <trkpt lat="44.51791" lon="2.77194">
        <ele>334.982</ele>
        <time>2013-06-23T06:39:12Z</time>
      </trkpt>
      <trkpt lat="44.51794" lon="2.7717">
        <ele>334.43</ele>
        <time>2013-06-23T06:39:16Z</time>
      </trkpt>
      <trkpt lat="44.51801" lon="2.77161">
        <ele>334.081</ele>
        <time>2013-06-23T06:39:18Z</time>
      </trkpt>
      <trkpt lat="44.5183" lon="2.77135">
        <ele>333.281</ele>
        <time>2013-06-23T06:39:25Z</time>
      </trkpt>
      <trkpt lat="44.51843" lon="2.77112">
        <ele>332.811</ele>
        <time>2013-06-23T06:39:29Z</time>
      </trkpt>
      <trkpt lat="44.51858" lon="2.77036">
        <ele>332.642</ele>
        <time>2013-06-23T06:39:39Z</time>
      </trkpt>
      <trkpt lat="44.51869" lon="2.76968">
        <ele>331.432</ele>
        <time>2013-06-23T06:39:48Z</time>
      </trkpt>
      <trkpt lat="44.51871" lon="2.76908">
        <ele>331.622</ele>
        <time>2013-06-23T06:39:56Z</time>
      </trkpt>
      <trkpt lat="44.51877" lon="2.7687">
        <ele>330.952</ele>
        <time>2013-06-23T06:40:01Z</time>
      </trkpt>
      <trkpt lat="44.51884" lon="2.7685">
        <ele>331.382</ele>
        <time>2013-06-23T06:40:04Z</time>
      </trkpt>
      <trkpt lat="44.51886" lon="2.76826">
        <ele>331.822</ele>
        <time>2013-06-23T06:40:08Z</time>
      </trkpt>
      <trkpt lat="44.51886" lon="2.76782">
        <ele>332.152</ele>
        <time>2013-06-23T06:40:09Z</time>
      </trkpt>
      <trkpt lat="44.51859" lon="2.7683">
        <ele>334.033</ele>
        <time>2013-06-23T06:40:16Z</time>
      </trkpt>
      <trkpt lat="44.51829" lon="2.76836">
        <ele>336.885</ele>
        <time>2013-06-23T06:40:25Z</time>
      </trkpt>
      <trkpt lat="44.51809" lon="2.7684">
        <ele>339.914</ele>
        <time>2013-06-23T06:40:31Z</time>
      </trkpt>
      <trkpt lat="44.51799" lon="2.76863">
        <ele>343.784</ele>
        <time>2013-06-23T06:40:37Z</time>
      </trkpt>
      <trkpt lat="44.51792" lon="2.76889">
        <ele>347.523</ele>
        <time>2013-06-23T06:40:45Z</time>
      </trkpt>
      <trkpt lat="44.51777" lon="2.76918">
        <ele>348.883</ele>
        <time>2013-06-23T06:40:54Z</time>
      </trkpt>
      <trkpt lat="44.51764" lon="2.76945">
        <ele>349.242</ele>
        <time>2013-06-23T06:41:02Z</time>
      </trkpt>
      <trkpt lat="44.51755" lon="2.76967">
        <ele>349.532</ele>
        <time>2013-06-23T06:41:09Z</time>
      </trkpt>
      <trkpt lat="44.51737" lon="2.76977">
        <ele>350.942</ele>
        <time>2013-06-23T06:41:16Z</time>
      </trkpt>
      <trkpt lat="44.51706" lon="2.76982">
        <ele>351.152</ele>
        <time>2013-06-23T06:41:26Z</time>
      </trkpt>
      <trkpt lat="44.51669" lon="2.76987">
        <ele>351.291</ele>
        <time>2013-06-23T06:41:37Z</time>
      </trkpt>
      <trkpt lat="44.51646" lon="2.76991">
        <ele>351.612</ele>
        <time>2013-06-23T06:41:44Z</time>
      </trkpt>
      <trkpt lat="44.51625" lon="2.76996">
        <ele>352.402</ele>
        <time>2013-06-23T06:41:51Z</time>
      </trkpt>
      <trkpt lat="44.51607" lon="2.77">
        <ele>352.752</ele>
        <time>2013-06-23T06:41:58Z</time>
      </trkpt>
      <trkpt lat="44.51598" lon="2.77001">
        <ele>353.903</ele>
        <time>2013-06-23T06:42:03Z</time>
      </trkpt>
      <trkpt lat="44.51585" lon="2.77003">
        <ele>356.232</ele>
        <time>2013-06-23T06:42:17Z</time>
      </trkpt>
      <trkpt lat="44.51569" lon="2.77003">
        <ele>357.982</ele>
        <time>2013-06-23T06:42:24Z</time>
      </trkpt>
      <trkpt lat="44.51556" lon="2.77002">
        <ele>360.462</ele>
        <time>2013-06-23T06:42:32Z</time>
      </trkpt>
      <trkpt lat="44.51545" lon="2.77001">
        <ele>362.732</ele>
        <time>2013-06-23T06:42:41Z</time>
      </trkpt>
      <trkpt lat="44.51536" lon="2.76924">
        <ele>364.292</ele>
        <time>2013-06-23T06:42:47Z</time>
      </trkpt>
      <trkpt lat="44.51536" lon="2.76924">
        <ele>365.071</ele>
        <time>2013-06-23T06:42:54Z</time>
      </trkpt>
      <trkpt lat="44.51536" lon="2.76924">
        <ele>364.96</ele>
        <time>2013-06-23T06:43:00Z</time>
      </trkpt>
      <trkpt lat="44.51545" lon="2.76901">
        <ele>363.62</ele>
        <time>2013-06-23T06:43:07Z</time>
      </trkpt>
      <trkpt lat="44.51563" lon="2.76871">
        <ele>363.381</ele>
        <time>2013-06-23T06:43:16Z</time>
      </trkpt>
      <trkpt lat="44.51574" lon="2.7685">
        <ele>363.6</ele>
        <time>2013-06-23T06:43:23Z</time>
      </trkpt>
      <trkpt lat="44.51585" lon="2.7683">
        <ele>363.11</ele>
        <time>2013-06-23T06:43:30Z</time>
      </trkpt>
      <trkpt lat="44.51596" lon="2.76808">
        <ele>362.26</ele>
        <time>2013-06-23T06:43:38Z</time>
      </trkpt>
      <trkpt lat="44.51647" lon="2.76754">
        <ele>361.3</ele>
        <time>2013-06-23T06:43:47Z</time>
      </trkpt>
      <trkpt lat="44.51647" lon="2.76729">
        <ele>360.95</ele>
        <time>2013-06-23T06:43:55Z</time>
      </trkpt>
      <trkpt lat="44.51657" lon="2.76712">
        <ele>361.04</ele>
        <time>2013-06-23T06:44:03Z</time>
      </trkpt>
      <trkpt lat="44.51672" lon="2.76686">
        <ele>360.79</ele>
        <time>2013-06-23T06:44:10Z</time>
      </trkpt>
      <trkpt lat="44.51682" lon="2.7666">
        <ele>361.27</ele>
        <time>2013-06-23T06:44:19Z</time>
      </trkpt>
      <trkpt lat="44.51684" lon="2.76588">
        <ele>360.149</ele>
        <time>2013-06-23T06:44:27Z</time>
      </trkpt>
      <trkpt lat="44.51686" lon="2.76569">
        <ele>360.75</ele>
        <time>2013-06-23T06:44:33Z</time>
      </trkpt>
      <trkpt lat="44.51687" lon="2.76564">
        <ele>361.01</ele>
        <time>2013-06-23T06:44:36Z</time>
      </trkpt>
      <trkpt lat="44.51687" lon="2.76559">
        <ele>359.89</ele>
        <time>2013-06-23T06:44:53Z</time>
      </trkpt>
      <trkpt lat="44.51692" lon="2.76534">
        <ele>359.83</ele>
        <time>2013-06-23T06:44:58Z</time>
      </trkpt>
      <trkpt lat="44.51702" lon="2.76495">
        <ele>358.96</ele>
        <time>2013-06-23T06:45:04Z</time>
      </trkpt>
      <trkpt lat="44.51706" lon="2.7648">
        <ele>359.13</ele>
        <time>2013-06-23T06:45:06Z</time>
      </trkpt>
      <trkpt lat="44.51715" lon="2.76436">
        <ele>359.71</ele>
        <time>2013-06-23T06:45:12Z</time>
      </trkpt>
      <trkpt lat="44.51717" lon="2.76383">
        <ele>359.901</ele>
        <time>2013-06-23T06:45:19Z</time>
      </trkpt>
      <trkpt lat="44.51713" lon="2.76345">
        <ele>360.841</ele>
        <time>2013-06-23T06:45:24Z</time>
      </trkpt>
      <trkpt lat="44.51711" lon="2.76329">
        <ele>361.401</ele>
        <time>2013-06-23T06:45:26Z</time>
      </trkpt>
      <trkpt lat="44.51705" lon="2.76295">
        <ele>363.471</ele>
        <time>2013-06-23T06:45:31Z</time>
      </trkpt>
      <trkpt lat="44.51691" lon="2.7626">
        <ele>368.191</ele>
        <time>2013-06-23T06:45:39Z</time>
      </trkpt>
      <trkpt lat="44.51678" lon="2.76232">
        <ele>370.391</ele>
        <time>2013-06-23T06:45:47Z</time>
      </trkpt>
      <trkpt lat="44.51664" lon="2.76207">
        <ele>371.131</ele>
        <time>2013-06-23T06:45:54Z</time>
      </trkpt>
      <trkpt lat="44.51641" lon="2.76175">
        <ele>371.743</ele>
        <time>2013-06-23T06:46:03Z</time>
      </trkpt>
      <trkpt lat="44.51618" lon="2.76148">
        <ele>381.074</ele>
        <time>2013-06-23T06:46:12Z</time>
      </trkpt>
      <trkpt lat="44.51592" lon="2.76126">
        <ele>393.426</ele>
        <time>2013-06-23T06:46:21Z</time>
      </trkpt>
      <trkpt lat="44.5157" lon="2.76109">
        <ele>398.574</ele>
        <time>2013-06-23T06:46:28Z</time>
      </trkpt>
      <trkpt lat="44.51503" lon="2.7604">
        <ele>426.924</ele>
        <time>2013-06-23T06:46:55Z</time>
      </trkpt>
      <trkpt lat="44.51478" lon="2.76008">
        <ele>399.618</ele>
        <time>2013-06-23T06:46:59Z</time>
      </trkpt>
      <trkpt lat="44.51453" lon="2.75966">
        <ele>383.759</ele>
        <time>2013-06-23T06:47:07Z</time>
      </trkpt>
      <trkpt lat="44.51434" lon="2.75926">
        <ele>384.92</ele>
        <time>2013-06-23T06:47:16Z</time>
      </trkpt>
      <trkpt lat="44.51421" lon="2.75888">
        <ele>386.851</ele>
        <time>2013-06-23T06:47:24Z</time>
      </trkpt>
      <trkpt lat="44.51413" lon="2.75862">
        <ele>392.471</ele>
        <time>2013-06-23T06:47:30Z</time>
      </trkpt>
      <trkpt lat="44.51404" lon="2.75835">
        <ele>392.2</ele>
        <time>2013-06-23T06:47:36Z</time>
      </trkpt>
      <trkpt lat="44.51395" lon="2.75813">
        <ele>392.691</ele>
        <time>2013-06-23T06:47:42Z</time>
      </trkpt>
      <trkpt lat="44.51378" lon="2.75782">
        <ele>390.41</ele>
        <time>2013-06-23T06:47:50Z</time>
      </trkpt>
      <trkpt lat="44.51353" lon="2.75755">
        <ele>390.037</ele>
        <time>2013-06-23T06:47:59Z</time>
      </trkpt>
      <trkpt lat="44.51329" lon="2.75734">
        <ele>392.38</ele>
        <time>2013-06-23T06:48:07Z</time>
      </trkpt>
      <trkpt lat="44.51303" lon="2.75716">
        <ele>396.49</ele>
        <time>2013-06-23T06:48:15Z</time>
      </trkpt>
      <trkpt lat="44.51271" lon="2.75698">
        <ele>402.353</ele>
        <time>2013-06-23T06:48:24Z</time>
      </trkpt>
      <trkpt lat="44.51256" lon="2.75689">
        <ele>409.323</ele>
        <time>2013-06-23T06:48:30Z</time>
      </trkpt>
      <trkpt lat="44.51231" lon="2.75675">
        <ele>411.042</ele>
        <time>2013-06-23T06:48:38Z</time>
      </trkpt>
      <trkpt lat="44.51211" lon="2.75663">
        <ele>414.011</ele>
        <time>2013-06-23T06:48:44Z</time>
      </trkpt>
      <trkpt lat="44.51185" lon="2.75648">
        <ele>412.72</ele>
        <time>2013-06-23T06:48:51Z</time>
      </trkpt>
      <trkpt lat="44.51161" lon="2.75631">
        <ele>408.729</ele>
        <time>2013-06-23T06:48:58Z</time>
      </trkpt>
      <trkpt lat="44.51142" lon="2.75616">
        <ele>403.869</ele>
        <time>2013-06-23T06:49:04Z</time>
      </trkpt>
      <trkpt lat="44.51118" lon="2.75587">
        <ele>399.217</ele>
        <time>2013-06-23T06:49:13Z</time>
      </trkpt>
      <trkpt lat="44.511" lon="2.75561">
        <ele>397.417</ele>
        <time>2013-06-23T06:49:21Z</time>
      </trkpt>
      <trkpt lat="44.51082" lon="2.75525">
        <ele>397.018</ele>
        <time>2013-06-23T06:49:30Z</time>
      </trkpt>
      <trkpt lat="44.51067" lon="2.75485">
        <ele>397.127</ele>
        <time>2013-06-23T06:49:40Z</time>
      </trkpt>
      <trkpt lat="44.5106" lon="2.75458">
        <ele>396.877</ele>
        <time>2013-06-23T06:49:47Z</time>
      </trkpt>
      <trkpt lat="44.51054" lon="2.75427">
        <ele>396.756</ele>
        <time>2013-06-23T06:49:55Z</time>
      </trkpt>
      <trkpt lat="44.51051" lon="2.75402">
        <ele>397.506</ele>
        <time>2013-06-23T06:50:01Z</time>
      </trkpt>
      <trkpt lat="44.51047" lon="2.75373">
        <ele>399.217</ele>
        <time>2013-06-23T06:50:07Z</time>
      </trkpt>
      <trkpt lat="44.51041" lon="2.75341">
        <ele>399.509</ele>
        <time>2013-06-23T06:50:13Z</time>
      </trkpt>
      <trkpt lat="44.5104" lon="2.75335">
        <ele>399.676</ele>
        <time>2013-06-23T06:50:14Z</time>
      </trkpt>
      <trkpt lat="44.51038" lon="2.75323">
        <ele>400.586</ele>
        <time>2013-06-23T06:50:16Z</time>
      </trkpt>
      <trkpt lat="44.51028" lon="2.75277">
        <ele>404.697</ele>
        <time>2013-06-23T06:50:24Z</time>
      </trkpt>
      <trkpt lat="44.51024" lon="2.75261">
        <ele>404.637</ele>
        <time>2013-06-23T06:50:27Z</time>
      </trkpt>
      <trkpt lat="44.51004" lon="2.75222">
        <ele>402.016</ele>
        <time>2013-06-23T06:50:36Z</time>
      </trkpt>
      <trkpt lat="44.50985" lon="2.75199">
        <ele>402.267</ele>
        <time>2013-06-23T06:50:43Z</time>
      </trkpt>
      <trkpt lat="44.50959" lon="2.75176">
        <ele>402.987</ele>
        <time>2013-06-23T06:50:51Z</time>
      </trkpt>
      <trkpt lat="44.50933" lon="2.7515">
        <ele>407.549</ele>
        <time>2013-06-23T06:50:59Z</time>
      </trkpt>
      <trkpt lat="44.50908" lon="2.75135">
        <ele>412.74</ele>
        <time>2013-06-23T06:51:07Z</time>
      </trkpt>
      <trkpt lat="44.5088" lon="2.75122">
        <ele>414.841</ele>
        <time>2013-06-23T06:51:15Z</time>
      </trkpt>
      <trkpt lat="44.50855" lon="2.7511">
        <ele>414.036</ele>
        <time>2013-06-23T06:51:22Z</time>
      </trkpt>
      <trkpt lat="44.50835" lon="2.751">
        <ele>415.007</ele>
        <time>2013-06-23T06:51:28Z</time>
      </trkpt>
      <trkpt lat="44.50816" lon="2.7509">
        <ele>416.097</ele>
        <time>2013-06-23T06:51:34Z</time>
      </trkpt>
      <trkpt lat="44.50803" lon="2.7509">
        <ele>420.419</ele>
        <time>2013-06-23T06:51:39Z</time>
      </trkpt>
      <trkpt lat="44.50781" lon="2.75079">
        <ele>424.8</ele>
        <time>2013-06-23T06:51:46Z</time>
      </trkpt>
      <trkpt lat="44.50757" lon="2.75066">
        <ele>427.049</ele>
        <time>2013-06-23T06:51:53Z</time>
      </trkpt>
      <trkpt lat="44.50737" lon="2.75054">
        <ele>423.136</ele>
        <time>2013-06-23T06:51:59Z</time>
      </trkpt>
      <trkpt lat="44.50714" lon="2.75034">
        <ele>423.566</ele>
        <time>2013-06-23T06:52:06Z</time>
      </trkpt>
      <trkpt lat="44.50692" lon="2.75005">
        <ele>426.647</ele>
        <time>2013-06-23T06:52:14Z</time>
      </trkpt>
      <trkpt lat="44.50672" lon="2.74973">
        <ele>433.098</ele>
        <time>2013-06-23T06:52:23Z</time>
      </trkpt>
      <trkpt lat="44.50659" lon="2.74939">
        <ele>431.636</ele>
        <time>2013-06-23T06:52:30Z</time>
      </trkpt>
      <trkpt lat="44.5065" lon="2.749">
        <ele>426.754</ele>
        <time>2013-06-23T06:52:38Z</time>
      </trkpt>
      <trkpt lat="44.50643" lon="2.74855">
        <ele>418.514</ele>
        <time>2013-06-23T06:52:47Z</time>
      </trkpt>
      <trkpt lat="44.50643" lon="2.74819">
        <ele>415.595</ele>
        <time>2013-06-23T06:52:55Z</time>
      </trkpt>
      <trkpt lat="44.50646" lon="2.74782">
        <ele>415.385</ele>
        <time>2013-06-23T06:53:04Z</time>
      </trkpt>
      <trkpt lat="44.50654" lon="2.74747">
        <ele>416.265</ele>
        <time>2013-06-23T06:53:13Z</time>
      </trkpt>
      <trkpt lat="44.5066" lon="2.74727">
        <ele>416.613</ele>
        <time>2013-06-23T06:53:20Z</time>
      </trkpt>
      <trkpt lat="44.5066" lon="2.74727">
        <ele>416.953</ele>
        <time>2013-06-23T06:53:26Z</time>
      </trkpt>
      <trkpt lat="44.50677" lon="2.7469">
        <ele>417.754</ele>
        <time>2013-06-23T06:53:46Z</time>
      </trkpt>
      <trkpt lat="44.50727" lon="2.74622">
        <ele>430.196</ele>
        <time>2013-06-23T06:53:52Z</time>
      </trkpt>
      <trkpt lat="44.50761" lon="2.74595">
        <ele>427.193</ele>
        <time>2013-06-23T06:53:58Z</time>
      </trkpt>
      <trkpt lat="44.50777" lon="2.74589">
        <ele>424.512</ele>
        <time>2013-06-23T06:54:03Z</time>
      </trkpt>
      <trkpt lat="44.50798" lon="2.74584">
        <ele>420.232</ele>
        <time>2013-06-23T06:54:10Z</time>
      </trkpt>
      <trkpt lat="44.5082" lon="2.74581">
        <ele>417.073</ele>
        <time>2013-06-23T06:54:17Z</time>
      </trkpt>
      <trkpt lat="44.50848" lon="2.74583">
        <ele>416.414</ele>
        <time>2013-06-23T06:54:25Z</time>
      </trkpt>
      <trkpt lat="44.50876" lon="2.7459">
        <ele>420.595</ele>
        <time>2013-06-23T06:54:33Z</time>
      </trkpt>
      <trkpt lat="44.50895" lon="2.74596">
        <ele>426.437</ele>
        <time>2013-06-23T06:54:39Z</time>
      </trkpt>
      <trkpt lat="44.50934" lon="2.74621">
        <ele>439.436</ele>
        <time>2013-06-23T06:54:59Z</time>
      </trkpt>
      <trkpt lat="44.50971" lon="2.74656">
        <ele>427.064</ele>
        <time>2013-06-23T06:55:04Z</time>
      </trkpt>
      <trkpt lat="44.50993" lon="2.74691">
        <ele>421.584</ele>
        <time>2013-06-23T06:55:10Z</time>
      </trkpt>
      <trkpt lat="44.51016" lon="2.74737">
        <ele>420.225</ele>
        <time>2013-06-23T06:55:20Z</time>
      </trkpt>
      <trkpt lat="44.51039" lon="2.7478">
        <ele>421.496</ele>
        <time>2013-06-23T06:55:30Z</time>
      </trkpt>
      <trkpt lat="44.51062" lon="2.74825">
        <ele>421.225</ele>
        <time>2013-06-23T06:55:40Z</time>
      </trkpt>
      <trkpt lat="44.51082" lon="2.74863">
        <ele>423.466</ele>
        <time>2013-06-23T06:55:49Z</time>
      </trkpt>
      <trkpt lat="44.51108" lon="2.74904">
        <ele>426.305</ele>
        <time>2013-06-23T06:55:59Z</time>
      </trkpt>
      <trkpt lat="44.51138" lon="2.74931">
        <ele>428.315</ele>
        <time>2013-06-23T06:56:08Z</time>
      </trkpt>
      <trkpt lat="44.51165" lon="2.74946">
        <ele>429.696</ele>
        <time>2013-06-23T06:56:16Z</time>
      </trkpt>
      <trkpt lat="44.51195" lon="2.7495">
        <ele>430.316</ele>
        <time>2013-06-23T06:56:24Z</time>
      </trkpt>
      <trkpt lat="44.5122" lon="2.7495">
        <ele>429.566</ele>
        <time>2013-06-23T06:56:30Z</time>
      </trkpt>
      <trkpt lat="44.51249" lon="2.74936">
        <ele>426.984</ele>
        <time>2013-06-23T06:56:37Z</time>
      </trkpt>
      <trkpt lat="44.51275" lon="2.74916">
        <ele>425.755</ele>
        <time>2013-06-23T06:56:44Z</time>
      </trkpt>
      <trkpt lat="44.51294" lon="2.74897">
        <ele>426.825</ele>
        <time>2013-06-23T06:56:50Z</time>
      </trkpt>
      <trkpt lat="44.51316" lon="2.74874">
        <ele>430.806</ele>
        <time>2013-06-23T06:56:57Z</time>
      </trkpt>
      <trkpt lat="44.51333" lon="2.74855">
        <ele>432.625</ele>
        <time>2013-06-23T06:57:03Z</time>
      </trkpt>
      <trkpt lat="44.51362" lon="2.74825">
        <ele>432.316</ele>
        <time>2013-06-23T06:57:11Z</time>
      </trkpt>
      <trkpt lat="44.51389" lon="2.74797">
        <ele>433.876</ele>
        <time>2013-06-23T06:57:19Z</time>
      </trkpt>
      <trkpt lat="44.51414" lon="2.7477">
        <ele>435.987</ele>
        <time>2013-06-23T06:57:27Z</time>
      </trkpt>
      <trkpt lat="44.51439" lon="2.7474">
        <ele>438.077</ele>
        <time>2013-06-23T06:57:36Z</time>
      </trkpt>
      <trkpt lat="44.51462" lon="2.74716">
        <ele>440.106</ele>
        <time>2013-06-23T06:57:44Z</time>
      </trkpt>
      <trkpt lat="44.5149" lon="2.74686">
        <ele>442.927</ele>
        <time>2013-06-23T06:57:54Z</time>
      </trkpt>
      <trkpt lat="44.51518" lon="2.74657">
        <ele>445.137</ele>
        <time>2013-06-23T06:58:04Z</time>
      </trkpt>
      <trkpt lat="44.5155" lon="2.74623">
        <ele>447.197</ele>
        <time>2013-06-23T06:58:16Z</time>
      </trkpt>
      <trkpt lat="44.51576" lon="2.74596">
        <ele>448.457</ele>
        <time>2013-06-23T06:58:26Z</time>
      </trkpt>
      <trkpt lat="44.51603" lon="2.74568">
        <ele>449.817</ele>
        <time>2013-06-23T06:58:35Z</time>
      </trkpt>
      <trkpt lat="44.51621" lon="2.74546">
        <ele>450.747</ele>
        <time>2013-06-23T06:58:41Z</time>
      </trkpt>
      <trkpt lat="44.5164" lon="2.74516">
        <ele>452.247</ele>
        <time>2013-06-23T06:58:48Z</time>
      </trkpt>
      <trkpt lat="44.51653" lon="2.74483">
        <ele>453.207</ele>
        <time>2013-06-23T06:58:55Z</time>
      </trkpt>
      <trkpt lat="44.51661" lon="2.74444">
        <ele>454.157</ele>
        <time>2013-06-23T06:59:03Z</time>
      </trkpt>
      <trkpt lat="44.51664" lon="2.7441">
        <ele>455.277</ele>
        <time>2013-06-23T06:59:10Z</time>
      </trkpt>
      <trkpt lat="44.51662" lon="2.74366">
        <ele>456.307</ele>
        <time>2013-06-23T06:59:19Z</time>
      </trkpt>
      <trkpt lat="44.5165" lon="2.74325">
        <ele>458.447</ele>
        <time>2013-06-23T06:59:28Z</time>
      </trkpt>
      <trkpt lat="44.51641" lon="2.74301">
        <ele>459.727</ele>
        <time>2013-06-23T06:59:34Z</time>
      </trkpt>
      <trkpt lat="44.51625" lon="2.74276">
        <ele>461.787</ele>
        <time>2013-06-23T06:59:43Z</time>
      </trkpt>
      <trkpt lat="44.51608" lon="2.74252">
        <ele>462.247</ele>
        <time>2013-06-23T06:59:51Z</time>
      </trkpt>
      <trkpt lat="44.51589" lon="2.74227">
        <ele>463.127</ele>
        <time>2013-06-23T06:59:59Z</time>
      </trkpt>
      <trkpt lat="44.5157" lon="2.74204">
        <ele>464.208</ele>
        <time>2013-06-23T07:00:07Z</time>
      </trkpt>
      <trkpt lat="44.51552" lon="2.74182">
        <ele>464.907</ele>
        <time>2013-06-23T07:00:15Z</time>
      </trkpt>
      <trkpt lat="44.51529" lon="2.74154">
        <ele>466.298</ele>
        <time>2013-06-23T07:00:25Z</time>
      </trkpt>
      <trkpt lat="44.5151" lon="2.74129">
        <ele>468.138</ele>
        <time>2013-06-23T07:00:34Z</time>
      </trkpt>
      <trkpt lat="44.51492" lon="2.74107">
        <ele>468.617</ele>
        <time>2013-06-23T07:00:42Z</time>
      </trkpt>
      <trkpt lat="44.51476" lon="2.74086">
        <ele>470.967</ele>
        <time>2013-06-23T07:00:49Z</time>
      </trkpt>
      <trkpt lat="44.51451" lon="2.74056">
        <ele>470.256</ele>
        <time>2013-06-23T07:00:59Z</time>
      </trkpt>
      <trkpt lat="44.51428" lon="2.74028">
        <ele>468.996</ele>
        <time>2013-06-23T07:01:08Z</time>
      </trkpt>
      <trkpt lat="44.51404" lon="2.73997">
        <ele>469.337</ele>
        <time>2013-06-23T07:01:18Z</time>
      </trkpt>
      <trkpt lat="44.5138" lon="2.73967">
        <ele>470.756</ele>
        <time>2013-06-23T07:01:28Z</time>
      </trkpt>
      <trkpt lat="44.51357" lon="2.73938">
        <ele>470.815</ele>
        <time>2013-06-23T07:01:37Z</time>
      </trkpt>
      <trkpt lat="44.51337" lon="2.73912">
        <ele>471.276</ele>
        <time>2013-06-23T07:01:45Z</time>
      </trkpt>
      <trkpt lat="44.51313" lon="2.73883">
        <ele>472.236</ele>
        <time>2013-06-23T07:01:54Z</time>
      </trkpt>
      <trkpt lat="44.51287" lon="2.73851">
        <ele>473.596</ele>
        <time>2013-06-23T07:02:04Z</time>
      </trkpt>
      <trkpt lat="44.51267" lon="2.73826">
        <ele>473.325</ele>
        <time>2013-06-23T07:02:12Z</time>
      </trkpt>
      <trkpt lat="44.51251" lon="2.73804">
        <ele>476.756</ele>
        <time>2013-06-23T07:02:19Z</time>
      </trkpt>
      <trkpt lat="44.51236" lon="2.73784">
        <ele>481.055</ele>
        <time>2013-06-23T07:02:26Z</time>
      </trkpt>
      <trkpt lat="44.51215" lon="2.73756">
        <ele>483.035</ele>
        <time>2013-06-23T07:02:35Z</time>
      </trkpt>
      <trkpt lat="44.51195" lon="2.73734">
        <ele>481.545</ele>
        <time>2013-06-23T07:02:42Z</time>
      </trkpt>
      <trkpt lat="44.51167" lon="2.73704">
        <ele>481.855</ele>
        <time>2013-06-23T07:02:52Z</time>
      </trkpt>
      <trkpt lat="44.51139" lon="2.73679">
        <ele>482.745</ele>
        <time>2013-06-23T07:03:02Z</time>
      </trkpt>
      <trkpt lat="44.51116" lon="2.73672">
        <ele>484.676</ele>
        <time>2013-06-23T07:03:10Z</time>
      </trkpt>
      <trkpt lat="44.51093" lon="2.73667">
        <ele>486.285</ele>
        <time>2013-06-23T07:03:18Z</time>
      </trkpt>
      <trkpt lat="44.5107" lon="2.73667">
        <ele>484.413</ele>
        <time>2013-06-23T07:03:25Z</time>
      </trkpt>
      <trkpt lat="44.51046" lon="2.73669">
        <ele>482.063</ele>
        <time>2013-06-23T07:03:32Z</time>
      </trkpt>
      <trkpt lat="44.51008" lon="2.73679">
        <ele>480.234</ele>
        <time>2013-06-23T07:03:43Z</time>
      </trkpt>
      <trkpt lat="44.5099" lon="2.73685">
        <ele>480.614</ele>
        <time>2013-06-23T07:03:49Z</time>
      </trkpt>
      <trkpt lat="44.50967" lon="2.73693">
        <ele>483.795</ele>
        <time>2013-06-23T07:03:56Z</time>
      </trkpt>
      <trkpt lat="44.50942" lon="2.73706">
        <ele>483.803</ele>
        <time>2013-06-23T07:04:04Z</time>
      </trkpt>
      <trkpt lat="44.50923" lon="2.73722">
        <ele>481.962</ele>
        <time>2013-06-23T07:04:11Z</time>
      </trkpt>
      <trkpt lat="44.50903" lon="2.73747">
        <ele>483.202</ele>
        <time>2013-06-23T07:04:19Z</time>
      </trkpt>
      <trkpt lat="44.50887" lon="2.73766">
        <ele>482.981</ele>
        <time>2013-06-23T07:04:25Z</time>
      </trkpt>
      <trkpt lat="44.50869" lon="2.73789">
        <ele>484.644</ele>
        <time>2013-06-23T07:04:32Z</time>
      </trkpt>
      <trkpt lat="44.50856" lon="2.73829">
        <ele>485.403</ele>
        <time>2013-06-23T07:04:41Z</time>
      </trkpt>
      <trkpt lat="44.50845" lon="2.73869">
        <ele>486.043</ele>
        <time>2013-06-23T07:04:50Z</time>
      </trkpt>
      <trkpt lat="44.50836" lon="2.73919">
        <ele>489.383</ele>
        <time>2013-06-23T07:05:01Z</time>
      </trkpt>
      <trkpt lat="44.50829" lon="2.73965">
        <ele>491.953</ele>
        <time>2013-06-23T07:05:11Z</time>
      </trkpt>
      <trkpt lat="44.50821" lon="2.7401">
        <ele>494.584</ele>
        <time>2013-06-23T07:05:21Z</time>
      </trkpt>
      <trkpt lat="44.50815" lon="2.7404">
        <ele>496.814</ele>
        <time>2013-06-23T07:05:28Z</time>
      </trkpt>
      <trkpt lat="44.5081" lon="2.74068">
        <ele>501.825</ele>
        <time>2013-06-23T07:05:35Z</time>
      </trkpt>
      <trkpt lat="44.50803" lon="2.74106">
        <ele>501.564</ele>
        <time>2013-06-23T07:05:43Z</time>
      </trkpt>
      <trkpt lat="44.50792" lon="2.7415">
        <ele>502.064</ele>
        <time>2013-06-23T07:05:53Z</time>
      </trkpt>
      <trkpt lat="44.5079" lon="2.74155">
        <ele>501.663</ele>
        <time>2013-06-23T07:05:54Z</time>
      </trkpt>
      <trkpt lat="44.5078" lon="2.74188">
        <ele>500.124</ele>
        <time>2013-06-23T07:06:01Z</time>
      </trkpt>
      <trkpt lat="44.50766" lon="2.7422">
        <ele>500.034</ele>
        <time>2013-06-23T07:06:09Z</time>
      </trkpt>
      <trkpt lat="44.50754" lon="2.74241">
        <ele>498.413</ele>
        <time>2013-06-23T07:06:15Z</time>
      </trkpt>
      <trkpt lat="44.5074" lon="2.74265">
        <ele>495.652</ele>
        <time>2013-06-23T07:06:22Z</time>
      </trkpt>
      <trkpt lat="44.50721" lon="2.74292">
        <ele>494.262</ele>
        <time>2013-06-23T07:06:30Z</time>
      </trkpt>
      <trkpt lat="44.50701" lon="2.74312">
        <ele>491.411</ele>
        <time>2013-06-23T07:06:37Z</time>
      </trkpt>
      <trkpt lat="44.50684" lon="2.74328">
        <ele>492.903</ele>
        <time>2013-06-23T07:06:43Z</time>
      </trkpt>
      <trkpt lat="44.50668" lon="2.7434">
        <ele>491.362</ele>
        <time>2013-06-23T07:06:49Z</time>
      </trkpt>
      <trkpt lat="44.50649" lon="2.74355">
        <ele>494.043</ele>
        <time>2013-06-23T07:06:56Z</time>
      </trkpt>
      <trkpt lat="44.50627" lon="2.74368">
        <ele>497.213</ele>
        <time>2013-06-23T07:07:03Z</time>
      </trkpt>
      <trkpt lat="44.506" lon="2.7438">
        <ele>497.773</ele>
        <time>2013-06-23T07:07:11Z</time>
      </trkpt>
      <trkpt lat="44.50575" lon="2.74381">
        <ele>498.874</ele>
        <time>2013-06-23T07:07:18Z</time>
      </trkpt>
      <trkpt lat="44.50552" lon="2.74381">
        <ele>501.053</ele>
        <time>2013-06-23T07:07:25Z</time>
      </trkpt>
      <trkpt lat="44.5052" lon="2.74379">
        <ele>500.862</ele>
        <time>2013-06-23T07:07:34Z</time>
      </trkpt>
      <trkpt lat="44.50492" lon="2.74376">
        <ele>502.713</ele>
        <time>2013-06-23T07:07:42Z</time>
      </trkpt>
      <trkpt lat="44.50465" lon="2.74374">
        <ele>504.484</ele>
        <time>2013-06-23T07:07:50Z</time>
      </trkpt>
      <trkpt lat="44.50444" lon="2.74372">
        <ele>504.542</ele>
        <time>2013-06-23T07:07:56Z</time>
      </trkpt>
      <trkpt lat="44.50424" lon="2.7437">
        <ele>504.702</ele>
        <time>2013-06-23T07:08:02Z</time>
      </trkpt>
      <trkpt lat="44.50403" lon="2.74367">
        <ele>505.102</ele>
        <time>2013-06-23T07:08:09Z</time>
      </trkpt>
      <trkpt lat="44.50379" lon="2.74365">
        <ele>505.103</ele>
        <time>2013-06-23T07:08:16Z</time>
      </trkpt>
      <trkpt lat="44.50352" lon="2.74362">
        <ele>504.582</ele>
        <time>2013-06-23T07:08:24Z</time>
      </trkpt>
      <trkpt lat="44.50313" lon="2.74359">
        <ele>504.832</ele>
        <time>2013-06-23T07:08:36Z</time>
      </trkpt>
      <trkpt lat="44.50284" lon="2.74355">
        <ele>505.062</ele>
        <time>2013-06-23T07:08:45Z</time>
      </trkpt>
      <trkpt lat="44.50256" lon="2.74351">
        <ele>506.173</ele>
        <time>2013-06-23T07:08:54Z</time>
      </trkpt>
      <trkpt lat="44.50235" lon="2.74348">
        <ele>508.106</ele>
        <time>2013-06-23T07:09:02Z</time>
      </trkpt>
      <trkpt lat="44.50223" lon="2.74346">
        <ele>510.002</ele>
        <time>2013-06-23T07:09:07Z</time>
      </trkpt>
      <trkpt lat="44.50208" lon="2.74343">
        <ele>511.102</ele>
        <time>2013-06-23T07:09:13Z</time>
      </trkpt>
      <trkpt lat="44.50181" lon="2.74338">
        <ele>511.862</ele>
        <time>2013-06-23T07:09:21Z</time>
      </trkpt>
      <trkpt lat="44.5016" lon="2.7433">
        <ele>513.402</ele>
        <time>2013-06-23T07:09:28Z</time>
      </trkpt>
      <trkpt lat="44.50129" lon="2.74312">
        <ele>513.882</ele>
        <time>2013-06-23T07:09:39Z</time>
      </trkpt>
      <trkpt lat="44.50099" lon="2.74281">
        <ele>515.801</ele>
        <time>2013-06-23T07:09:50Z</time>
      </trkpt>
      <trkpt lat="44.50082" lon="2.74259">
        <ele>517.452</ele>
        <time>2013-06-23T07:09:58Z</time>
      </trkpt>
      <trkpt lat="44.50065" lon="2.74231">
        <ele>521.133</ele>
        <time>2013-06-23T07:10:07Z</time>
      </trkpt>
      <trkpt lat="44.50043" lon="2.74203">
        <ele>525.913</ele>
        <time>2013-06-23T07:10:17Z</time>
      </trkpt>
      <trkpt lat="44.50022" lon="2.74182">
        <ele>527.022</ele>
        <time>2013-06-23T07:10:26Z</time>
      </trkpt>
      <trkpt lat="44.50014" lon="2.74178">
        <ele>529.032</ele>
        <time>2013-06-23T07:10:31Z</time>
      </trkpt>
      <trkpt lat="44.49922" lon="2.74154">
        <ele>538.831</ele>
        <time>2013-06-23T07:11:05Z</time>
      </trkpt>
      <trkpt lat="44.49892" lon="2.74162">
        <ele>525.489</ele>
        <time>2013-06-23T07:11:12Z</time>
      </trkpt>
      <trkpt lat="44.49865" lon="2.74179">
        <ele>521.12</ele>
        <time>2013-06-23T07:11:21Z</time>
      </trkpt>
      <trkpt lat="44.49846" lon="2.74195">
        <ele>521.48</ele>
        <time>2013-06-23T07:11:28Z</time>
      </trkpt>
      <trkpt lat="44.49828" lon="2.74214">
        <ele>522.92</ele>
        <time>2013-06-23T07:11:35Z</time>
      </trkpt>
      <trkpt lat="44.49808" lon="2.74248">
        <ele>522.46</ele>
        <time>2013-06-23T07:11:44Z</time>
      </trkpt>
      <trkpt lat="44.49792" lon="2.74286">
        <ele>522.14</ele>
        <time>2013-06-23T07:11:53Z</time>
      </trkpt>
      <trkpt lat="44.49779" lon="2.74324">
        <ele>522.69</ele>
        <time>2013-06-23T07:12:02Z</time>
      </trkpt>
      <trkpt lat="44.4977" lon="2.74349">
        <ele>523.73</ele>
        <time>2013-06-23T07:12:08Z</time>
      </trkpt>
      <trkpt lat="44.49762" lon="2.74372">
        <ele>523.2</ele>
        <time>2013-06-23T07:12:14Z</time>
      </trkpt>
      <trkpt lat="44.49749" lon="2.744">
        <ele>523.64</ele>
        <time>2013-06-23T07:12:21Z</time>
      </trkpt>
      <trkpt lat="44.49733" lon="2.74423">
        <ele>527.81</ele>
        <time>2013-06-23T07:12:28Z</time>
      </trkpt>
      <trkpt lat="44.49709" lon="2.7445">
        <ele>531.38</ele>
        <time>2013-06-23T07:12:37Z</time>
      </trkpt>
      <trkpt lat="44.49678" lon="2.74465">
        <ele>531.139</ele>
        <time>2013-06-23T07:12:47Z</time>
      </trkpt>
      <trkpt lat="44.4965" lon="2.74477">
        <ele>529.82</ele>
        <time>2013-06-23T07:12:56Z</time>
      </trkpt>
      <trkpt lat="44.49622" lon="2.74488">
        <ele>530.48</ele>
        <time>2013-06-23T07:13:05Z</time>
      </trkpt>
      <trkpt lat="44.49598" lon="2.74498">
        <ele>529.329</ele>
        <time>2013-06-23T07:13:13Z</time>
      </trkpt>
      <trkpt lat="44.49569" lon="2.7451">
        <ele>529.23</ele>
        <time>2013-06-23T07:13:23Z</time>
      </trkpt>
      <trkpt lat="44.49549" lon="2.7452">
        <ele>530.839</ele>
        <time>2013-06-23T07:13:31Z</time>
      </trkpt>
      <trkpt lat="44.49534" lon="2.74528">
        <ele>532.699</ele>
        <time>2013-06-23T07:13:37Z</time>
      </trkpt>
      <trkpt lat="44.4951" lon="2.74546">
        <ele>537.731</ele>
        <time>2013-06-23T07:13:46Z</time>
      </trkpt>
      <trkpt lat="44.49488" lon="2.74576">
        <ele>538.89</ele>
        <time>2013-06-23T07:13:55Z</time>
      </trkpt>
      <trkpt lat="44.49474" lon="2.74607">
        <ele>540.041</ele>
        <time>2013-06-23T07:14:03Z</time>
      </trkpt>
      <trkpt lat="44.49469" lon="2.74627">
        <ele>541.81</ele>
        <time>2013-06-23T07:14:08Z</time>
      </trkpt>
      <trkpt lat="44.49465" lon="2.74652">
        <ele>541.78</ele>
        <time>2013-06-23T07:14:14Z</time>
      </trkpt>
      <trkpt lat="44.49463" lon="2.74675">
        <ele>543.66</ele>
        <time>2013-06-23T07:14:19Z</time>
      </trkpt>
      <trkpt lat="44.49461" lon="2.74704">
        <ele>539.908</ele>
        <time>2013-06-23T07:14:25Z</time>
      </trkpt>
      <trkpt lat="44.49461" lon="2.74736">
        <ele>540.189</ele>
        <time>2013-06-23T07:14:31Z</time>
      </trkpt>
      <trkpt lat="44.4947" lon="2.74775">
        <ele>542.509</ele>
        <time>2013-06-23T07:14:38Z</time>
      </trkpt>
      <trkpt lat="44.49485" lon="2.74811">
        <ele>542.649</ele>
        <time>2013-06-23T07:14:46Z</time>
      </trkpt>
      <trkpt lat="44.49511" lon="2.74846">
        <ele>544.069</ele>
        <time>2013-06-23T07:14:56Z</time>
      </trkpt>
      <trkpt lat="44.49542" lon="2.74878">
        <ele>545.749</ele>
        <time>2013-06-23T07:15:07Z</time>
      </trkpt>
      <trkpt lat="44.4957" lon="2.74906">
        <ele>546.789</ele>
        <time>2013-06-23T07:15:17Z</time>
      </trkpt>
      <trkpt lat="44.49589" lon="2.74934">
        <ele>547.83</ele>
        <time>2013-06-23T07:15:25Z</time>
      </trkpt>
      <trkpt lat="44.49605" lon="2.74968">
        <ele>550.391</ele>
        <time>2013-06-23T07:15:33Z</time>
      </trkpt>
      <trkpt lat="44.49611" lon="2.74989">
        <ele>556.683</ele>
        <time>2013-06-23T07:15:39Z</time>
      </trkpt>
      <trkpt lat="44.49622" lon="2.7505">
        <ele>571.082</ele>
        <time>2013-06-23T07:16:03Z</time>
      </trkpt>
      <trkpt lat="44.49607" lon="2.75132">
        <ele>564.701</ele>
        <time>2013-06-23T07:16:08Z</time>
      </trkpt>
      <trkpt lat="44.49583" lon="2.75176">
        <ele>556.85</ele>
        <time>2013-06-23T07:16:16Z</time>
      </trkpt>
      <trkpt lat="44.4956" lon="2.75205">
        <ele>557.44</ele>
        <time>2013-06-23T07:16:25Z</time>
      </trkpt>
      <trkpt lat="44.49532" lon="2.75227">
        <ele>558.67</ele>
        <time>2013-06-23T07:16:34Z</time>
      </trkpt>
      <trkpt lat="44.49501" lon="2.75248">
        <ele>558.53</ele>
        <time>2013-06-23T07:16:44Z</time>
      </trkpt>
      <trkpt lat="44.49474" lon="2.75269">
        <ele>558.55</ele>
        <time>2013-06-23T07:16:53Z</time>
      </trkpt>
      <trkpt lat="44.49466" lon="2.75276">
        <ele>558.58</ele>
        <time>2013-06-23T07:16:56Z</time>
      </trkpt>
      <trkpt lat="44.49454" lon="2.75288">
        <ele>558.929</ele>
        <time>2013-06-23T07:17:01Z</time>
      </trkpt>
      <trkpt lat="44.49441" lon="2.75302">
        <ele>558.949</ele>
        <time>2013-06-23T07:17:05Z</time>
      </trkpt>
      <trkpt lat="44.49419" lon="2.75323">
        <ele>559.68</ele>
        <time>2013-06-23T07:17:11Z</time>
      </trkpt>
      <trkpt lat="44.49403" lon="2.75342">
        <ele>558.79</ele>
        <time>2013-06-23T07:17:17Z</time>
      </trkpt>
      <trkpt lat="44.49392" lon="2.75357">
        <ele>557.409</ele>
        <time>2013-06-23T07:17:21Z</time>
      </trkpt>
      <trkpt lat="44.49374" lon="2.75393">
        <ele>555.868</ele>
        <time>2013-06-23T07:17:27Z</time>
      </trkpt>
      <trkpt lat="44.4937" lon="2.754">
        <ele>555.418</ele>
        <time>2013-06-23T07:17:28Z</time>
      </trkpt>
      <trkpt lat="44.4935" lon="2.7544">
        <ele>555.009</ele>
        <time>2013-06-23T07:17:33Z</time>
      </trkpt>
      <trkpt lat="44.49346" lon="2.75449">
        <ele>554.799</ele>
        <time>2013-06-23T07:17:34Z</time>
      </trkpt>
      <trkpt lat="44.49323" lon="2.75497">
        <ele>550.448</ele>
        <time>2013-06-23T07:17:40Z</time>
      </trkpt>
      <trkpt lat="44.49362" lon="2.75572">
        <ele>547.177</ele>
        <time>2013-06-23T07:17:43Z</time>
      </trkpt>
      <trkpt lat="44.49363" lon="2.75588">
        <ele>546.127</ele>
        <time>2013-06-23T07:17:47Z</time>
      </trkpt>
      <trkpt lat="44.49377" lon="2.75599">
        <ele>546.468</ele>
        <time>2013-06-23T07:17:50Z</time>
      </trkpt>
      <trkpt lat="44.49389" lon="2.75604">
        <ele>547.239</ele>
        <time>2013-06-23T07:17:52Z</time>
      </trkpt>
      <trkpt lat="44.49428" lon="2.75616">
        <ele>551.65</ele>
        <time>2013-06-23T07:17:58Z</time>
      </trkpt>
      <trkpt lat="44.49445" lon="2.7562">
        <ele>552.42</ele>
        <time>2013-06-23T07:18:01Z</time>
      </trkpt>
      <trkpt lat="44.49466" lon="2.75622">
        <ele>553.19</ele>
        <time>2013-06-23T07:18:05Z</time>
      </trkpt>
      <trkpt lat="44.49495" lon="2.75627">
        <ele>555.071</ele>
        <time>2013-06-23T07:18:11Z</time>
      </trkpt>
      <trkpt lat="44.49501" lon="2.75628">
        <ele>555.04</ele>
        <time>2013-06-23T07:18:12Z</time>
      </trkpt>
      <trkpt lat="44.49525" lon="2.75628">
        <ele>554.209</ele>
        <time>2013-06-23T07:18:18Z</time>
      </trkpt>
      <trkpt lat="44.49544" lon="2.7563">
        <ele>553.62</ele>
        <time>2013-06-23T07:18:23Z</time>
      </trkpt>
      <trkpt lat="44.49562" lon="2.75637">
        <ele>555.66</ele>
        <time>2013-06-23T07:18:30Z</time>
      </trkpt>
      <trkpt lat="44.49562" lon="2.75637">
        <ele>557.502</ele>
        <time>2013-06-23T07:18:36Z</time>
      </trkpt>
      <trkpt lat="44.49599" lon="2.75658">
        <ele>558.441</ele>
        <time>2013-06-23T07:18:43Z</time>
      </trkpt>
      <trkpt lat="44.49616" lon="2.75666">
        <ele>562.673</ele>
        <time>2013-06-23T07:18:49Z</time>
      </trkpt>
      <trkpt lat="44.49636" lon="2.75675">
        <ele>568.363</ele>
        <time>2013-06-23T07:18:55Z</time>
      </trkpt>
      <trkpt lat="44.49652" lon="2.75685">
        <ele>570.362</ele>
        <time>2013-06-23T07:19:01Z</time>
      </trkpt>
      <trkpt lat="44.49675" lon="2.75698">
        <ele>573.633</ele>
        <time>2013-06-23T07:19:09Z</time>
      </trkpt>
      <trkpt lat="44.49688" lon="2.75699">
        <ele>577.003</ele>
        <time>2013-06-23T07:19:14Z</time>
      </trkpt>
      <trkpt lat="44.49703" lon="2.75707">
        <ele>573.341</ele>
        <time>2013-06-23T07:19:20Z</time>
      </trkpt>
      <trkpt lat="44.49729" lon="2.75731">
        <ele>571.672</ele>
        <time>2013-06-23T07:19:30Z</time>
      </trkpt>
      <trkpt lat="44.49743" lon="2.75746">
        <ele>578.464</ele>
        <time>2013-06-23T07:19:38Z</time>
      </trkpt>
      <trkpt lat="44.49757" lon="2.75761">
        <ele>574.471</ele>
        <time>2013-06-23T07:19:45Z</time>
      </trkpt>
      <trkpt lat="44.49769" lon="2.75773">
        <ele>577.302</ele>
        <time>2013-06-23T07:19:51Z</time>
      </trkpt>
      <trkpt lat="44.49781" lon="2.75787">
        <ele>586.414</ele>
        <time>2013-06-23T07:19:58Z</time>
      </trkpt>
      <trkpt lat="44.49792" lon="2.75797">
        <ele>588.624</ele>
        <time>2013-06-23T07:20:03Z</time>
      </trkpt>
      <trkpt lat="44.4981" lon="2.75806">
        <ele>583.001</ele>
        <time>2013-06-23T07:20:10Z</time>
      </trkpt>
      <trkpt lat="44.49819" lon="2.75808">
        <ele>583.142</ele>
        <time>2013-06-23T07:20:15Z</time>
      </trkpt>
      <trkpt lat="44.49832" lon="2.75812">
        <ele>583.773</ele>
        <time>2013-06-23T07:20:20Z</time>
      </trkpt>
      <trkpt lat="44.49836" lon="2.75826">
        <ele>585.793</ele>
        <time>2013-06-23T07:20:24Z</time>
      </trkpt>
      <trkpt lat="44.4983" lon="2.75826">
        <ele>586.143</ele>
        <time>2013-06-23T07:20:27Z</time>
      </trkpt>
      <trkpt lat="44.49805" lon="2.75826">
        <ele>585.973</ele>
        <time>2013-06-23T07:20:37Z</time>
      </trkpt>
      <trkpt lat="44.4979" lon="2.75827">
        <ele>584.482</ele>
        <time>2013-06-23T07:20:44Z</time>
      </trkpt>
      <trkpt lat="44.49774" lon="2.75826">
        <ele>583.561</ele>
        <time>2013-06-23T07:20:51Z</time>
      </trkpt>
      <trkpt lat="44.4977" lon="2.75826">
        <ele>583.682</ele>
        <time>2013-06-23T07:20:54Z</time>
      </trkpt>
      <trkpt lat="44.49757" lon="2.75826">
        <ele>584.212</ele>
        <time>2013-06-23T07:21:03Z</time>
      </trkpt>
      <trkpt lat="44.49751" lon="2.75826">
        <ele>585.283</ele>
        <time>2013-06-23T07:21:07Z</time>
      </trkpt>
      <trkpt lat="44.49744" lon="2.75826">
        <ele>587.192</ele>
        <time>2013-06-23T07:21:15Z</time>
      </trkpt>
      <trkpt lat="44.49744" lon="2.75826">
        <ele>589.942</ele>
        <time>2013-06-23T07:21:45Z</time>
      </trkpt>
      <trkpt lat="44.49744" lon="2.75826">
        <ele>590.282</ele>
        <time>2013-06-23T07:21:51Z</time>
      </trkpt>
      <trkpt lat="44.49744" lon="2.75826">
        <ele>590.642</ele>
        <time>2013-06-23T07:21:59Z</time>
      </trkpt>
      <trkpt lat="44.49717" lon="2.75808">
        <ele>591.302</ele>
        <time>2013-06-23T07:22:07Z</time>
      </trkpt>
      <trkpt lat="44.49705" lon="2.75801">
        <ele>591.123</ele>
        <time>2013-06-23T07:22:15Z</time>
      </trkpt>
      <trkpt lat="44.49691" lon="2.75793">
        <ele>591.692</ele>
        <time>2013-06-23T07:22:24Z</time>
      </trkpt>
      <trkpt lat="44.49686" lon="2.7579">
        <ele>592.252</ele>
        <time>2013-06-23T07:22:27Z</time>
      </trkpt>
      <trkpt lat="44.49681" lon="2.75788">
        <ele>592.712</ele>
        <time>2013-06-23T07:22:30Z</time>
      </trkpt>
      <trkpt lat="44.49664" lon="2.7578">
        <ele>593.132</ele>
        <time>2013-06-23T07:22:40Z</time>
      </trkpt>
      <trkpt lat="44.49648" lon="2.75772">
        <ele>592.702</ele>
        <time>2013-06-23T07:22:49Z</time>
      </trkpt>
      <trkpt lat="44.49634" lon="2.75766">
        <ele>593.102</ele>
        <time>2013-06-23T07:22:57Z</time>
      </trkpt>
      <trkpt lat="44.49617" lon="2.75763">
        <ele>597.343</ele>
        <time>2013-06-23T07:23:06Z</time>
      </trkpt>
      <trkpt lat="44.49604" lon="2.75761">
        <ele>599.943</ele>
        <time>2013-06-23T07:23:14Z</time>
      </trkpt>
      <trkpt lat="44.49584" lon="2.75761">
        <ele>599.452</ele>
        <time>2013-06-23T07:23:25Z</time>
      </trkpt>
      <trkpt lat="44.49563" lon="2.75761">
        <ele>602.002</ele>
        <time>2013-06-23T07:23:36Z</time>
      </trkpt>
      <trkpt lat="44.49547" lon="2.75763">
        <ele>604.212</ele>
        <time>2013-06-23T07:23:45Z</time>
      </trkpt>
      <trkpt lat="44.4953" lon="2.75766">
        <ele>607.552</ele>
        <time>2013-06-23T07:23:54Z</time>
      </trkpt>
      <trkpt lat="44.49516" lon="2.7577">
        <ele>608.892</ele>
        <time>2013-06-23T07:24:02Z</time>
      </trkpt>
      <trkpt lat="44.49501" lon="2.75772">
        <ele>610.652</ele>
        <time>2013-06-23T07:24:10Z</time>
      </trkpt>
      <trkpt lat="44.49482" lon="2.75772">
        <ele>613.992</ele>
        <time>2013-06-23T07:24:19Z</time>
      </trkpt>
      <trkpt lat="44.49459" lon="2.75772">
        <ele>615.752</ele>
        <time>2013-06-23T07:24:29Z</time>
      </trkpt>
      <trkpt lat="44.4944" lon="2.75772">
        <ele>617.481</ele>
        <time>2013-06-23T07:24:37Z</time>
      </trkpt>
      <trkpt lat="44.49418" lon="2.75772">
        <ele>618.281</ele>
        <time>2013-06-23T07:24:45Z</time>
      </trkpt>
      <trkpt lat="44.4939" lon="2.75778">
        <ele>619.791</ele>
        <time>2013-06-23T07:24:55Z</time>
      </trkpt>
      <trkpt lat="44.49361" lon="2.7579">
        <ele>619.921</ele>
        <time>2013-06-23T07:25:04Z</time>
      </trkpt>
      <trkpt lat="44.49329" lon="2.75802">
        <ele>619.181</ele>
        <time>2013-06-23T07:25:13Z</time>
      </trkpt>
      <trkpt lat="44.49304" lon="2.75808">
        <ele>619.031</ele>
        <time>2013-06-23T07:25:20Z</time>
      </trkpt>
      <trkpt lat="44.49277" lon="2.75807">
        <ele>620.041</ele>
        <time>2013-06-23T07:25:27Z</time>
      </trkpt>
      <trkpt lat="44.49248" lon="2.75799">
        <ele>622.512</ele>
        <time>2013-06-23T07:25:36Z</time>
      </trkpt>
      <trkpt lat="44.49229" lon="2.75792">
        <ele>624.481</ele>
        <time>2013-06-23T07:25:42Z</time>
      </trkpt>
      <trkpt lat="44.49192" lon="2.75779">
        <ele>628.922</ele>
        <time>2013-06-23T07:25:53Z</time>
      </trkpt>
      <trkpt lat="44.49152" lon="2.75766">
        <ele>629.18</ele>
        <time>2013-06-23T07:26:05Z</time>
      </trkpt>
      <trkpt lat="44.49124" lon="2.75758">
        <ele>629.32</ele>
        <time>2013-06-23T07:26:14Z</time>
      </trkpt>
      <trkpt lat="44.49118" lon="2.75757">
        <ele>629.19</ele>
        <time>2013-06-23T07:26:20Z</time>
      </trkpt>
      <trkpt lat="44.49117" lon="2.75757">
        <ele>628.76</ele>
        <time>2013-06-23T07:26:25Z</time>
      </trkpt>
      <trkpt lat="44.49117" lon="2.75757">
        <ele>627.349</ele>
        <time>2013-06-23T07:26:29Z</time>
      </trkpt>
      <trkpt lat="44.49117" lon="2.75757">
        <ele>626.639</ele>
        <time>2013-06-23T07:26:32Z</time>
      </trkpt>
      <trkpt lat="44.49053" lon="2.75737">
        <ele>625.458</ele>
        <time>2013-06-23T07:26:40Z</time>
      </trkpt>
      <trkpt lat="44.49018" lon="2.75715">
        <ele>624.288</ele>
        <time>2013-06-23T07:26:47Z</time>
      </trkpt>
      <trkpt lat="44.48981" lon="2.75685">
        <ele>623.348</ele>
        <time>2013-06-23T07:26:55Z</time>
      </trkpt>
      <trkpt lat="44.48949" lon="2.75655">
        <ele>621.407</ele>
        <time>2013-06-23T07:27:01Z</time>
      </trkpt>
      <trkpt lat="44.48943" lon="2.75649">
        <ele>621.497</ele>
        <time>2013-06-23T07:27:02Z</time>
      </trkpt>
      <trkpt lat="44.48903" lon="2.75613">
        <ele>619.627</ele>
        <time>2013-06-23T07:27:08Z</time>
      </trkpt>
      <trkpt lat="44.48864" lon="2.75564">
        <ele>616.254</ele>
        <time>2013-06-23T07:27:14Z</time>
      </trkpt>
      <trkpt lat="44.48832" lon="2.75528">
        <ele>612.504</ele>
        <time>2013-06-23T07:27:18Z</time>
      </trkpt>
      <trkpt lat="44.48784" lon="2.75462">
        <ele>607.676</ele>
        <time>2013-06-23T07:27:24Z</time>
      </trkpt>
      <trkpt lat="44.48745" lon="2.7541">
        <ele>605.947</ele>
        <time>2013-06-23T07:27:29Z</time>
      </trkpt>
      <trkpt lat="44.48687" lon="2.75353">
        <ele>601.967</ele>
        <time>2013-06-23T07:27:36Z</time>
      </trkpt>
      <trkpt lat="44.4864" lon="2.75309">
        <ele>601.117</ele>
        <time>2013-06-23T07:27:42Z</time>
      </trkpt>
      <trkpt lat="44.4859" lon="2.75254">
        <ele>599.796</ele>
        <time>2013-06-23T07:27:50Z</time>
      </trkpt>
      <trkpt lat="44.48584" lon="2.75247">
        <ele>599.747</ele>
        <time>2013-06-23T07:27:51Z</time>
      </trkpt>
      <trkpt lat="44.48563" lon="2.75208">
        <ele>599.777</ele>
        <time>2013-06-23T07:27:56Z</time>
      </trkpt>
      <trkpt lat="44.48544" lon="2.75161">
        <ele>600.237</ele>
        <time>2013-06-23T07:28:02Z</time>
      </trkpt>
      <trkpt lat="44.48526" lon="2.75108">
        <ele>596.696</ele>
        <time>2013-06-23T07:28:09Z</time>
      </trkpt>
      <trkpt lat="44.48514" lon="2.75076">
        <ele>595.386</ele>
        <time>2013-06-23T07:28:13Z</time>
      </trkpt>
      <trkpt lat="44.48496" lon="2.7505">
        <ele>594.907</ele>
        <time>2013-06-23T07:28:17Z</time>
      </trkpt>
      <trkpt lat="44.48469" lon="2.75012">
        <ele>595.698</ele>
        <time>2013-06-23T07:28:23Z</time>
      </trkpt>
      <trkpt lat="44.48457" lon="2.74973">
        <ele>597.429</ele>
        <time>2013-06-23T07:28:28Z</time>
      </trkpt>
      <trkpt lat="44.48441" lon="2.74947">
        <ele>598.179</ele>
        <time>2013-06-23T07:28:32Z</time>
      </trkpt>
      <trkpt lat="44.48409" lon="2.74916">
        <ele>600.527</ele>
        <time>2013-06-23T07:28:39Z</time>
      </trkpt>
      <trkpt lat="44.48401" lon="2.74907">
        <ele>600.656</ele>
        <time>2013-06-23T07:28:41Z</time>
      </trkpt>
      <trkpt lat="44.48382" lon="2.74887">
        <ele>599.985</ele>
        <time>2013-06-23T07:28:46Z</time>
      </trkpt>
      <trkpt lat="44.48356" lon="2.74858">
        <ele>597.122</ele>
        <time>2013-06-23T07:28:52Z</time>
      </trkpt>
      <trkpt lat="44.48324" lon="2.74818">
        <ele>595.174</ele>
        <time>2013-06-23T07:28:58Z</time>
      </trkpt>
      <trkpt lat="44.48295" lon="2.74781">
        <ele>593.974</ele>
        <time>2013-06-23T07:29:04Z</time>
      </trkpt>
      <trkpt lat="44.48272" lon="2.74754">
        <ele>592.624</ele>
        <time>2013-06-23T07:29:10Z</time>
      </trkpt>
      <trkpt lat="44.48253" lon="2.7473">
        <ele>591.814</ele>
        <time>2013-06-23T07:29:14Z</time>
      </trkpt>
      <trkpt lat="44.48223" lon="2.74674">
        <ele>590.265</ele>
        <time>2013-06-23T07:29:21Z</time>
      </trkpt>
      <trkpt lat="44.48201" lon="2.7461">
        <ele>589.145</ele>
        <time>2013-06-23T07:29:28Z</time>
      </trkpt>
      <trkpt lat="44.48189" lon="2.74545">
        <ele>588.105</ele>
        <time>2013-06-23T07:29:35Z</time>
      </trkpt>
      <trkpt lat="44.48184" lon="2.74482">
        <ele>588.615</ele>
        <time>2013-06-23T07:29:42Z</time>
      </trkpt>
      <trkpt lat="44.4818" lon="2.74432">
        <ele>588.264</ele>
        <time>2013-06-23T07:29:49Z</time>
      </trkpt>
      <trkpt lat="44.48176" lon="2.7439">
        <ele>587.664</ele>
        <time>2013-06-23T07:29:54Z</time>
      </trkpt>
      <trkpt lat="44.48171" lon="2.74331">
        <ele>588.345</ele>
        <time>2013-06-23T07:30:01Z</time>
      </trkpt>
      <trkpt lat="44.48166" lon="2.74276">
        <ele>588.644</ele>
        <time>2013-06-23T07:30:09Z</time>
      </trkpt>
      <trkpt lat="44.48162" lon="2.7422">
        <ele>588.664</ele>
        <time>2013-06-23T07:30:17Z</time>
      </trkpt>
      <trkpt lat="44.48156" lon="2.74147">
        <ele>589.284</ele>
        <time>2013-06-23T07:30:27Z</time>
      </trkpt>
      <trkpt lat="44.4815" lon="2.74077">
        <ele>589.154</ele>
        <time>2013-06-23T07:30:36Z</time>
      </trkpt>
      <trkpt lat="44.4815" lon="2.74062">
        <ele>589.985</ele>
        <time>2013-06-23T07:30:38Z</time>
      </trkpt>
      <trkpt lat="44.48147" lon="2.74026">
        <ele>591.795</ele>
        <time>2013-06-23T07:30:44Z</time>
      </trkpt>
      <trkpt lat="44.48145" lon="2.73986">
        <ele>593.195</ele>
        <time>2013-06-23T07:30:51Z</time>
      </trkpt>
      <trkpt lat="44.48142" lon="2.73938">
        <ele>593.214</ele>
        <time>2013-06-23T07:31:00Z</time>
      </trkpt>
      <trkpt lat="44.48135" lon="2.73888">
        <ele>594.403</ele>
        <time>2013-06-23T07:31:09Z</time>
      </trkpt>
      <trkpt lat="44.48131" lon="2.73828">
        <ele>594.113</ele>
        <time>2013-06-23T07:31:19Z</time>
      </trkpt>
      <trkpt lat="44.48127" lon="2.73766">
        <ele>593.913</ele>
        <time>2013-06-23T07:31:29Z</time>
      </trkpt>
      <trkpt lat="44.48121" lon="2.73717">
        <ele>592.892</ele>
        <time>2013-06-23T07:31:37Z</time>
      </trkpt>
      <trkpt lat="44.48118" lon="2.7366">
        <ele>589.269</ele>
        <time>2013-06-23T07:31:45Z</time>
      </trkpt>
      <trkpt lat="44.48108" lon="2.73612">
        <ele>586.16</ele>
        <time>2013-06-23T07:31:50Z</time>
      </trkpt>
      <trkpt lat="44.48107" lon="2.73602">
        <ele>585.891</ele>
        <time>2013-06-23T07:31:51Z</time>
      </trkpt>
      <trkpt lat="44.48103" lon="2.73573">
        <ele>586.963</ele>
        <time>2013-06-23T07:31:54Z</time>
      </trkpt>
      <trkpt lat="44.48102" lon="2.73568">
        <ele>586.993</ele>
        <time>2013-06-23T07:32:00Z</time>
      </trkpt>
      <trkpt lat="44.48072" lon="2.73484">
        <ele>586.812</ele>
        <time>2013-06-23T07:32:08Z</time>
      </trkpt>
      <trkpt lat="44.48044" lon="2.73444">
        <ele>586.422</ele>
        <time>2013-06-23T07:32:15Z</time>
      </trkpt>
      <trkpt lat="44.48008" lon="2.73402">
        <ele>584.872</ele>
        <time>2013-06-23T07:32:23Z</time>
      </trkpt>
      <trkpt lat="44.47978" lon="2.73376">
        <ele>583.362</ele>
        <time>2013-06-23T07:32:29Z</time>
      </trkpt>
      <trkpt lat="44.47937" lon="2.73348">
        <ele>581.442</ele>
        <time>2013-06-23T07:32:36Z</time>
      </trkpt>
      <trkpt lat="44.47884" lon="2.73311">
        <ele>578.05</ele>
        <time>2013-06-23T07:32:45Z</time>
      </trkpt>
      <trkpt lat="44.47842" lon="2.73286">
        <ele>573.199</ele>
        <time>2013-06-23T07:32:52Z</time>
      </trkpt>
      <trkpt lat="44.47796" lon="2.73256">
        <ele>569.549</ele>
        <time>2013-06-23T07:33:00Z</time>
      </trkpt>
      <trkpt lat="44.47749" lon="2.73224">
        <ele>566.36</ele>
        <time>2013-06-23T07:33:08Z</time>
      </trkpt>
      <trkpt lat="44.47682" lon="2.7318">
        <ele>561.96</ele>
        <time>2013-06-23T07:33:19Z</time>
      </trkpt>
      <trkpt lat="44.47637" lon="2.73159">
        <ele>565.56</ele>
        <time>2013-06-23T07:33:26Z</time>
      </trkpt>
      <trkpt lat="44.47581" lon="2.7314">
        <ele>563.559</ele>
        <time>2013-06-23T07:33:35Z</time>
      </trkpt>
      <trkpt lat="44.47533" lon="2.73125">
        <ele>564.958</ele>
        <time>2013-06-23T07:33:43Z</time>
      </trkpt>
      <trkpt lat="44.47495" lon="2.73114">
        <ele>564.719</ele>
        <time>2013-06-23T07:33:50Z</time>
      </trkpt>
      <trkpt lat="44.4749" lon="2.73112">
        <ele>564.619</ele>
        <time>2013-06-23T07:33:51Z</time>
      </trkpt>
      <trkpt lat="44.47472" lon="2.73107">
        <ele>564.099</ele>
        <time>2013-06-23T07:33:55Z</time>
      </trkpt>
      <trkpt lat="44.47449" lon="2.731">
        <ele>563.239</ele>
        <time>2013-06-23T07:34:00Z</time>
      </trkpt>
      <trkpt lat="44.47446" lon="2.7307">
        <ele>558.916</ele>
        <time>2013-06-23T07:40:25Z</time>
      </trkpt>
      <trkpt lat="44.47443" lon="2.7307">
        <ele>560.37</ele>
        <time>2013-06-23T07:40:41Z</time>
      </trkpt>
      <trkpt lat="44.47464" lon="2.73002">
        <ele>560.048</ele>
        <time>2013-06-23T07:40:46Z</time>
      </trkpt>
      <trkpt lat="44.47468" lon="2.72978">
        <ele>560.218</ele>
        <time>2013-06-23T07:40:51Z</time>
      </trkpt>
      <trkpt lat="44.47473" lon="2.72939">
        <ele>559.909</ele>
        <time>2013-06-23T07:40:58Z</time>
      </trkpt>
      <trkpt lat="44.47476" lon="2.72888">
        <ele>559.549</ele>
        <time>2013-06-23T07:41:07Z</time>
      </trkpt>
      <trkpt lat="44.47462" lon="2.72853">
        <ele>560.189</ele>
        <time>2013-06-23T07:41:13Z</time>
      </trkpt>
      <trkpt lat="44.47472" lon="2.72813">
        <ele>560.99</ele>
        <time>2013-06-23T07:41:23Z</time>
      </trkpt>
      <trkpt lat="44.47469" lon="2.72797">
        <ele>563.38</ele>
        <time>2013-06-23T07:41:31Z</time>
      </trkpt>
      <trkpt lat="44.47487" lon="2.72761">
        <ele>564.92</ele>
        <time>2013-06-23T07:41:37Z</time>
      </trkpt>
      <trkpt lat="44.47479" lon="2.72722">
        <ele>567.139</ele>
        <time>2013-06-23T07:41:46Z</time>
      </trkpt>
      <trkpt lat="44.47464" lon="2.72683">
        <ele>568.989</ele>
        <time>2013-06-23T07:41:55Z</time>
      </trkpt>
      <trkpt lat="44.47446" lon="2.72651">
        <ele>569.488</ele>
        <time>2013-06-23T07:42:03Z</time>
      </trkpt>
      <trkpt lat="44.47428" lon="2.72621">
        <ele>568.757</ele>
        <time>2013-06-23T07:42:10Z</time>
      </trkpt>
      <trkpt lat="44.47406" lon="2.72589">
        <ele>567.327</ele>
        <time>2013-06-23T07:42:16Z</time>
      </trkpt>
      <trkpt lat="44.47367" lon="2.7253">
        <ele>566.768</ele>
        <time>2013-06-23T07:42:26Z</time>
      </trkpt>
      <trkpt lat="44.47343" lon="2.72498">
        <ele>566.048</ele>
        <time>2013-06-23T07:42:33Z</time>
      </trkpt>
      <trkpt lat="44.47319" lon="2.72466">
        <ele>565.198</ele>
        <time>2013-06-23T07:42:41Z</time>
      </trkpt>
      <trkpt lat="44.47297" lon="2.72437">
        <ele>563.305</ele>
        <time>2013-06-23T07:42:47Z</time>
      </trkpt>
      <trkpt lat="44.47273" lon="2.72407">
        <ele>560.985</ele>
        <time>2013-06-23T07:42:52Z</time>
      </trkpt>
      <trkpt lat="44.47233" lon="2.72361">
        <ele>560.627</ele>
        <time>2013-06-23T07:42:59Z</time>
      </trkpt>
      <trkpt lat="44.47194" lon="2.72331">
        <ele>559.036</ele>
        <time>2013-06-23T07:43:06Z</time>
      </trkpt>
      <trkpt lat="44.47151" lon="2.72299">
        <ele>556.016</ele>
        <time>2013-06-23T07:43:14Z</time>
      </trkpt>
      <trkpt lat="44.47137" lon="2.72291">
        <ele>555.696</ele>
        <time>2013-06-23T07:43:17Z</time>
      </trkpt>
      <trkpt lat="44.47116" lon="2.72257">
        <ele>554.786</ele>
        <time>2013-06-23T07:43:21Z</time>
      </trkpt>
      <trkpt lat="44.47071" lon="2.72196">
        <ele>553.276</ele>
        <time>2013-06-23T07:43:30Z</time>
      </trkpt>
      <trkpt lat="44.47056" lon="2.72177">
        <ele>552.686</ele>
        <time>2013-06-23T07:43:33Z</time>
      </trkpt>
      <trkpt lat="44.47032" lon="2.72144">
        <ele>552.957</ele>
        <time>2013-06-23T07:43:38Z</time>
      </trkpt>
      <trkpt lat="44.47028" lon="2.72138">
        <ele>552.737</ele>
        <time>2013-06-23T07:43:39Z</time>
      </trkpt>
      <trkpt lat="44.46998" lon="2.72098">
        <ele>552.366</ele>
        <time>2013-06-23T07:43:46Z</time>
      </trkpt>
      <trkpt lat="44.46966" lon="2.72052">
        <ele>552.035</ele>
        <time>2013-06-23T07:43:55Z</time>
      </trkpt>
      <trkpt lat="44.4696" lon="2.72022">
        <ele>550.425</ele>
        <time>2013-06-23T07:44:00Z</time>
      </trkpt>
      <trkpt lat="44.46955" lon="2.72003">
        <ele>549.995</ele>
        <time>2013-06-23T07:44:03Z</time>
      </trkpt>
      <trkpt lat="44.46949" lon="2.71978">
        <ele>549.635</ele>
        <time>2013-06-23T07:44:06Z</time>
      </trkpt>
      <trkpt lat="44.46945" lon="2.71952">
        <ele>547.494</ele>
        <time>2013-06-23T07:44:11Z</time>
      </trkpt>
      <trkpt lat="44.46946" lon="2.7195">
        <ele>544.894</ele>
        <time>2013-06-23T07:44:16Z</time>
      </trkpt>
      <trkpt lat="44.46946" lon="2.7195">
        <ele>542.263</ele>
        <time>2013-06-23T07:44:20Z</time>
      </trkpt>
      <trkpt lat="44.46951" lon="2.71898">
        <ele>538.38</ele>
        <time>2013-06-23T07:44:25Z</time>
      </trkpt>
      <trkpt lat="44.46943" lon="2.7188">
        <ele>535.362</ele>
        <time>2013-06-23T07:44:29Z</time>
      </trkpt>
      <trkpt lat="44.46929" lon="2.71849">
        <ele>531.091</ele>
        <time>2013-06-23T07:44:34Z</time>
      </trkpt>
      <trkpt lat="44.46929" lon="2.71838">
        <ele>527.791</ele>
        <time>2013-06-23T07:44:38Z</time>
      </trkpt>
      <trkpt lat="44.46931" lon="2.71837">
        <ele>526.34</ele>
        <time>2013-06-23T07:44:39Z</time>
      </trkpt>
      <trkpt lat="44.46945" lon="2.71845">
        <ele>523.16</ele>
        <time>2013-06-23T07:44:42Z</time>
      </trkpt>
      <trkpt lat="44.46958" lon="2.71857">
        <ele>520.33</ele>
        <time>2013-06-23T07:44:45Z</time>
      </trkpt>
      <trkpt lat="44.46959" lon="2.71848">
        <ele>519.22</ele>
        <time>2013-06-23T07:44:46Z</time>
      </trkpt>
      <trkpt lat="44.46938" lon="2.71805">
        <ele>513.479</ele>
        <time>2013-06-23T07:44:51Z</time>
      </trkpt>
      <trkpt lat="44.46923" lon="2.71793">
        <ele>510.089</ele>
        <time>2013-06-23T07:44:54Z</time>
      </trkpt>
      <trkpt lat="44.46907" lon="2.71779">
        <ele>509.762</ele>
        <time>2013-06-23T07:44:59Z</time>
      </trkpt>
      <trkpt lat="44.46907" lon="2.71779">
        <ele>510.783</ele>
        <time>2013-06-23T07:45:00Z</time>
      </trkpt>
      <trkpt lat="44.46912" lon="2.71774">
        <ele>511.604</ele>
        <time>2013-06-23T07:45:05Z</time>
      </trkpt>
      <trkpt lat="44.46925" lon="2.71767">
        <ele>510.273</ele>
        <time>2013-06-23T07:45:09Z</time>
      </trkpt>
      <trkpt lat="44.46945" lon="2.7176">
        <ele>508.655</ele>
        <time>2013-06-23T07:45:14Z</time>
      </trkpt>
      <trkpt lat="44.46958" lon="2.71764">
        <ele>506.214</ele>
        <time>2013-06-23T07:45:17Z</time>
      </trkpt>
      <trkpt lat="44.46983" lon="2.7179">
        <ele>499.802</ele>
        <time>2013-06-23T07:45:24Z</time>
      </trkpt>
      <trkpt lat="44.46988" lon="2.71795">
        <ele>498.659</ele>
        <time>2013-06-23T07:45:25Z</time>
      </trkpt>
      <trkpt lat="44.47003" lon="2.71835">
        <ele>493.731</ele>
        <time>2013-06-23T07:45:30Z</time>
      </trkpt>
      <trkpt lat="44.47008" lon="2.71852">
        <ele>491.42</ele>
        <time>2013-06-23T07:45:32Z</time>
      </trkpt>
      <trkpt lat="44.47015" lon="2.71875">
        <ele>489.541</ele>
        <time>2013-06-23T07:45:35Z</time>
      </trkpt>
      <trkpt lat="44.47022" lon="2.7189">
        <ele>485.79</ele>
        <time>2013-06-23T07:45:39Z</time>
      </trkpt>
      <trkpt lat="44.47021" lon="2.71857">
        <ele>487.432</ele>
        <time>2013-06-23T07:45:43Z</time>
      </trkpt>
      <trkpt lat="44.47019" lon="2.71846">
        <ele>488.603</ele>
        <time>2013-06-23T07:45:45Z</time>
      </trkpt>
      <trkpt lat="44.47036" lon="2.71834">
        <ele>492.425</ele>
        <time>2013-06-23T07:45:50Z</time>
      </trkpt>
      <trkpt lat="44.47057" lon="2.71829">
        <ele>493.135</ele>
        <time>2013-06-23T07:45:57Z</time>
      </trkpt>
      <trkpt lat="44.47072" lon="2.7183">
        <ele>492.745</ele>
        <time>2013-06-23T07:46:01Z</time>
      </trkpt>
      <trkpt lat="44.47081" lon="2.71846">
        <ele>490.944</ele>
        <time>2013-06-23T07:46:06Z</time>
      </trkpt>
      <trkpt lat="44.47091" lon="2.71864">
        <ele>486.803</ele>
        <time>2013-06-23T07:46:12Z</time>
      </trkpt>
      <trkpt lat="44.47096" lon="2.71871">
        <ele>485.413</ele>
        <time>2013-06-23T07:46:14Z</time>
      </trkpt>
      <trkpt lat="44.47115" lon="2.71886">
        <ele>483.043</ele>
        <time>2013-06-23T07:46:19Z</time>
      </trkpt>
      <trkpt lat="44.47137" lon="2.7189">
        <ele>484.664</ele>
        <time>2013-06-23T07:46:24Z</time>
      </trkpt>
      <trkpt lat="44.4716" lon="2.71887">
        <ele>488.935</ele>
        <time>2013-06-23T07:46:29Z</time>
      </trkpt>
      <trkpt lat="44.47184" lon="2.71871">
        <ele>502.046</ele>
        <time>2013-06-23T07:46:35Z</time>
      </trkpt>
      <trkpt lat="44.47215" lon="2.71832">
        <ele>487.953</ele>
        <time>2013-06-23T07:46:42Z</time>
      </trkpt>
      <trkpt lat="44.47238" lon="2.71784">
        <ele>482.323</ele>
        <time>2013-06-23T07:46:48Z</time>
      </trkpt>
      <trkpt lat="44.47242" lon="2.71765">
        <ele>481.483</ele>
        <time>2013-06-23T07:46:50Z</time>
      </trkpt>
      <trkpt lat="44.47239" lon="2.71725">
        <ele>478.983</ele>
        <time>2013-06-23T07:46:54Z</time>
      </trkpt>
      <trkpt lat="44.47227" lon="2.71715">
        <ele>477.533</ele>
        <time>2013-06-23T07:46:56Z</time>
      </trkpt>
      <trkpt lat="44.4718" lon="2.71701">
        <ele>471.702</ele>
        <time>2013-06-23T07:47:03Z</time>
      </trkpt>
      <trkpt lat="44.47129" lon="2.71695">
        <ele>466.883</ele>
        <time>2013-06-23T07:47:10Z</time>
      </trkpt>
      <trkpt lat="44.47121" lon="2.71694">
        <ele>465.713</ele>
        <time>2013-06-23T07:47:11Z</time>
      </trkpt>
      <trkpt lat="44.47072" lon="2.71672">
        <ele>460.813</ele>
        <time>2013-06-23T07:47:18Z</time>
      </trkpt>
      <trkpt lat="44.47052" lon="2.7164">
        <ele>463.384</ele>
        <time>2013-06-23T07:47:23Z</time>
      </trkpt>
      <trkpt lat="44.47046" lon="2.71615">
        <ele>459.343</ele>
        <time>2013-06-23T07:47:26Z</time>
      </trkpt>
      <trkpt lat="44.47044" lon="2.71605">
        <ele>462.085</ele>
        <time>2013-06-23T07:47:30Z</time>
      </trkpt>
      <trkpt lat="44.47042" lon="2.71593">
        <ele>466.595</ele>
        <time>2013-06-23T07:47:45Z</time>
      </trkpt>
      <trkpt lat="44.4704" lon="2.71581">
        <ele>464.513</ele>
        <time>2013-06-23T07:47:50Z</time>
      </trkpt>
      <trkpt lat="44.4704" lon="2.71581">
        <ele>463.383</ele>
        <time>2013-06-23T07:47:52Z</time>
      </trkpt>
      <trkpt lat="44.4704" lon="2.71581">
        <ele>462.423</ele>
        <time>2013-06-23T07:47:54Z</time>
      </trkpt>
      <trkpt lat="44.47041" lon="2.71533">
        <ele>461.544</ele>
        <time>2013-06-23T07:47:58Z</time>
      </trkpt>
      <trkpt lat="44.47048" lon="2.71502">
        <ele>461.434</ele>
        <time>2013-06-23T07:48:02Z</time>
      </trkpt>
      <trkpt lat="44.47053" lon="2.71465">
        <ele>462.265</ele>
        <time>2013-06-23T07:48:09Z</time>
      </trkpt>
      <trkpt lat="44.47059" lon="2.71432">
        <ele>463.855</ele>
        <time>2013-06-23T07:48:16Z</time>
      </trkpt>
      <trkpt lat="44.47065" lon="2.71402">
        <ele>468.306</ele>
        <time>2013-06-23T07:48:24Z</time>
      </trkpt>
      <trkpt lat="44.47074" lon="2.71367">
        <ele>472.116</ele>
        <time>2013-06-23T07:48:30Z</time>
      </trkpt>
      <trkpt lat="44.47077" lon="2.71338">
        <ele>476.877</ele>
        <time>2013-06-23T07:48:34Z</time>
      </trkpt>
      <trkpt lat="44.47072" lon="2.71279">
        <ele>471.554</ele>
        <time>2013-06-23T07:48:42Z</time>
      </trkpt>
      <trkpt lat="44.47069" lon="2.71256">
        <ele>469.324</ele>
        <time>2013-06-23T07:48:45Z</time>
      </trkpt>
      <trkpt lat="44.47059" lon="2.71227">
        <ele>466.243</ele>
        <time>2013-06-23T07:48:49Z</time>
      </trkpt>
      <trkpt lat="44.47036" lon="2.71209">
        <ele>463.992</ele>
        <time>2013-06-23T07:48:53Z</time>
      </trkpt>
      <trkpt lat="44.47031" lon="2.71207">
        <ele>463.362</ele>
        <time>2013-06-23T07:48:54Z</time>
      </trkpt>
      <trkpt lat="44.46993" lon="2.71195">
        <ele>456.322</ele>
        <time>2013-06-23T07:49:00Z</time>
      </trkpt>
      <trkpt lat="44.46971" lon="2.71173">
        <ele>454.543</ele>
        <time>2013-06-23T07:49:05Z</time>
      </trkpt>
      <trkpt lat="44.46961" lon="2.71156">
        <ele>452.712</ele>
        <time>2013-06-23T07:49:08Z</time>
      </trkpt>
      <trkpt lat="44.46956" lon="2.71145">
        <ele>451.192</ele>
        <time>2013-06-23T07:49:10Z</time>
      </trkpt>
      <trkpt lat="44.4695" lon="2.71119">
        <ele>451.432</ele>
        <time>2013-06-23T07:49:14Z</time>
      </trkpt>
      <trkpt lat="44.46955" lon="2.71099">
        <ele>451.594</ele>
        <time>2013-06-23T07:49:18Z</time>
      </trkpt>
      <trkpt lat="44.46963" lon="2.71088">
        <ele>451.524</ele>
        <time>2013-06-23T07:49:21Z</time>
      </trkpt>
      <trkpt lat="44.47003" lon="2.71063">
        <ele>450.843</ele>
        <time>2013-06-23T07:49:30Z</time>
      </trkpt>
      <trkpt lat="44.47026" lon="2.71044">
        <ele>448.583</ele>
        <time>2013-06-23T07:49:35Z</time>
      </trkpt>
      <trkpt lat="44.47044" lon="2.71018">
        <ele>445.4</ele>
        <time>2013-06-23T07:49:39Z</time>
      </trkpt>
      <trkpt lat="44.47049" lon="2.70985">
        <ele>443.412</ele>
        <time>2013-06-23T07:49:43Z</time>
      </trkpt>
      <trkpt lat="44.47055" lon="2.7097">
        <ele>442.964</ele>
        <time>2013-06-23T07:49:48Z</time>
      </trkpt>
      <trkpt lat="44.47059" lon="2.70923">
        <ele>444.474</ele>
        <time>2013-06-23T07:49:55Z</time>
      </trkpt>
      <trkpt lat="44.47058" lon="2.70901">
        <ele>445.113</ele>
        <time>2013-06-23T07:50:00Z</time>
      </trkpt>
      <trkpt lat="44.47054" lon="2.70885">
        <ele>445.273</ele>
        <time>2013-06-23T07:50:03Z</time>
      </trkpt>
      <trkpt lat="44.47047" lon="2.70858">
        <ele>447.504</ele>
        <time>2013-06-23T07:50:07Z</time>
      </trkpt>
      <trkpt lat="44.47038" lon="2.70834">
        <ele>447.403</ele>
        <time>2013-06-23T07:50:11Z</time>
      </trkpt>
      <trkpt lat="44.47012" lon="2.7079">
        <ele>447.543</ele>
        <time>2013-06-23T07:50:18Z</time>
      </trkpt>
      <trkpt lat="44.46983" lon="2.70754">
        <ele>450.944</ele>
        <time>2013-06-23T07:50:24Z</time>
      </trkpt>
      <trkpt lat="44.46944" lon="2.70723">
        <ele>458.515</ele>
        <time>2013-06-23T07:50:31Z</time>
      </trkpt>
      <trkpt lat="44.46915" lon="2.70704">
        <ele>452.343</ele>
        <time>2013-06-23T07:50:36Z</time>
      </trkpt>
      <trkpt lat="44.46887" lon="2.70691">
        <ele>451.383</ele>
        <time>2013-06-23T07:50:41Z</time>
      </trkpt>
      <trkpt lat="44.4687" lon="2.70685">
        <ele>448.291</ele>
        <time>2013-06-23T07:50:44Z</time>
      </trkpt>
      <trkpt lat="44.46849" lon="2.70656">
        <ele>446.912</ele>
        <time>2013-06-23T07:50:49Z</time>
      </trkpt>
      <trkpt lat="44.46836" lon="2.70625">
        <ele>447.102</ele>
        <time>2013-06-23T07:50:55Z</time>
      </trkpt>
      <trkpt lat="44.46824" lon="2.70593">
        <ele>444.971</ele>
        <time>2013-06-23T07:51:02Z</time>
      </trkpt>
      <trkpt lat="44.46819" lon="2.70584">
        <ele>444.862</ele>
        <time>2013-06-23T07:51:04Z</time>
      </trkpt>
      <trkpt lat="44.46805" lon="2.70571">
        <ele>444.911</ele>
        <time>2013-06-23T07:51:08Z</time>
      </trkpt>
      <trkpt lat="44.46799" lon="2.70566">
        <ele>443.38</ele>
        <time>2013-06-23T07:51:10Z</time>
      </trkpt>
      <trkpt lat="44.4678" lon="2.70565">
        <ele>443.07</ele>
        <time>2013-06-23T07:51:14Z</time>
      </trkpt>
      <trkpt lat="44.46749" lon="2.70566">
        <ele>442.091</ele>
        <time>2013-06-23T07:51:20Z</time>
      </trkpt>
      <trkpt lat="44.46749" lon="2.70566">
        <ele>441.221</ele>
        <time>2013-06-23T07:51:21Z</time>
      </trkpt>
      <trkpt lat="44.46749" lon="2.70566">
        <ele>439.55</ele>
        <time>2013-06-23T07:51:26Z</time>
      </trkpt>
      <trkpt lat="44.46749" lon="2.70566">
        <ele>439.5</ele>
        <time>2013-06-23T07:51:27Z</time>
      </trkpt>
      <trkpt lat="44.46749" lon="2.70566">
        <ele>438.37</ele>
        <time>2013-06-23T07:51:33Z</time>
      </trkpt>
      <trkpt lat="44.46633" lon="2.70543">
        <ele>436.73</ele>
        <time>2013-06-23T07:51:38Z</time>
      </trkpt>
      <trkpt lat="44.46602" lon="2.70516">
        <ele>434.399</ele>
        <time>2013-06-23T07:51:43Z</time>
      </trkpt>
      <trkpt lat="44.46587" lon="2.70475">
        <ele>431.448</ele>
        <time>2013-06-23T07:51:48Z</time>
      </trkpt>
      <trkpt lat="44.466" lon="2.70443">
        <ele>431.007</ele>
        <time>2013-06-23T07:51:51Z</time>
      </trkpt>
      <trkpt lat="44.46609" lon="2.70409">
        <ele>430.659</ele>
        <time>2013-06-23T07:51:57Z</time>
      </trkpt>
      <trkpt lat="44.46623" lon="2.70375">
        <ele>430.561</ele>
        <time>2013-06-23T07:52:02Z</time>
      </trkpt>
      <trkpt lat="44.46639" lon="2.70334">
        <ele>430.26</ele>
        <time>2013-06-23T07:52:05Z</time>
      </trkpt>
      <trkpt lat="44.46641" lon="2.70315">
        <ele>429.95</ele>
        <time>2013-06-23T07:52:07Z</time>
      </trkpt>
      <trkpt lat="44.46646" lon="2.70292">
        <ele>431.061</ele>
        <time>2013-06-23T07:52:13Z</time>
      </trkpt>
      <trkpt lat="44.46646" lon="2.70292">
        <ele>430.331</ele>
        <time>2013-06-23T07:52:17Z</time>
      </trkpt>
      <trkpt lat="44.46646" lon="2.70292">
        <ele>430.671</ele>
        <time>2013-06-23T07:52:20Z</time>
      </trkpt>
      <trkpt lat="44.46646" lon="2.70292">
        <ele>430.781</ele>
        <time>2013-06-23T07:52:24Z</time>
      </trkpt>
      <trkpt lat="44.46662" lon="2.70242">
        <ele>429.41</ele>
        <time>2013-06-23T07:52:33Z</time>
      </trkpt>
      <trkpt lat="44.46677" lon="2.70202">
        <ele>428.41</ele>
        <time>2013-06-23T07:52:39Z</time>
      </trkpt>
      <trkpt lat="44.46687" lon="2.70176">
        <ele>427.05</ele>
        <time>2013-06-23T07:52:43Z</time>
      </trkpt>
      <trkpt lat="44.46695" lon="2.7015">
        <ele>426.5</ele>
        <time>2013-06-23T07:52:47Z</time>
      </trkpt>
      <trkpt lat="44.46697" lon="2.70144">
        <ele>426.54</ele>
        <time>2013-06-23T07:52:48Z</time>
      </trkpt>
      <trkpt lat="44.4671" lon="2.70099">
        <ele>425.7</ele>
        <time>2013-06-23T07:52:55Z</time>
      </trkpt>
      <trkpt lat="44.46721" lon="2.70077">
        <ele>425.501</ele>
        <time>2013-06-23T07:52:59Z</time>
      </trkpt>
      <trkpt lat="44.46761" lon="2.70044">
        <ele>429.661</ele>
        <time>2013-06-23T07:53:10Z</time>
      </trkpt>
      <trkpt lat="44.46785" lon="2.70025">
        <ele>429.192</ele>
        <time>2013-06-23T07:53:16Z</time>
      </trkpt>
      <trkpt lat="44.468" lon="2.70011">
        <ele>428.261</ele>
        <time>2013-06-23T07:53:21Z</time>
      </trkpt>
      <trkpt lat="44.46826" lon="2.70004">
        <ele>427.482</ele>
        <time>2013-06-23T07:53:25Z</time>
      </trkpt>
      <trkpt lat="44.46827" lon="2.69999">
        <ele>427.381</ele>
        <time>2013-06-23T07:53:29Z</time>
      </trkpt>
      <trkpt lat="44.46827" lon="2.69997">
        <ele>428.022</ele>
        <time>2013-06-23T07:53:31Z</time>
      </trkpt>
      <trkpt lat="44.46827" lon="2.69995">
        <ele>429.442</ele>
        <time>2013-06-23T07:53:36Z</time>
      </trkpt>
      <trkpt lat="44.46816" lon="2.69995">
        <ele>430.591</ele>
        <time>2013-06-23T07:53:52Z</time>
      </trkpt>
      <trkpt lat="44.46799" lon="2.69966">
        <ele>430.331</ele>
        <time>2013-06-23T07:53:58Z</time>
      </trkpt>
      <trkpt lat="44.46797" lon="2.6996">
        <ele>430.24</ele>
        <time>2013-06-23T07:54:01Z</time>
      </trkpt>
      <trkpt lat="44.46796" lon="2.69951">
        <ele>430.892</ele>
        <time>2013-06-23T07:54:43Z</time>
      </trkpt>
      <trkpt lat="44.46797" lon="2.69936">
        <ele>431.292</ele>
        <time>2013-06-23T07:54:48Z</time>
      </trkpt>
      <trkpt lat="44.46802" lon="2.69909">
        <ele>434.583</ele>
        <time>2013-06-23T07:54:54Z</time>
      </trkpt>
      <trkpt lat="44.46801" lon="2.69899">
        <ele>438.79</ele>
        <time>2013-06-23T07:54:58Z</time>
      </trkpt>
      <trkpt lat="44.46789" lon="2.69899">
        <ele>442.814</ele>
        <time>2013-06-23T07:55:03Z</time>
      </trkpt>
      <trkpt lat="44.46775" lon="2.69908">
        <ele>450.916</ele>
        <time>2013-06-23T07:55:10Z</time>
      </trkpt>
      <trkpt lat="44.46761" lon="2.6992">
        <ele>455.665</ele>
        <time>2013-06-23T07:55:17Z</time>
      </trkpt>
      <trkpt lat="44.46751" lon="2.69935">
        <ele>458.364</ele>
        <time>2013-06-23T07:55:23Z</time>
      </trkpt>
      <trkpt lat="44.46742" lon="2.69952">
        <ele>473.126</ele>
        <time>2013-06-23T07:55:29Z</time>
      </trkpt>
      <trkpt lat="44.46737" lon="2.69962">
        <ele>472.762</ele>
        <time>2013-06-23T07:55:34Z</time>
      </trkpt>
      <trkpt lat="44.4673" lon="2.69972">
        <ele>465.31</ele>
        <time>2013-06-23T07:55:42Z</time>
      </trkpt>
      <trkpt lat="44.46724" lon="2.69984">
        <ele>459.119</ele>
        <time>2013-06-23T07:55:50Z</time>
      </trkpt>
      <trkpt lat="44.46716" lon="2.69999">
        <ele>456.56</ele>
        <time>2013-06-23T07:55:58Z</time>
      </trkpt>
      <trkpt lat="44.46709" lon="2.70011">
        <ele>456.2</ele>
        <time>2013-06-23T07:56:04Z</time>
      </trkpt>
      <trkpt lat="44.46698" lon="2.70029">
        <ele>458.681</ele>
        <time>2013-06-23T07:56:14Z</time>
      </trkpt>
      <trkpt lat="44.46685" lon="2.70044">
        <ele>458.381</ele>
        <time>2013-06-23T07:56:24Z</time>
      </trkpt>
      <trkpt lat="44.46671" lon="2.7006">
        <ele>462.131</ele>
        <time>2013-06-23T07:56:34Z</time>
      </trkpt>
      <trkpt lat="44.46656" lon="2.70073">
        <ele>459.389</ele>
        <time>2013-06-23T07:56:44Z</time>
      </trkpt>
      <trkpt lat="44.46642" lon="2.7009">
        <ele>457.15</ele>
        <time>2013-06-23T07:56:55Z</time>
      </trkpt>
      <trkpt lat="44.46633" lon="2.701">
        <ele>457.461</ele>
        <time>2013-06-23T07:57:02Z</time>
      </trkpt>
      <trkpt lat="44.46624" lon="2.7011">
        <ele>457.911</ele>
        <time>2013-06-23T07:57:09Z</time>
      </trkpt>
      <trkpt lat="44.46612" lon="2.70125">
        <ele>459.681</ele>
        <time>2013-06-23T07:57:20Z</time>
      </trkpt>
      <trkpt lat="44.46601" lon="2.70138">
        <ele>460.801</ele>
        <time>2013-06-23T07:57:29Z</time>
      </trkpt>
      <trkpt lat="44.4659" lon="2.70152">
        <ele>461.772</ele>
        <time>2013-06-23T07:57:39Z</time>
      </trkpt>
      <trkpt lat="44.46581" lon="2.70163">
        <ele>462.642</ele>
        <time>2013-06-23T07:57:47Z</time>
      </trkpt>
      <trkpt lat="44.46575" lon="2.70175">
        <ele>463.602</ele>
        <time>2013-06-23T07:57:56Z</time>
      </trkpt>
      <trkpt lat="44.46569" lon="2.70186">
        <ele>464.601</ele>
        <time>2013-06-23T07:58:04Z</time>
      </trkpt>
      <trkpt lat="44.46564" lon="2.70199">
        <ele>470.561</ele>
        <time>2013-06-23T07:58:11Z</time>
      </trkpt>
      <trkpt lat="44.46557" lon="2.70214">
        <ele>478.911</ele>
        <time>2013-06-23T07:58:19Z</time>
      </trkpt>
      <trkpt lat="44.46548" lon="2.7023">
        <ele>479.551</ele>
        <time>2013-06-23T07:58:30Z</time>
      </trkpt>
      <trkpt lat="44.46542" lon="2.70243">
        <ele>480.141</ele>
        <time>2013-06-23T07:58:38Z</time>
      </trkpt>
      <trkpt lat="44.4654" lon="2.70254">
        <ele>480.071</ele>
        <time>2013-06-23T07:58:45Z</time>
      </trkpt>
      <trkpt lat="44.46537" lon="2.70272">
        <ele>481.352</ele>
        <time>2013-06-23T07:58:55Z</time>
      </trkpt>
      <trkpt lat="44.46534" lon="2.70293">
        <ele>483.852</ele>
        <time>2013-06-23T07:59:06Z</time>
      </trkpt>
      <trkpt lat="44.46528" lon="2.70306">
        <ele>484.841</ele>
        <time>2013-06-23T07:59:14Z</time>
      </trkpt>
      <trkpt lat="44.46522" lon="2.70322">
        <ele>485.791</ele>
        <time>2013-06-23T07:59:23Z</time>
      </trkpt>
      <trkpt lat="44.46518" lon="2.70339">
        <ele>488.402</ele>
        <time>2013-06-23T07:59:33Z</time>
      </trkpt>
      <trkpt lat="44.46516" lon="2.70355">
        <ele>489.991</ele>
        <time>2013-06-23T07:59:41Z</time>
      </trkpt>
      <trkpt lat="44.46515" lon="2.70371">
        <ele>491.422</ele>
        <time>2013-06-23T07:59:50Z</time>
      </trkpt>
      <trkpt lat="44.46515" lon="2.70389">
        <ele>493.681</ele>
        <time>2013-06-23T08:00:00Z</time>
      </trkpt>
      <trkpt lat="44.46515" lon="2.70408">
        <ele>496.073</ele>
        <time>2013-06-23T08:00:10Z</time>
      </trkpt>
      <trkpt lat="44.4651" lon="2.70427">
        <ele>498.152</ele>
        <time>2013-06-23T08:00:20Z</time>
      </trkpt>
      <trkpt lat="44.465" lon="2.70443">
        <ele>501.272</ele>
        <time>2013-06-23T08:00:30Z</time>
      </trkpt>
      <trkpt lat="44.46492" lon="2.70456">
        <ele>503.743</ele>
        <time>2013-06-23T08:00:38Z</time>
      </trkpt>
      <trkpt lat="44.46483" lon="2.70472">
        <ele>505.552</ele>
        <time>2013-06-23T08:00:47Z</time>
      </trkpt>
      <trkpt lat="44.46472" lon="2.70489">
        <ele>505.04</ele>
        <time>2013-06-23T08:00:56Z</time>
      </trkpt>
      <trkpt lat="44.46464" lon="2.70503">
        <ele>505.271</ele>
        <time>2013-06-23T08:01:02Z</time>
      </trkpt>
      <trkpt lat="44.46449" lon="2.7053">
        <ele>506.071</ele>
        <time>2013-06-23T08:01:11Z</time>
      </trkpt>
      <trkpt lat="44.46439" lon="2.70551">
        <ele>505.941</ele>
        <time>2013-06-23T08:01:19Z</time>
      </trkpt>
      <trkpt lat="44.46431" lon="2.70577">
        <ele>508.262</ele>
        <time>2013-06-23T08:01:28Z</time>
      </trkpt>
      <trkpt lat="44.46429" lon="2.70597">
        <ele>509.294</ele>
        <time>2013-06-23T08:01:36Z</time>
      </trkpt>
      <trkpt lat="44.46432" lon="2.70616">
        <ele>509.501</ele>
        <time>2013-06-23T08:01:44Z</time>
      </trkpt>
      <trkpt lat="44.46437" lon="2.70631">
        <ele>509.141</ele>
        <time>2013-06-23T08:01:52Z</time>
      </trkpt>
      <trkpt lat="44.46444" lon="2.70642">
        <ele>509.853</ele>
        <time>2013-06-23T08:02:00Z</time>
      </trkpt>
      <trkpt lat="44.46455" lon="2.70655">
        <ele>511.964</ele>
        <time>2013-06-23T08:02:10Z</time>
      </trkpt>
      <trkpt lat="44.46466" lon="2.70664">
        <ele>513.912</ele>
        <time>2013-06-23T08:02:19Z</time>
      </trkpt>
      <trkpt lat="44.46471" lon="2.70668">
        <ele>515.092</ele>
        <time>2013-06-23T08:02:23Z</time>
      </trkpt>
      <trkpt lat="44.46481" lon="2.70678">
        <ele>517.122</ele>
        <time>2013-06-23T08:02:32Z</time>
      </trkpt>
      <trkpt lat="44.46491" lon="2.70688">
        <ele>518.484</ele>
        <time>2013-06-23T08:02:41Z</time>
      </trkpt>
      <trkpt lat="44.465" lon="2.707">
        <ele>519.962</ele>
        <time>2013-06-23T08:02:50Z</time>
      </trkpt>
      <trkpt lat="44.46507" lon="2.70711">
        <ele>521.282</ele>
        <time>2013-06-23T08:02:58Z</time>
      </trkpt>
      <trkpt lat="44.46513" lon="2.70725">
        <ele>522.442</ele>
        <time>2013-06-23T08:03:07Z</time>
      </trkpt>
      <trkpt lat="44.46514" lon="2.70728">
        <ele>522.552</ele>
        <time>2013-06-23T08:03:09Z</time>
      </trkpt>
      <trkpt lat="44.46515" lon="2.70734">
        <ele>523.022</ele>
        <time>2013-06-23T08:03:13Z</time>
      </trkpt>
      <trkpt lat="44.46524" lon="2.70738">
        <ele>523.862</ele>
        <time>2013-06-23T08:03:20Z</time>
      </trkpt>
      <trkpt lat="44.46536" lon="2.70744">
        <ele>526.143</ele>
        <time>2013-06-23T08:03:28Z</time>
      </trkpt>
      <trkpt lat="44.46546" lon="2.7075">
        <ele>528.213</ele>
        <time>2013-06-23T08:03:35Z</time>
      </trkpt>
      <trkpt lat="44.46555" lon="2.70756">
        <ele>529.853</ele>
        <time>2013-06-23T08:03:42Z</time>
      </trkpt>
      <trkpt lat="44.46565" lon="2.70768">
        <ele>532.133</ele>
        <time>2013-06-23T08:03:51Z</time>
      </trkpt>
      <trkpt lat="44.46572" lon="2.70781">
        <ele>533.907</ele>
        <time>2013-06-23T08:03:58Z</time>
      </trkpt>
      <trkpt lat="44.46576" lon="2.70793">
        <ele>535.143</ele>
        <time>2013-06-23T08:04:05Z</time>
      </trkpt>
      <trkpt lat="44.46576" lon="2.70793">
        <ele>536.722</ele>
        <time>2013-06-23T08:04:37Z</time>
      </trkpt>
      <trkpt lat="44.46578" lon="2.70798">
        <ele>537.362</ele>
        <time>2013-06-23T08:04:41Z</time>
      </trkpt>
      <trkpt lat="44.46586" lon="2.70822">
        <ele>538.782</ele>
        <time>2013-06-23T08:04:54Z</time>
      </trkpt>
      <trkpt lat="44.46592" lon="2.70839">
        <ele>539.842</ele>
        <time>2013-06-23T08:05:02Z</time>
      </trkpt>
      <trkpt lat="44.466" lon="2.70864">
        <ele>541.223</ele>
        <time>2013-06-23T08:05:13Z</time>
      </trkpt>
      <trkpt lat="44.46607" lon="2.70884">
        <ele>542.002</ele>
        <time>2013-06-23T08:05:21Z</time>
      </trkpt>
      <trkpt lat="44.46612" lon="2.70906">
        <ele>541.862</ele>
        <time>2013-06-23T08:05:28Z</time>
      </trkpt>
      <trkpt lat="44.46617" lon="2.70933">
        <ele>542.132</ele>
        <time>2013-06-23T08:05:36Z</time>
      </trkpt>
      <trkpt lat="44.46622" lon="2.70963">
        <ele>543.072</ele>
        <time>2013-06-23T08:05:44Z</time>
      </trkpt>
      <trkpt lat="44.4663" lon="2.7099">
        <ele>543.862</ele>
        <time>2013-06-23T08:05:51Z</time>
      </trkpt>
      <trkpt lat="44.46639" lon="2.71036">
        <ele>544.282</ele>
        <time>2013-06-23T08:06:01Z</time>
      </trkpt>
      <trkpt lat="44.46646" lon="2.71069">
        <ele>543.872</ele>
        <time>2013-06-23T08:06:08Z</time>
      </trkpt>
      <trkpt lat="44.46643" lon="2.71112">
        <ele>542.511</ele>
        <time>2013-06-23T08:06:16Z</time>
      </trkpt>
      <trkpt lat="44.46639" lon="2.71138">
        <ele>541.921</ele>
        <time>2013-06-23T08:06:20Z</time>
      </trkpt>
      <trkpt lat="44.46642" lon="2.71164">
        <ele>540.711</ele>
        <time>2013-06-23T08:06:24Z</time>
      </trkpt>
      <trkpt lat="44.46665" lon="2.71211">
        <ele>538.82</ele>
        <time>2013-06-23T08:06:31Z</time>
      </trkpt>
      <trkpt lat="44.46689" lon="2.71256">
        <ele>536.62</ele>
        <time>2013-06-23T08:06:37Z</time>
      </trkpt>
      <trkpt lat="44.46697" lon="2.7127">
        <ele>537.023</ele>
        <time>2013-06-23T08:06:41Z</time>
      </trkpt>
      <trkpt lat="44.46697" lon="2.7127">
        <ele>537.102</ele>
        <time>2013-06-23T08:06:43Z</time>
      </trkpt>
      <trkpt lat="44.46734" lon="2.71324">
        <ele>537.602</ele>
        <time>2013-06-23T08:06:51Z</time>
      </trkpt>
      <trkpt lat="44.46755" lon="2.71364">
        <ele>537.232</ele>
        <time>2013-06-23T08:07:01Z</time>
      </trkpt>
      <trkpt lat="44.46768" lon="2.71389">
        <ele>536.913</ele>
        <time>2013-06-23T08:07:07Z</time>
      </trkpt>
      <trkpt lat="44.46786" lon="2.71416">
        <ele>536.203</ele>
        <time>2013-06-23T08:07:15Z</time>
      </trkpt>
      <trkpt lat="44.46802" lon="2.71437">
        <ele>535.843</ele>
        <time>2013-06-23T08:07:21Z</time>
      </trkpt>
      <trkpt lat="44.4682" lon="2.71464">
        <ele>536.365</ele>
        <time>2013-06-23T08:07:28Z</time>
      </trkpt>
      <trkpt lat="44.46841" lon="2.71494">
        <ele>537.904</ele>
        <time>2013-06-23T08:07:36Z</time>
      </trkpt>
      <trkpt lat="44.46842" lon="2.71513">
        <ele>539.035</ele>
        <time>2013-06-23T08:07:40Z</time>
      </trkpt>
      <trkpt lat="44.46824" lon="2.71539">
        <ele>539.693</ele>
        <time>2013-06-23T08:07:47Z</time>
      </trkpt>
      <trkpt lat="44.46815" lon="2.71564">
        <ele>540.633</ele>
        <time>2013-06-23T08:07:53Z</time>
      </trkpt>
      <trkpt lat="44.46815" lon="2.71564">
        <ele>541.153</ele>
        <time>2013-06-23T08:07:58Z</time>
      </trkpt>
      <trkpt lat="44.46796" lon="2.7157">
        <ele>541.273</ele>
        <time>2013-06-23T08:08:02Z</time>
      </trkpt>
      <trkpt lat="44.46796" lon="2.7157">
        <ele>538.854</ele>
        <time>2013-06-23T08:14:39Z</time>
      </trkpt>
      <trkpt lat="44.46796" lon="2.7157">
        <ele>539.875</ele>
        <time>2013-06-23T08:14:45Z</time>
      </trkpt>
      <trkpt lat="44.46796" lon="2.7157">
        <ele>540.285</ele>
        <time>2013-06-23T08:14:46Z</time>
      </trkpt>
      <trkpt lat="44.46784" lon="2.71563">
        <ele>540.454</ele>
        <time>2013-06-23T08:14:51Z</time>
      </trkpt>
      <trkpt lat="44.46767" lon="2.71597">
        <ele>539.943</ele>
        <time>2013-06-23T08:14:56Z</time>
      </trkpt>
      <trkpt lat="44.46753" lon="2.71613">
        <ele>539.863</ele>
        <time>2013-06-23T08:15:00Z</time>
      </trkpt>
      <trkpt lat="44.46717" lon="2.71651">
        <ele>539.523</ele>
        <time>2013-06-23T08:15:09Z</time>
      </trkpt>
      <trkpt lat="44.46695" lon="2.71683">
        <ele>536.591</ele>
        <time>2013-06-23T08:15:15Z</time>
      </trkpt>
      <trkpt lat="44.46668" lon="2.71732">
        <ele>531.619</ele>
        <time>2013-06-23T08:15:22Z</time>
      </trkpt>
      <trkpt lat="44.46655" lon="2.71762">
        <ele>528.597</ele>
        <time>2013-06-23T08:15:26Z</time>
      </trkpt>
      <trkpt lat="44.46646" lon="2.71799">
        <ele>525.09</ele>
        <time>2013-06-23T08:15:31Z</time>
      </trkpt>
      <trkpt lat="44.46647" lon="2.71819">
        <ele>522.87</ele>
        <time>2013-06-23T08:15:34Z</time>
      </trkpt>
      <trkpt lat="44.46648" lon="2.71826">
        <ele>521.09</ele>
        <time>2013-06-23T08:15:36Z</time>
      </trkpt>
      <trkpt lat="44.46673" lon="2.71816">
        <ele>518.83</ele>
        <time>2013-06-23T08:15:39Z</time>
      </trkpt>
      <trkpt lat="44.4668" lon="2.71809">
        <ele>518.08</ele>
        <time>2013-06-23T08:15:40Z</time>
      </trkpt>
      <trkpt lat="44.46711" lon="2.71759">
        <ele>512.959</ele>
        <time>2013-06-23T08:15:45Z</time>
      </trkpt>
      <trkpt lat="44.46747" lon="2.71696">
        <ele>505.558</ele>
        <time>2013-06-23T08:15:50Z</time>
      </trkpt>
      <trkpt lat="44.46766" lon="2.7167">
        <ele>503.45</ele>
        <time>2013-06-23T08:15:53Z</time>
      </trkpt>
      <trkpt lat="44.4679" lon="2.71676">
        <ele>502.761</ele>
        <time>2013-06-23T08:15:56Z</time>
      </trkpt>
      <trkpt lat="44.46801" lon="2.71677">
        <ele>502.502</ele>
        <time>2013-06-23T08:15:57Z</time>
      </trkpt>
      <trkpt lat="44.46845" lon="2.7167">
        <ele>504.964</ele>
        <time>2013-06-23T08:16:03Z</time>
      </trkpt>
      <trkpt lat="44.46863" lon="2.71683">
        <ele>505.655</ele>
        <time>2013-06-23T08:16:06Z</time>
      </trkpt>
      <trkpt lat="44.46885" lon="2.71718">
        <ele>506.775</ele>
        <time>2013-06-23T08:16:12Z</time>
      </trkpt>
      <trkpt lat="44.46892" lon="2.71733">
        <ele>506.384</ele>
        <time>2013-06-23T08:16:15Z</time>
      </trkpt>
      <trkpt lat="44.469" lon="2.7176">
        <ele>505.524</ele>
        <time>2013-06-23T08:16:19Z</time>
      </trkpt>
      <trkpt lat="44.46901" lon="2.71785">
        <ele>505.644</ele>
        <time>2013-06-23T08:16:21Z</time>
      </trkpt>
      <trkpt lat="44.46889" lon="2.71814">
        <ele>506.434</ele>
        <time>2013-06-23T08:16:26Z</time>
      </trkpt>
      <trkpt lat="44.46869" lon="2.71841">
        <ele>506.354</ele>
        <time>2013-06-23T08:16:33Z</time>
      </trkpt>
      <trkpt lat="44.46849" lon="2.7186">
        <ele>508.224</ele>
        <time>2013-06-23T08:16:40Z</time>
      </trkpt>
      <trkpt lat="44.46834" lon="2.71879">
        <ele>511.325</ele>
        <time>2013-06-23T08:16:47Z</time>
      </trkpt>
      <trkpt lat="44.46816" lon="2.71908">
        <ele>516.285</ele>
        <time>2013-06-23T08:16:56Z</time>
      </trkpt>
      <trkpt lat="44.46805" lon="2.71935">
        <ele>518.035</ele>
        <time>2013-06-23T08:17:04Z</time>
      </trkpt>
      <trkpt lat="44.46801" lon="2.71968">
        <ele>519.405</ele>
        <time>2013-06-23T08:17:13Z</time>
      </trkpt>
      <trkpt lat="44.46799" lon="2.71993">
        <ele>520.975</ele>
        <time>2013-06-23T08:17:20Z</time>
      </trkpt>
      <trkpt lat="44.46793" lon="2.72013">
        <ele>522.445</ele>
        <time>2013-06-23T08:17:26Z</time>
      </trkpt>
      <trkpt lat="44.46785" lon="2.72027">
        <ele>524.526</ele>
        <time>2013-06-23T08:17:31Z</time>
      </trkpt>
      <trkpt lat="44.46777" lon="2.72039">
        <ele>526.435</ele>
        <time>2013-06-23T08:17:37Z</time>
      </trkpt>
      <trkpt lat="44.46769" lon="2.72052">
        <ele>527.745</ele>
        <time>2013-06-23T08:17:43Z</time>
      </trkpt>
      <trkpt lat="44.46758" lon="2.72067">
        <ele>528.835</ele>
        <time>2013-06-23T08:17:48Z</time>
      </trkpt>
      <trkpt lat="44.46749" lon="2.72093">
        <ele>530.044</ele>
        <time>2013-06-23T08:17:56Z</time>
      </trkpt>
      <trkpt lat="44.46741" lon="2.72134">
        <ele>529.514</ele>
        <time>2013-06-23T08:18:07Z</time>
      </trkpt>
      <trkpt lat="44.4674" lon="2.72167">
        <ele>528.985</ele>
        <time>2013-06-23T08:18:16Z</time>
      </trkpt>
      <trkpt lat="44.46742" lon="2.72195">
        <ele>530.356</ele>
        <time>2013-06-23T08:18:25Z</time>
      </trkpt>
      <trkpt lat="44.46751" lon="2.72223">
        <ele>532.116</ele>
        <time>2013-06-23T08:18:34Z</time>
      </trkpt>
      <trkpt lat="44.46762" lon="2.72258">
        <ele>535.246</ele>
        <time>2013-06-23T08:18:44Z</time>
      </trkpt>
      <trkpt lat="44.46767" lon="2.72289">
        <ele>537.075</ele>
        <time>2013-06-23T08:18:53Z</time>
      </trkpt>
      <trkpt lat="44.46771" lon="2.72333">
        <ele>539.046</ele>
        <time>2013-06-23T08:19:04Z</time>
      </trkpt>
      <trkpt lat="44.46774" lon="2.72372">
        <ele>541.076</ele>
        <time>2013-06-23T08:19:13Z</time>
      </trkpt>
      <trkpt lat="44.4678" lon="2.7242">
        <ele>542.556</ele>
        <time>2013-06-23T08:19:24Z</time>
      </trkpt>
      <trkpt lat="44.46785" lon="2.72461">
        <ele>543.606</ele>
        <time>2013-06-23T08:19:33Z</time>
      </trkpt>
      <trkpt lat="44.46792" lon="2.72502">
        <ele>544.505</ele>
        <time>2013-06-23T08:19:42Z</time>
      </trkpt>
      <trkpt lat="44.46805" lon="2.72552">
        <ele>545.505</ele>
        <time>2013-06-23T08:19:53Z</time>
      </trkpt>
      <trkpt lat="44.46811" lon="2.72594">
        <ele>546.025</ele>
        <time>2013-06-23T08:20:00Z</time>
      </trkpt>
      <trkpt lat="44.46808" lon="2.72649">
        <ele>545.806</ele>
        <time>2013-06-23T08:20:09Z</time>
      </trkpt>
      <trkpt lat="44.46801" lon="2.72697">
        <ele>545.576</ele>
        <time>2013-06-23T08:20:18Z</time>
      </trkpt>
      <trkpt lat="44.46791" lon="2.7275">
        <ele>545.616</ele>
        <time>2013-06-23T08:20:28Z</time>
      </trkpt>
      <trkpt lat="44.46782" lon="2.7281">
        <ele>548.267</ele>
        <time>2013-06-23T08:20:39Z</time>
      </trkpt>
      <trkpt lat="44.46773" lon="2.72853">
        <ele>549.816</ele>
        <time>2013-06-23T08:20:48Z</time>
      </trkpt>
      <trkpt lat="44.4677" lon="2.7286">
        <ele>550.346</ele>
        <time>2013-06-23T08:20:53Z</time>
      </trkpt>
      <trkpt lat="44.4677" lon="2.7286">
        <ele>550.476</ele>
        <time>2013-06-23T08:20:55Z</time>
      </trkpt>
      <trkpt lat="44.4677" lon="2.7286">
        <ele>550.024</ele>
        <time>2013-06-23T08:21:00Z</time>
      </trkpt>
      <trkpt lat="44.4676" lon="2.72897">
        <ele>549.204</ele>
        <time>2013-06-23T08:21:02Z</time>
      </trkpt>
      <trkpt lat="44.46749" lon="2.72922">
        <ele>548.434</ele>
        <time>2013-06-23T08:21:05Z</time>
      </trkpt>
      <trkpt lat="44.46743" lon="2.7297">
        <ele>548.566</ele>
        <time>2013-06-23T08:21:10Z</time>
      </trkpt>
      <trkpt lat="44.46742" lon="2.73017">
        <ele>549.277</ele>
        <time>2013-06-23T08:21:16Z</time>
      </trkpt>
      <trkpt lat="44.46742" lon="2.73067">
        <ele>550.927</ele>
        <time>2013-06-23T08:21:23Z</time>
      </trkpt>
      <trkpt lat="44.46742" lon="2.73128">
        <ele>552.696</ele>
        <time>2013-06-23T08:21:32Z</time>
      </trkpt>
      <trkpt lat="44.46734" lon="2.73197">
        <ele>552.746</ele>
        <time>2013-06-23T08:21:41Z</time>
      </trkpt>
      <trkpt lat="44.46735" lon="2.73261">
        <ele>552.125</ele>
        <time>2013-06-23T08:21:49Z</time>
      </trkpt>
      <trkpt lat="44.4673" lon="2.73311">
        <ele>551.856</ele>
        <time>2013-06-23T08:21:55Z</time>
      </trkpt>
      <trkpt lat="44.46723" lon="2.73363">
        <ele>553.717</ele>
        <time>2013-06-23T08:22:02Z</time>
      </trkpt>
      <trkpt lat="44.46719" lon="2.73417">
        <ele>555.877</ele>
        <time>2013-06-23T08:22:10Z</time>
      </trkpt>
      <trkpt lat="44.46714" lon="2.73462">
        <ele>557.307</ele>
        <time>2013-06-23T08:22:17Z</time>
      </trkpt>
      <trkpt lat="44.46713" lon="2.73481">
        <ele>558.828</ele>
        <time>2013-06-23T08:22:21Z</time>
      </trkpt>
      <trkpt lat="44.46719" lon="2.73487">
        <ele>559.708</ele>
        <time>2013-06-23T08:22:24Z</time>
      </trkpt>
      <trkpt lat="44.46727" lon="2.73521">
        <ele>559.676</ele>
        <time>2013-06-23T08:22:30Z</time>
      </trkpt>
      <trkpt lat="44.46727" lon="2.73527">
        <ele>559.566</ele>
        <time>2013-06-23T08:22:31Z</time>
      </trkpt>
      <trkpt lat="44.46725" lon="2.73578">
        <ele>558.696</ele>
        <time>2013-06-23T08:22:39Z</time>
      </trkpt>
      <trkpt lat="44.46716" lon="2.73618">
        <ele>558.997</ele>
        <time>2013-06-23T08:22:45Z</time>
      </trkpt>
      <trkpt lat="44.46706" lon="2.7365">
        <ele>559.357</ele>
        <time>2013-06-23T08:22:51Z</time>
      </trkpt>
      <trkpt lat="44.46699" lon="2.73667">
        <ele>559.397</ele>
        <time>2013-06-23T08:22:54Z</time>
      </trkpt>
      <trkpt lat="44.46699" lon="2.73667">
        <ele>560.578</ele>
        <time>2013-06-23T08:22:58Z</time>
      </trkpt>
      <trkpt lat="44.46739" lon="2.73677">
        <ele>562.508</ele>
        <time>2013-06-23T08:23:05Z</time>
      </trkpt>
      <trkpt lat="44.46769" lon="2.7369">
        <ele>563.238</ele>
        <time>2013-06-23T08:23:13Z</time>
      </trkpt>
      <trkpt lat="44.46812" lon="2.7372">
        <ele>565.188</ele>
        <time>2013-06-23T08:23:24Z</time>
      </trkpt>
      <trkpt lat="44.46849" lon="2.73748">
        <ele>564.577</ele>
        <time>2013-06-23T08:23:33Z</time>
      </trkpt>
      <trkpt lat="44.46875" lon="2.73767">
        <ele>564.067</ele>
        <time>2013-06-23T08:23:39Z</time>
      </trkpt>
      <trkpt lat="44.46905" lon="2.73789">
        <ele>563.157</ele>
        <time>2013-06-23T08:23:47Z</time>
      </trkpt>
      <trkpt lat="44.4694" lon="2.73817">
        <ele>563.568</ele>
        <time>2013-06-23T08:23:55Z</time>
      </trkpt>
      <trkpt lat="44.46966" lon="2.73837">
        <ele>564.508</ele>
        <time>2013-06-23T08:24:02Z</time>
      </trkpt>
      <trkpt lat="44.47001" lon="2.73869">
        <ele>565.289</ele>
        <time>2013-06-23T08:24:12Z</time>
      </trkpt>
      <trkpt lat="44.47012" lon="2.73879">
        <ele>565.318</ele>
        <time>2013-06-23T08:24:16Z</time>
      </trkpt>
      <trkpt lat="44.47015" lon="2.73884">
        <ele>565.349</ele>
        <time>2013-06-23T08:24:21Z</time>
      </trkpt>
      <trkpt lat="44.46999" lon="2.73936">
        <ele>566.099</ele>
        <time>2013-06-23T08:24:29Z</time>
      </trkpt>
      <trkpt lat="44.4699" lon="2.73965">
        <ele>566.429</ele>
        <time>2013-06-23T08:24:36Z</time>
      </trkpt>
      <trkpt lat="44.46986" lon="2.73981">
        <ele>566.018</ele>
        <time>2013-06-23T08:24:40Z</time>
      </trkpt>
      <trkpt lat="44.46978" lon="2.74013">
        <ele>565.828</ele>
        <time>2013-06-23T08:24:47Z</time>
      </trkpt>
      <trkpt lat="44.46978" lon="2.74021">
        <ele>565.178</ele>
        <time>2013-06-23T08:24:52Z</time>
      </trkpt>
      <trkpt lat="44.46971" lon="2.74061">
        <ele>564.937</ele>
        <time>2013-06-23T08:24:57Z</time>
      </trkpt>
      <trkpt lat="44.46963" lon="2.74092">
        <ele>564.587</ele>
        <time>2013-06-23T08:25:03Z</time>
      </trkpt>
      <trkpt lat="44.46953" lon="2.74123">
        <ele>563.776</ele>
        <time>2013-06-23T08:25:09Z</time>
      </trkpt>
      <trkpt lat="44.46938" lon="2.74159">
        <ele>563.768</ele>
        <time>2013-06-23T08:25:16Z</time>
      </trkpt>
      <trkpt lat="44.46931" lon="2.74175">
        <ele>564.078</ele>
        <time>2013-06-23T08:25:19Z</time>
      </trkpt>
      <trkpt lat="44.46917" lon="2.74215">
        <ele>564.578</ele>
        <time>2013-06-23T08:25:26Z</time>
      </trkpt>
      <trkpt lat="44.46905" lon="2.74252">
        <ele>564.418</ele>
        <time>2013-06-23T08:25:32Z</time>
      </trkpt>
      <trkpt lat="44.46902" lon="2.74263">
        <ele>563.987</ele>
        <time>2013-06-23T08:25:34Z</time>
      </trkpt>
      <trkpt lat="44.46894" lon="2.74295">
        <ele>563.197</ele>
        <time>2013-06-23T08:25:40Z</time>
      </trkpt>
      <trkpt lat="44.46889" lon="2.74316">
        <ele>562.766</ele>
        <time>2013-06-23T08:25:44Z</time>
      </trkpt>
      <trkpt lat="44.46883" lon="2.74344">
        <ele>562.007</ele>
        <time>2013-06-23T08:25:48Z</time>
      </trkpt>
      <trkpt lat="44.46881" lon="2.74358">
        <ele>562.018</ele>
        <time>2013-06-23T08:25:50Z</time>
      </trkpt>
      <trkpt lat="44.46879" lon="2.74396">
        <ele>562.298</ele>
        <time>2013-06-23T08:25:56Z</time>
      </trkpt>
      <trkpt lat="44.46873" lon="2.74447">
        <ele>562.238</ele>
        <time>2013-06-23T08:26:04Z</time>
      </trkpt>
      <trkpt lat="44.4687" lon="2.7447">
        <ele>563.119</ele>
        <time>2013-06-23T08:26:08Z</time>
      </trkpt>
      <trkpt lat="44.46869" lon="2.74487">
        <ele>563.189</ele>
        <time>2013-06-23T08:26:11Z</time>
      </trkpt>
      <trkpt lat="44.46874" lon="2.74529">
        <ele>564.099</ele>
        <time>2013-06-23T08:26:19Z</time>
      </trkpt>
      <trkpt lat="44.4688" lon="2.74577">
        <ele>563.279</ele>
        <time>2013-06-23T08:26:27Z</time>
      </trkpt>
      <trkpt lat="44.46886" lon="2.74637">
        <ele>563.289</ele>
        <time>2013-06-23T08:26:37Z</time>
      </trkpt>
      <trkpt lat="44.46889" lon="2.74669">
        <ele>563.619</ele>
        <time>2013-06-23T08:26:42Z</time>
      </trkpt>
      <trkpt lat="44.4689" lon="2.7468">
        <ele>563.919</ele>
        <time>2013-06-23T08:26:50Z</time>
      </trkpt>
      <trkpt lat="44.469" lon="2.74757">
        <ele>564.079</ele>
        <time>2013-06-23T08:26:56Z</time>
      </trkpt>
      <trkpt lat="44.46897" lon="2.74788">
        <ele>563.899</ele>
        <time>2013-06-23T08:27:00Z</time>
      </trkpt>
      <trkpt lat="44.46891" lon="2.74809">
        <ele>565.06</ele>
        <time>2013-06-23T08:27:03Z</time>
      </trkpt>
      <trkpt lat="44.46882" lon="2.74853">
        <ele>566.339</ele>
        <time>2013-06-23T08:27:09Z</time>
      </trkpt>
      <trkpt lat="44.46883" lon="2.74915">
        <ele>567.6</ele>
        <time>2013-06-23T08:27:18Z</time>
      </trkpt>
      <trkpt lat="44.4688" lon="2.74976">
        <ele>568.54</ele>
        <time>2013-06-23T08:27:27Z</time>
      </trkpt>
      <trkpt lat="44.46884" lon="2.75037">
        <ele>570.06</ele>
        <time>2013-06-23T08:27:36Z</time>
      </trkpt>
      <trkpt lat="44.46884" lon="2.7506">
        <ele>570.33</ele>
        <time>2013-06-23T08:27:39Z</time>
      </trkpt>
      <trkpt lat="44.46886" lon="2.75143">
        <ele>571.98</ele>
        <time>2013-06-23T08:27:50Z</time>
      </trkpt>
      <trkpt lat="44.4689" lon="2.75192">
        <ele>573.24</ele>
        <time>2013-06-23T08:27:57Z</time>
      </trkpt>
      <trkpt lat="44.4689" lon="2.75213">
        <ele>573.85</ele>
        <time>2013-06-23T08:28:00Z</time>
      </trkpt>
      <trkpt lat="44.46889" lon="2.75254">
        <ele>574.68</ele>
        <time>2013-06-23T08:28:06Z</time>
      </trkpt>
      <trkpt lat="44.46886" lon="2.75306">
        <ele>576.091</ele>
        <time>2013-06-23T08:28:14Z</time>
      </trkpt>
      <trkpt lat="44.46885" lon="2.75356">
        <ele>576.451</ele>
        <time>2013-06-23T08:28:22Z</time>
      </trkpt>
      <trkpt lat="44.46882" lon="2.7541">
        <ele>575.701</ele>
        <time>2013-06-23T08:28:31Z</time>
      </trkpt>
      <trkpt lat="44.46879" lon="2.75439">
        <ele>575.651</ele>
        <time>2013-06-23T08:28:36Z</time>
      </trkpt>
      <trkpt lat="44.46877" lon="2.75475">
        <ele>575.41</ele>
        <time>2013-06-23T08:28:42Z</time>
      </trkpt>
      <trkpt lat="44.4687" lon="2.75532">
        <ele>575.13</ele>
        <time>2013-06-23T08:28:50Z</time>
      </trkpt>
      <trkpt lat="44.46857" lon="2.75593">
        <ele>575.111</ele>
        <time>2013-06-23T08:28:59Z</time>
      </trkpt>
      <trkpt lat="44.46849" lon="2.75644">
        <ele>577.662</ele>
        <time>2013-06-23T08:29:07Z</time>
      </trkpt>
      <trkpt lat="44.4685" lon="2.75679">
        <ele>578.882</ele>
        <time>2013-06-23T08:29:13Z</time>
      </trkpt>
      <trkpt lat="44.4685" lon="2.75738">
        <ele>580.913</ele>
        <time>2013-06-23T08:29:22Z</time>
      </trkpt>
      <trkpt lat="44.46842" lon="2.75796">
        <ele>583.182</ele>
        <time>2013-06-23T08:29:31Z</time>
      </trkpt>
      <trkpt lat="44.46835" lon="2.75833">
        <ele>584.282</ele>
        <time>2013-06-23T08:29:37Z</time>
      </trkpt>
      <trkpt lat="44.4683" lon="2.75869">
        <ele>583.971</ele>
        <time>2013-06-23T08:29:43Z</time>
      </trkpt>
      <trkpt lat="44.46829" lon="2.75896">
        <ele>584.031</ele>
        <time>2013-06-23T08:29:47Z</time>
      </trkpt>
      <trkpt lat="44.46824" lon="2.7594">
        <ele>585.401</ele>
        <time>2013-06-23T08:29:54Z</time>
      </trkpt>
      <trkpt lat="44.46818" lon="2.75987">
        <ele>585.411</ele>
        <time>2013-06-23T08:30:01Z</time>
      </trkpt>
      <trkpt lat="44.46808" lon="2.76024">
        <ele>586.171</ele>
        <time>2013-06-23T08:30:07Z</time>
      </trkpt>
      <trkpt lat="44.46805" lon="2.76036">
        <ele>586.592</ele>
        <time>2013-06-23T08:30:09Z</time>
      </trkpt>
      <trkpt lat="44.468" lon="2.76058">
        <ele>586.711</ele>
        <time>2013-06-23T08:30:13Z</time>
      </trkpt>
      <trkpt lat="44.46808" lon="2.76059">
        <ele>586.241</ele>
        <time>2013-06-23T08:30:16Z</time>
      </trkpt>
      <trkpt lat="44.46813" lon="2.76059">
        <ele>586.321</ele>
        <time>2013-06-23T08:30:18Z</time>
      </trkpt>
      <trkpt lat="44.46842" lon="2.76051">
        <ele>587.552</ele>
        <time>2013-06-23T08:30:26Z</time>
      </trkpt>
      <trkpt lat="44.46871" lon="2.76036">
        <ele>589.122</ele>
        <time>2013-06-23T08:30:34Z</time>
      </trkpt>
      <trkpt lat="44.46897" lon="2.7602">
        <ele>589.332</ele>
        <time>2013-06-23T08:30:41Z</time>
      </trkpt>
      <trkpt lat="44.46921" lon="2.76003">
        <ele>589.242</ele>
        <time>2013-06-23T08:30:48Z</time>
      </trkpt>
      <trkpt lat="44.46936" lon="2.75992">
        <ele>589.412</ele>
        <time>2013-06-23T08:30:54Z</time>
      </trkpt>
      <trkpt lat="44.46948" lon="2.75977">
        <ele>589.462</ele>
        <time>2013-06-23T08:31:01Z</time>
      </trkpt>
      <trkpt lat="44.46966" lon="2.75954">
        <ele>589.332</ele>
        <time>2013-06-23T08:31:11Z</time>
      </trkpt>
      <trkpt lat="44.46976" lon="2.75941">
        <ele>589.512</ele>
        <time>2013-06-23T08:31:17Z</time>
      </trkpt>
      <trkpt lat="44.46993" lon="2.75922">
        <ele>589.612</ele>
        <time>2013-06-23T08:31:25Z</time>
      </trkpt>
      <trkpt lat="44.47015" lon="2.75898">
        <ele>589.472</ele>
        <time>2013-06-23T08:31:32Z</time>
      </trkpt>
      <trkpt lat="44.47035" lon="2.7587">
        <ele>588.691</ele>
        <time>2013-06-23T08:31:38Z</time>
      </trkpt>
      <trkpt lat="44.4706" lon="2.75835">
        <ele>585.969</ele>
        <time>2013-06-23T08:31:44Z</time>
      </trkpt>
      <trkpt lat="44.47084" lon="2.75808">
        <ele>583.218</ele>
        <time>2013-06-23T08:31:48Z</time>
      </trkpt>
      <trkpt lat="44.47109" lon="2.75771">
        <ele>581.46</ele>
        <time>2013-06-23T08:31:52Z</time>
      </trkpt>
      <trkpt lat="44.47152" lon="2.75724">
        <ele>582.203</ele>
        <time>2013-06-23T08:31:58Z</time>
      </trkpt>
      <trkpt lat="44.47182" lon="2.75693">
        <ele>585.415</ele>
        <time>2013-06-23T08:32:03Z</time>
      </trkpt>
      <trkpt lat="44.47195" lon="2.7568">
        <ele>586.844</ele>
        <time>2013-06-23T08:32:07Z</time>
      </trkpt>
      <trkpt lat="44.4721" lon="2.75686">
        <ele>586.743</ele>
        <time>2013-06-23T08:32:09Z</time>
      </trkpt>
      <trkpt lat="44.47233" lon="2.75711">
        <ele>585.371</ele>
        <time>2013-06-23T08:32:15Z</time>
      </trkpt>
      <trkpt lat="44.47262" lon="2.75755">
        <ele>583.862</ele>
        <time>2013-06-23T08:32:23Z</time>
      </trkpt>
      <trkpt lat="44.47283" lon="2.75802">
        <ele>582.792</ele>
        <time>2013-06-23T08:32:31Z</time>
      </trkpt>
      <trkpt lat="44.47303" lon="2.75843">
        <ele>580.412</ele>
        <time>2013-06-23T08:32:38Z</time>
      </trkpt>
      <trkpt lat="44.47322" lon="2.75888">
        <ele>578.303</ele>
        <time>2013-06-23T08:32:46Z</time>
      </trkpt>
      <trkpt lat="44.47347" lon="2.75947">
        <ele>575.973</ele>
        <time>2013-06-23T08:32:57Z</time>
      </trkpt>
      <trkpt lat="44.47358" lon="2.75958">
        <ele>575.952</ele>
        <time>2013-06-23T08:33:04Z</time>
      </trkpt>
      <trkpt lat="44.47358" lon="2.75958">
        <ele>575.653</ele>
        <time>2013-06-23T08:33:13Z</time>
      </trkpt>
      <trkpt lat="44.47382" lon="2.76047">
        <ele>575.684</ele>
        <time>2013-06-23T08:33:20Z</time>
      </trkpt>
      <trkpt lat="44.47393" lon="2.76083">
        <ele>575.384</ele>
        <time>2013-06-23T08:33:28Z</time>
      </trkpt>
      <trkpt lat="44.47407" lon="2.76117">
        <ele>576.344</ele>
        <time>2013-06-23T08:33:36Z</time>
      </trkpt>
      <trkpt lat="44.47459" lon="2.76227">
        <ele>578.965</ele>
        <time>2013-06-23T08:33:46Z</time>
      </trkpt>
      <trkpt lat="44.47459" lon="2.76227">
        <ele>579.425</ele>
        <time>2013-06-23T08:33:53Z</time>
      </trkpt>
      <trkpt lat="44.47459" lon="2.76227">
        <ele>580.104</ele>
        <time>2013-06-23T08:34:02Z</time>
      </trkpt>
      <trkpt lat="44.47463" lon="2.76245">
        <ele>581.046</ele>
        <time>2013-06-23T08:34:09Z</time>
      </trkpt>
      <trkpt lat="44.47477" lon="2.76272">
        <ele>582.995</ele>
        <time>2013-06-23T08:34:17Z</time>
      </trkpt>
      <trkpt lat="44.47491" lon="2.76298">
        <ele>584.216</ele>
        <time>2013-06-23T08:34:25Z</time>
      </trkpt>
      <trkpt lat="44.475" lon="2.76315">
        <ele>585.815</ele>
        <time>2013-06-23T08:34:32Z</time>
      </trkpt>
      <trkpt lat="44.47508" lon="2.76337">
        <ele>586.715</ele>
        <time>2013-06-23T08:34:39Z</time>
      </trkpt>
      <trkpt lat="44.47517" lon="2.76364">
        <ele>587.205</ele>
        <time>2013-06-23T08:34:47Z</time>
      </trkpt>
      <trkpt lat="44.47526" lon="2.76404">
        <ele>587.405</ele>
        <time>2013-06-23T08:34:57Z</time>
      </trkpt>
      <trkpt lat="44.47534" lon="2.76436">
        <ele>587.835</ele>
        <time>2013-06-23T08:35:05Z</time>
      </trkpt>
      <trkpt lat="44.47538" lon="2.76449">
        <ele>587.966</ele>
        <time>2013-06-23T08:35:09Z</time>
      </trkpt>
      <trkpt lat="44.47543" lon="2.76468">
        <ele>588.525</ele>
        <time>2013-06-23T08:35:17Z</time>
      </trkpt>
      <trkpt lat="44.47552" lon="2.7649">
        <ele>588.996</ele>
        <time>2013-06-23T08:35:26Z</time>
      </trkpt>
      <trkpt lat="44.47562" lon="2.76508">
        <ele>589.595</ele>
        <time>2013-06-23T08:35:34Z</time>
      </trkpt>
      <trkpt lat="44.47571" lon="2.76531">
        <ele>590.426</ele>
        <time>2013-06-23T08:35:42Z</time>
      </trkpt>
      <trkpt lat="44.47586" lon="2.76562">
        <ele>591.775</ele>
        <time>2013-06-23T08:35:53Z</time>
      </trkpt>
      <trkpt lat="44.47599" lon="2.76586">
        <ele>593.286</ele>
        <time>2013-06-23T08:36:01Z</time>
      </trkpt>
      <trkpt lat="44.47618" lon="2.76605">
        <ele>594.975</ele>
        <time>2013-06-23T08:36:09Z</time>
      </trkpt>
      <trkpt lat="44.47642" lon="2.76625">
        <ele>597.146</ele>
        <time>2013-06-23T08:36:18Z</time>
      </trkpt>
      <trkpt lat="44.47663" lon="2.76639">
        <ele>599.507</ele>
        <time>2013-06-23T08:36:26Z</time>
      </trkpt>
      <trkpt lat="44.47681" lon="2.76653">
        <ele>601.396</ele>
        <time>2013-06-23T08:36:34Z</time>
      </trkpt>
      <trkpt lat="44.47703" lon="2.76668">
        <ele>601.866</ele>
        <time>2013-06-23T08:36:42Z</time>
      </trkpt>
      <trkpt lat="44.47728" lon="2.76686">
        <ele>604.257</ele>
        <time>2013-06-23T08:36:51Z</time>
      </trkpt>
      <trkpt lat="44.47752" lon="2.76701">
        <ele>606.677</ele>
        <time>2013-06-23T08:37:01Z</time>
      </trkpt>
      <trkpt lat="44.4777" lon="2.76712">
        <ele>608.507</ele>
        <time>2013-06-23T08:37:09Z</time>
      </trkpt>
      <trkpt lat="44.47784" lon="2.76721">
        <ele>609.886</ele>
        <time>2013-06-23T08:37:16Z</time>
      </trkpt>
      <trkpt lat="44.47806" lon="2.76736">
        <ele>611.577</ele>
        <time>2013-06-23T08:37:26Z</time>
      </trkpt>
      <trkpt lat="44.47825" lon="2.76749">
        <ele>613.068</ele>
        <time>2013-06-23T08:37:35Z</time>
      </trkpt>
      <trkpt lat="44.47839" lon="2.7676">
        <ele>614.318</ele>
        <time>2013-06-23T08:37:42Z</time>
      </trkpt>
      <trkpt lat="44.47854" lon="2.76773">
        <ele>615.708</ele>
        <time>2013-06-23T08:37:49Z</time>
      </trkpt>
      <trkpt lat="44.47872" lon="2.76789">
        <ele>617.668</ele>
        <time>2013-06-23T08:37:58Z</time>
      </trkpt>
      <trkpt lat="44.47892" lon="2.76806">
        <ele>619.458</ele>
        <time>2013-06-23T08:38:07Z</time>
      </trkpt>
      <trkpt lat="44.479" lon="2.76818">
        <ele>620.827</ele>
        <time>2013-06-23T08:38:13Z</time>
      </trkpt>
      <trkpt lat="44.47911" lon="2.76834">
        <ele>622.098</ele>
        <time>2013-06-23T08:38:20Z</time>
      </trkpt>
      <trkpt lat="44.47923" lon="2.76855">
        <ele>624.188</ele>
        <time>2013-06-23T08:38:29Z</time>
      </trkpt>
      <trkpt lat="44.47934" lon="2.76875">
        <ele>626.308</ele>
        <time>2013-06-23T08:38:37Z</time>
      </trkpt>
      <trkpt lat="44.47948" lon="2.76903">
        <ele>628.788</ele>
        <time>2013-06-23T08:38:47Z</time>
      </trkpt>
      <trkpt lat="44.4796" lon="2.76919">
        <ele>630.398</ele>
        <time>2013-06-23T08:38:53Z</time>
      </trkpt>
      <trkpt lat="44.47978" lon="2.76948">
        <ele>632.648</ele>
        <time>2013-06-23T08:39:01Z</time>
      </trkpt>
      <trkpt lat="44.47998" lon="2.76974">
        <ele>635.429</ele>
        <time>2013-06-23T08:39:09Z</time>
      </trkpt>
      <trkpt lat="44.48014" lon="2.76998">
        <ele>638.629</ele>
        <time>2013-06-23T08:39:16Z</time>
      </trkpt>
      <trkpt lat="44.48027" lon="2.77031">
        <ele>639.709</ele>
        <time>2013-06-23T08:39:24Z</time>
      </trkpt>
      <trkpt lat="44.48027" lon="2.77031">
        <ele>640.188</ele>
        <time>2013-06-23T08:39:32Z</time>
      </trkpt>
      <trkpt lat="44.48027" lon="2.77031">
        <ele>640.258</ele>
        <time>2013-06-23T08:39:37Z</time>
      </trkpt>
      <trkpt lat="44.48027" lon="2.77031">
        <ele>640.748</ele>
        <time>2013-06-23T08:40:03Z</time>
      </trkpt>
      <trkpt lat="44.48041" lon="2.77059">
        <ele>641.108</ele>
        <time>2013-06-23T08:40:09Z</time>
      </trkpt>
      <trkpt lat="44.48052" lon="2.77081">
        <ele>641.878</ele>
        <time>2013-06-23T08:40:18Z</time>
      </trkpt>
      <trkpt lat="44.48061" lon="2.771">
        <ele>642.749</ele>
        <time>2013-06-23T08:40:26Z</time>
      </trkpt>
      <trkpt lat="44.4807" lon="2.77116">
        <ele>643.689</ele>
        <time>2013-06-23T08:40:34Z</time>
      </trkpt>
      <trkpt lat="44.4808" lon="2.77137">
        <ele>644.828</ele>
        <time>2013-06-23T08:40:43Z</time>
      </trkpt>
      <trkpt lat="44.48094" lon="2.77167">
        <ele>643.698</ele>
        <time>2013-06-23T08:40:54Z</time>
      </trkpt>
      <trkpt lat="44.48111" lon="2.772">
        <ele>643.408</ele>
        <time>2013-06-23T08:41:06Z</time>
      </trkpt>
      <trkpt lat="44.48129" lon="2.77232">
        <ele>645.149</ele>
        <time>2013-06-23T08:41:18Z</time>
      </trkpt>
      <trkpt lat="44.48146" lon="2.77255">
        <ele>647.6</ele>
        <time>2013-06-23T08:41:28Z</time>
      </trkpt>
      <trkpt lat="44.48162" lon="2.77284">
        <ele>649.57</ele>
        <time>2013-06-23T08:41:39Z</time>
      </trkpt>
      <trkpt lat="44.48172" lon="2.77306">
        <ele>651.21</ele>
        <time>2013-06-23T08:41:47Z</time>
      </trkpt>
      <trkpt lat="44.48183" lon="2.77335">
        <ele>652.199</ele>
        <time>2013-06-23T08:41:57Z</time>
      </trkpt>
      <trkpt lat="44.48191" lon="2.77371">
        <ele>653.539</ele>
        <time>2013-06-23T08:42:08Z</time>
      </trkpt>
      <trkpt lat="44.48195" lon="2.77405">
        <ele>653.878</ele>
        <time>2013-06-23T08:42:17Z</time>
      </trkpt>
      <trkpt lat="44.48196" lon="2.77434">
        <ele>653.439</ele>
        <time>2013-06-23T08:42:24Z</time>
      </trkpt>
      <trkpt lat="44.48197" lon="2.77474">
        <ele>653.089</ele>
        <time>2013-06-23T08:42:33Z</time>
      </trkpt>
      <trkpt lat="44.48203" lon="2.77505">
        <ele>652.969</ele>
        <time>2013-06-23T08:42:40Z</time>
      </trkpt>
      <trkpt lat="44.48213" lon="2.77542">
        <ele>653.88</ele>
        <time>2013-06-23T08:42:48Z</time>
      </trkpt>
      <trkpt lat="44.4822" lon="2.77561">
        <ele>655.991</ele>
        <time>2013-06-23T08:42:55Z</time>
      </trkpt>
      <trkpt lat="44.4822" lon="2.77561">
        <ele>657.8</ele>
        <time>2013-06-23T08:43:00Z</time>
      </trkpt>
      <trkpt lat="44.48242" lon="2.77607">
        <ele>660.43</ele>
        <time>2013-06-23T08:43:08Z</time>
      </trkpt>
      <trkpt lat="44.48256" lon="2.77624">
        <ele>662.7</ele>
        <time>2013-06-23T08:43:15Z</time>
      </trkpt>
      <trkpt lat="44.48273" lon="2.77651">
        <ele>665.081</ele>
        <time>2013-06-23T08:43:24Z</time>
      </trkpt>
      <trkpt lat="44.4829" lon="2.77679">
        <ele>667.801</ele>
        <time>2013-06-23T08:43:34Z</time>
      </trkpt>
      <trkpt lat="44.48302" lon="2.777">
        <ele>669.971</ele>
        <time>2013-06-23T08:43:42Z</time>
      </trkpt>
      <trkpt lat="44.48316" lon="2.7771">
        <ele>671.671</ele>
        <time>2013-06-23T08:43:49Z</time>
      </trkpt>
      <trkpt lat="44.48332" lon="2.77712">
        <ele>673.621</ele>
        <time>2013-06-23T08:43:56Z</time>
      </trkpt>
      <trkpt lat="44.48347" lon="2.77708">
        <ele>674.731</ele>
        <time>2013-06-23T08:44:02Z</time>
      </trkpt>
      <trkpt lat="44.48372" lon="2.77705">
        <ele>676.361</ele>
        <time>2013-06-23T08:44:11Z</time>
      </trkpt>
      <trkpt lat="44.48391" lon="2.77704">
        <ele>677.521</ele>
        <time>2013-06-23T08:44:18Z</time>
      </trkpt>
      <trkpt lat="44.48422" lon="2.77702">
        <ele>678.02</ele>
        <time>2013-06-23T08:44:28Z</time>
      </trkpt>
      <trkpt lat="44.48461" lon="2.77701">
        <ele>677.85</ele>
        <time>2013-06-23T08:44:38Z</time>
      </trkpt>
      <trkpt lat="44.48487" lon="2.77716">
        <ele>677.04</ele>
        <time>2013-06-23T08:44:44Z</time>
      </trkpt>
      <trkpt lat="44.48516" lon="2.77758">
        <ele>675.36</ele>
        <time>2013-06-23T08:44:52Z</time>
      </trkpt>
      <trkpt lat="44.48544" lon="2.77799">
        <ele>675.281</ele>
        <time>2013-06-23T08:45:00Z</time>
      </trkpt>
      <trkpt lat="44.48566" lon="2.77828">
        <ele>675.651</ele>
        <time>2013-06-23T08:45:07Z</time>
      </trkpt>
      <trkpt lat="44.48589" lon="2.77852">
        <ele>675.661</ele>
        <time>2013-06-23T08:45:15Z</time>
      </trkpt>
      <trkpt lat="44.48607" lon="2.77857">
        <ele>677.612</ele>
        <time>2013-06-23T08:45:23Z</time>
      </trkpt>
      <trkpt lat="44.48634" lon="2.77907">
        <ele>679.463</ele>
        <time>2013-06-23T08:45:32Z</time>
      </trkpt>
      <trkpt lat="44.4865" lon="2.77929">
        <ele>681.242</ele>
        <time>2013-06-23T08:45:40Z</time>
      </trkpt>
      <trkpt lat="44.48665" lon="2.7795">
        <ele>682.792</ele>
        <time>2013-06-23T08:45:48Z</time>
      </trkpt>
      <trkpt lat="44.48679" lon="2.77968">
        <ele>684.042</ele>
        <time>2013-06-23T08:45:56Z</time>
      </trkpt>
      <trkpt lat="44.48691" lon="2.77983">
        <ele>685.402</ele>
        <time>2013-06-23T08:46:03Z</time>
      </trkpt>
      <trkpt lat="44.48706" lon="2.78002">
        <ele>686.682</ele>
        <time>2013-06-23T08:46:12Z</time>
      </trkpt>
      <trkpt lat="44.48727" lon="2.7802">
        <ele>687.532</ele>
        <time>2013-06-23T08:46:22Z</time>
      </trkpt>
      <trkpt lat="44.48742" lon="2.78031">
        <ele>687.622</ele>
        <time>2013-06-23T08:46:29Z</time>
      </trkpt>
      <trkpt lat="44.48753" lon="2.78037">
        <ele>688.982</ele>
        <time>2013-06-23T08:46:35Z</time>
      </trkpt>
      <trkpt lat="44.48765" lon="2.78043">
        <ele>689.473</ele>
        <time>2013-06-23T08:46:42Z</time>
      </trkpt>
      <trkpt lat="44.48779" lon="2.78048">
        <ele>692.193</ele>
        <time>2013-06-23T08:46:50Z</time>
      </trkpt>
      <trkpt lat="44.48789" lon="2.78052">
        <ele>693.403</ele>
        <time>2013-06-23T08:46:56Z</time>
      </trkpt>
      <trkpt lat="44.48802" lon="2.78056">
        <ele>695.643</ele>
        <time>2013-06-23T08:47:03Z</time>
      </trkpt>
      <trkpt lat="44.48811" lon="2.78059">
        <ele>697.475</ele>
        <time>2013-06-23T08:47:08Z</time>
      </trkpt>
      <trkpt lat="44.48819" lon="2.78062">
        <ele>699.583</ele>
        <time>2013-06-23T08:47:14Z</time>
      </trkpt>
      <trkpt lat="44.48837" lon="2.78069">
        <ele>700.083</ele>
        <time>2013-06-23T08:47:24Z</time>
      </trkpt>
      <trkpt lat="44.48851" lon="2.78074">
        <ele>701.914</ele>
        <time>2013-06-23T08:47:32Z</time>
      </trkpt>
      <trkpt lat="44.48865" lon="2.78079">
        <ele>703.194</ele>
        <time>2013-06-23T08:47:40Z</time>
      </trkpt>
      <trkpt lat="44.48878" lon="2.78084">
        <ele>704.474</ele>
        <time>2013-06-23T08:47:48Z</time>
      </trkpt>
      <trkpt lat="44.48891" lon="2.78089">
        <ele>705.423</ele>
        <time>2013-06-23T08:47:57Z</time>
      </trkpt>
      <trkpt lat="44.48906" lon="2.78095">
        <ele>705.883</ele>
        <time>2013-06-23T08:48:07Z</time>
      </trkpt>
      <trkpt lat="44.48921" lon="2.78102">
        <ele>707.243</ele>
        <time>2013-06-23T08:48:16Z</time>
      </trkpt>
      <trkpt lat="44.48939" lon="2.78112">
        <ele>709.253</ele>
        <time>2013-06-23T08:48:27Z</time>
      </trkpt>
      <trkpt lat="44.48955" lon="2.78121">
        <ele>710.864</ele>
        <time>2013-06-23T08:48:37Z</time>
      </trkpt>
      <trkpt lat="44.48968" lon="2.78129">
        <ele>711.884</ele>
        <time>2013-06-23T08:48:45Z</time>
      </trkpt>
      <trkpt lat="44.48976" lon="2.7814">
        <ele>711.484</ele>
        <time>2013-06-23T08:48:52Z</time>
      </trkpt>
      <trkpt lat="44.48985" lon="2.78161">
        <ele>713.055</ele>
        <time>2013-06-23T08:49:01Z</time>
      </trkpt>
      <trkpt lat="44.48986" lon="2.78183">
        <ele>714.604</ele>
        <time>2013-06-23T08:49:09Z</time>
      </trkpt>
      <trkpt lat="44.48979" lon="2.78204">
        <ele>716.404</ele>
        <time>2013-06-23T08:49:17Z</time>
      </trkpt>
      <trkpt lat="44.48963" lon="2.78222">
        <ele>719.124</ele>
        <time>2013-06-23T08:49:27Z</time>
      </trkpt>
      <trkpt lat="44.48951" lon="2.78238">
        <ele>721.054</ele>
        <time>2013-06-23T08:49:36Z</time>
      </trkpt>
      <trkpt lat="44.48941" lon="2.78253">
        <ele>722.825</ele>
        <time>2013-06-23T08:49:44Z</time>
      </trkpt>
      <trkpt lat="44.48935" lon="2.78271">
        <ele>724.765</ele>
        <time>2013-06-23T08:49:51Z</time>
      </trkpt>
      <trkpt lat="44.48929" lon="2.78291">
        <ele>726.915</ele>
        <time>2013-06-23T08:49:59Z</time>
      </trkpt>
      <trkpt lat="44.48931" lon="2.78314">
        <ele>728.834</ele>
        <time>2013-06-23T08:50:08Z</time>
      </trkpt>
      <trkpt lat="44.48937" lon="2.78326">
        <ele>730.375</ele>
        <time>2013-06-23T08:50:14Z</time>
      </trkpt>
      <trkpt lat="44.48947" lon="2.78338">
        <ele>732.265</ele>
        <time>2013-06-23T08:50:21Z</time>
      </trkpt>
      <trkpt lat="44.48959" lon="2.78351">
        <ele>734.325</ele>
        <time>2013-06-23T08:50:29Z</time>
      </trkpt>
      <trkpt lat="44.48971" lon="2.78369">
        <ele>734.894</ele>
        <time>2013-06-23T08:50:38Z</time>
      </trkpt>
      <trkpt lat="44.48982" lon="2.78385">
        <ele>734.484</ele>
        <time>2013-06-23T08:50:45Z</time>
      </trkpt>
      <trkpt lat="44.48995" lon="2.78409">
        <ele>735.334</ele>
        <time>2013-06-23T08:50:54Z</time>
      </trkpt>
      <trkpt lat="44.49004" lon="2.78426">
        <ele>736.854</ele>
        <time>2013-06-23T08:51:02Z</time>
      </trkpt>
      <trkpt lat="44.49012" lon="2.78447">
        <ele>737.762</ele>
        <time>2013-06-23T08:51:10Z</time>
      </trkpt>
      <trkpt lat="44.49015" lon="2.78461">
        <ele>735.782</ele>
        <time>2013-06-23T08:51:16Z</time>
      </trkpt>
      <trkpt lat="44.49016" lon="2.78466">
        <ele>736.54</ele>
        <time>2013-06-23T08:51:21Z</time>
      </trkpt>
      <trkpt lat="44.49018" lon="2.7848">
        <ele>736.274</ele>
        <time>2013-06-23T08:51:27Z</time>
      </trkpt>
      <trkpt lat="44.49019" lon="2.78506">
        <ele>737.644</ele>
        <time>2013-06-23T08:51:38Z</time>
      </trkpt>
      <trkpt lat="44.49017" lon="2.78524">
        <ele>738.004</ele>
        <time>2013-06-23T08:51:45Z</time>
      </trkpt>
      <trkpt lat="44.49015" lon="2.78553">
        <ele>738.654</ele>
        <time>2013-06-23T08:51:53Z</time>
      </trkpt>
      <trkpt lat="44.49017" lon="2.78588">
        <ele>738.435</ele>
        <time>2013-06-23T08:52:02Z</time>
      </trkpt>
      <trkpt lat="44.4902" lon="2.78614">
        <ele>739.125</ele>
        <time>2013-06-23T08:52:10Z</time>
      </trkpt>
      <trkpt lat="44.49027" lon="2.7864">
        <ele>739.716</ele>
        <time>2013-06-23T08:52:18Z</time>
      </trkpt>
      <trkpt lat="44.49034" lon="2.78668">
        <ele>740.67</ele>
        <time>2013-06-23T08:52:27Z</time>
      </trkpt>
      <trkpt lat="44.49041" lon="2.78701">
        <ele>742.047</ele>
        <time>2013-06-23T08:52:37Z</time>
      </trkpt>
      <trkpt lat="44.49044" lon="2.7873">
        <ele>743.626</ele>
        <time>2013-06-23T08:52:45Z</time>
      </trkpt>
      <trkpt lat="44.49045" lon="2.78754">
        <ele>745.226</ele>
        <time>2013-06-23T08:52:52Z</time>
      </trkpt>
      <trkpt lat="44.49045" lon="2.7878">
        <ele>746.617</ele>
        <time>2013-06-23T08:53:00Z</time>
      </trkpt>
      <trkpt lat="44.49044" lon="2.78807">
        <ele>746.255</ele>
        <time>2013-06-23T08:53:08Z</time>
      </trkpt>
      <trkpt lat="44.49041" lon="2.78839">
        <ele>746.716</ele>
        <time>2013-06-23T08:53:17Z</time>
      </trkpt>
      <trkpt lat="44.49039" lon="2.78867">
        <ele>747.786</ele>
        <time>2013-06-23T08:53:26Z</time>
      </trkpt>
      <trkpt lat="44.49036" lon="2.78897">
        <ele>749.106</ele>
        <time>2013-06-23T08:53:36Z</time>
      </trkpt>
      <trkpt lat="44.49032" lon="2.78931">
        <ele>751.207</ele>
        <time>2013-06-23T08:53:48Z</time>
      </trkpt>
      <trkpt lat="44.49028" lon="2.78957">
        <ele>752.917</ele>
        <time>2013-06-23T08:53:57Z</time>
      </trkpt>
      <trkpt lat="44.49024" lon="2.78977">
        <ele>754.607</ele>
        <time>2013-06-23T08:54:04Z</time>
      </trkpt>
      <trkpt lat="44.49017" lon="2.79003">
        <ele>756.838</ele>
        <time>2013-06-23T08:54:14Z</time>
      </trkpt>
      <trkpt lat="44.49012" lon="2.79023">
        <ele>758.957</ele>
        <time>2013-06-23T08:54:22Z</time>
      </trkpt>
      <trkpt lat="44.49005" lon="2.79045">
        <ele>760.448</ele>
        <time>2013-06-23T08:54:31Z</time>
      </trkpt>
      <trkpt lat="44.49" lon="2.79065">
        <ele>762.978</ele>
        <time>2013-06-23T08:54:40Z</time>
      </trkpt>
      <trkpt lat="44.48996" lon="2.79084">
        <ele>764.838</ele>
        <time>2013-06-23T08:54:48Z</time>
      </trkpt>
      <trkpt lat="44.4899" lon="2.79107">
        <ele>766.677</ele>
        <time>2013-06-23T08:54:58Z</time>
      </trkpt>
      <trkpt lat="44.48987" lon="2.79123">
        <ele>767.637</ele>
        <time>2013-06-23T08:55:05Z</time>
      </trkpt>
      <trkpt lat="44.48982" lon="2.79142">
        <ele>770.317</ele>
        <time>2013-06-23T08:55:14Z</time>
      </trkpt>
      <trkpt lat="44.48982" lon="2.79147">
        <ele>770.397</ele>
        <time>2013-06-23T08:55:16Z</time>
      </trkpt>
      <trkpt lat="44.48977" lon="2.79143">
        <ele>771.717</ele>
        <time>2013-06-23T08:55:20Z</time>
      </trkpt>
      <trkpt lat="44.48966" lon="2.79143">
        <ele>773.096</ele>
        <time>2013-06-23T08:55:26Z</time>
      </trkpt>
      <trkpt lat="44.48954" lon="2.79151">
        <ele>774.446</ele>
        <time>2013-06-23T08:55:33Z</time>
      </trkpt>
      <trkpt lat="44.48946" lon="2.7916">
        <ele>775.345</ele>
        <time>2013-06-23T08:55:39Z</time>
      </trkpt>
      <trkpt lat="44.48944" lon="2.79164">
        <ele>775.475</ele>
        <time>2013-06-23T08:55:46Z</time>
      </trkpt>
      <trkpt lat="44.48944" lon="2.79164">
        <ele>776.055</ele>
        <time>2013-06-23T08:55:49Z</time>
      </trkpt>
      <trkpt lat="44.48928" lon="2.79167">
        <ele>776.546</ele>
        <time>2013-06-23T08:55:53Z</time>
      </trkpt>
      <trkpt lat="44.48916" lon="2.7917">
        <ele>778.437</ele>
        <time>2013-06-23T08:56:01Z</time>
      </trkpt>
      <trkpt lat="44.48906" lon="2.79175">
        <ele>779.296</ele>
        <time>2013-06-23T08:56:09Z</time>
      </trkpt>
      <trkpt lat="44.48901" lon="2.79177">
        <ele>779.867</ele>
        <time>2013-06-23T08:56:13Z</time>
      </trkpt>
      <trkpt lat="44.48896" lon="2.79179">
        <ele>780.416</ele>
        <time>2013-06-23T08:56:18Z</time>
      </trkpt>
      <trkpt lat="44.48892" lon="2.79181">
        <ele>780.877</ele>
        <time>2013-06-23T08:56:22Z</time>
      </trkpt>
      <trkpt lat="44.48883" lon="2.79184">
        <ele>784.166</ele>
        <time>2013-06-23T08:56:30Z</time>
      </trkpt>
      <trkpt lat="44.48874" lon="2.79186">
        <ele>786.916</ele>
        <time>2013-06-23T08:56:38Z</time>
      </trkpt>
      <trkpt lat="44.4887" lon="2.79186">
        <ele>787.438</ele>
        <time>2013-06-23T08:56:41Z</time>
      </trkpt>
      <trkpt lat="44.48864" lon="2.79186">
        <ele>788.239</ele>
        <time>2013-06-23T08:56:45Z</time>
      </trkpt>
      <trkpt lat="44.48852" lon="2.79185">
        <ele>791.739</ele>
        <time>2013-06-23T08:56:54Z</time>
      </trkpt>
      <trkpt lat="44.48844" lon="2.79185">
        <ele>793.839</ele>
        <time>2013-06-23T08:57:01Z</time>
      </trkpt>
      <trkpt lat="44.48839" lon="2.79184">
        <ele>795.228</ele>
        <time>2013-06-23T08:57:06Z</time>
      </trkpt>
      <trkpt lat="44.48824" lon="2.79184">
        <ele>796.278</ele>
        <time>2013-06-23T08:57:15Z</time>
      </trkpt>
      <trkpt lat="44.48804" lon="2.79184">
        <ele>796.941</ele>
        <time>2013-06-23T08:57:23Z</time>
      </trkpt>
      <trkpt lat="44.48788" lon="2.79184">
        <ele>798.82</ele>
        <time>2013-06-23T08:57:30Z</time>
      </trkpt>
      <trkpt lat="44.48776" lon="2.79184">
        <ele>800.627</ele>
        <time>2013-06-23T08:57:36Z</time>
      </trkpt>
      <trkpt lat="44.48762" lon="2.79184">
        <ele>799.665</ele>
        <time>2013-06-23T08:57:42Z</time>
      </trkpt>
      <trkpt lat="44.48748" lon="2.79184">
        <ele>800.275</ele>
        <time>2013-06-23T08:57:49Z</time>
      </trkpt>
      <trkpt lat="44.4873" lon="2.79189">
        <ele>801.928</ele>
        <time>2013-06-23T08:57:56Z</time>
      </trkpt>
      <trkpt lat="44.48729" lon="2.79229">
        <ele>803.217</ele>
        <time>2013-06-23T08:58:04Z</time>
      </trkpt>
      <trkpt lat="44.48727" lon="2.79249">
        <ele>804.706</ele>
        <time>2013-06-23T08:58:12Z</time>
      </trkpt>
      <trkpt lat="44.48724" lon="2.79265">
        <ele>805.838</ele>
        <time>2013-06-23T08:58:19Z</time>
      </trkpt>
      <trkpt lat="44.48723" lon="2.7928">
        <ele>808.62</ele>
        <time>2013-06-23T08:58:26Z</time>
      </trkpt>
      <trkpt lat="44.48723" lon="2.79293">
        <ele>809.037</ele>
        <time>2013-06-23T08:58:32Z</time>
      </trkpt>
      <trkpt lat="44.48725" lon="2.79311">
        <ele>811.148</ele>
        <time>2013-06-23T08:58:39Z</time>
      </trkpt>
      <trkpt lat="44.48721" lon="2.79329">
        <ele>812.147</ele>
        <time>2013-06-23T08:58:47Z</time>
      </trkpt>
      <trkpt lat="44.48712" lon="2.79342">
        <ele>812.506</ele>
        <time>2013-06-23T08:58:54Z</time>
      </trkpt>
      <trkpt lat="44.48702" lon="2.79357">
        <ele>812.705</ele>
        <time>2013-06-23T08:59:00Z</time>
      </trkpt>
      <trkpt lat="44.48688" lon="2.7937">
        <ele>812.924</ele>
        <time>2013-06-23T08:59:07Z</time>
      </trkpt>
      <trkpt lat="44.48686" lon="2.79388">
        <ele>813.096</ele>
        <time>2013-06-23T08:59:13Z</time>
      </trkpt>
      <trkpt lat="44.48685" lon="2.79392">
        <ele>812.644</ele>
        <time>2013-06-23T08:59:17Z</time>
      </trkpt>
      <trkpt lat="44.48685" lon="2.79393">
        <ele>812.225</ele>
        <time>2013-06-23T08:59:49Z</time>
      </trkpt>
      <trkpt lat="44.48682" lon="2.79412">
        <ele>810.814</ele>
        <time>2013-06-23T08:59:54Z</time>
      </trkpt>
      <trkpt lat="44.48677" lon="2.79433">
        <ele>810.805</ele>
        <time>2013-06-23T08:59:59Z</time>
      </trkpt>
      <trkpt lat="44.48671" lon="2.79457">
        <ele>811.937</ele>
        <time>2013-06-23T09:00:04Z</time>
      </trkpt>
      <trkpt lat="44.48663" lon="2.79485">
        <ele>811.175</ele>
        <time>2013-06-23T09:00:09Z</time>
      </trkpt>
      <trkpt lat="44.48657" lon="2.79516">
        <ele>809.545</ele>
        <time>2013-06-23T09:00:14Z</time>
      </trkpt>
      <trkpt lat="44.48658" lon="2.79569">
        <ele>808.035</ele>
        <time>2013-06-23T09:00:21Z</time>
      </trkpt>
      <trkpt lat="44.48658" lon="2.79576">
        <ele>808.205</ele>
        <time>2013-06-23T09:00:22Z</time>
      </trkpt>
      <trkpt lat="44.48663" lon="2.79631">
        <ele>808.786</ele>
        <time>2013-06-23T09:00:30Z</time>
      </trkpt>
      <trkpt lat="44.48667" lon="2.79663">
        <ele>808.304</ele>
        <time>2013-06-23T09:00:35Z</time>
      </trkpt>
      <trkpt lat="44.48666" lon="2.79706">
        <ele>808.074</ele>
        <time>2013-06-23T09:00:42Z</time>
      </trkpt>
      <trkpt lat="44.48665" lon="2.79711">
        <ele>807.844</ele>
        <time>2013-06-23T09:00:43Z</time>
      </trkpt>
      <trkpt lat="44.48664" lon="2.79739">
        <ele>807.034</ele>
        <time>2013-06-23T09:00:48Z</time>
      </trkpt>
      <trkpt lat="44.48665" lon="2.79748">
        <ele>806.524</ele>
        <time>2013-06-23T09:00:50Z</time>
      </trkpt>
      <trkpt lat="44.48666" lon="2.79762">
        <ele>806.144</ele>
        <time>2013-06-23T09:00:54Z</time>
      </trkpt>
      <trkpt lat="44.48669" lon="2.79776">
        <ele>805.484</ele>
        <time>2013-06-23T09:00:58Z</time>
      </trkpt>
      <trkpt lat="44.48672" lon="2.79796">
        <ele>804.453</ele>
        <time>2013-06-23T09:01:03Z</time>
      </trkpt>
      <trkpt lat="44.48673" lon="2.7982">
        <ele>803.963</ele>
        <time>2013-06-23T09:01:07Z</time>
      </trkpt>
      <trkpt lat="44.48676" lon="2.79831">
        <ele>804.033</ele>
        <time>2013-06-23T09:01:09Z</time>
      </trkpt>
      <trkpt lat="44.48683" lon="2.79854">
        <ele>804.155</ele>
        <time>2013-06-23T09:01:13Z</time>
      </trkpt>
      <trkpt lat="44.48688" lon="2.79872">
        <ele>800.871</ele>
        <time>2013-06-23T09:01:17Z</time>
      </trkpt>
      <trkpt lat="44.48688" lon="2.79872">
        <ele>799.151</ele>
        <time>2013-06-23T09:01:21Z</time>
      </trkpt>
      <trkpt lat="44.48706" lon="2.79941">
        <ele>796.542</ele>
        <time>2013-06-23T09:01:27Z</time>
      </trkpt>
      <trkpt lat="44.48706" lon="2.79964">
        <ele>795.124</ele>
        <time>2013-06-23T09:01:32Z</time>
      </trkpt>
      <trkpt lat="44.48702" lon="2.79985">
        <ele>793.444</ele>
        <time>2013-06-23T09:01:36Z</time>
      </trkpt>
      <trkpt lat="44.487" lon="2.7999">
        <ele>793.715</ele>
        <time>2013-06-23T09:01:37Z</time>
      </trkpt>
      <trkpt lat="44.48684" lon="2.80023">
        <ele>796.427</ele>
        <time>2013-06-23T09:01:43Z</time>
      </trkpt>
      <trkpt lat="44.48681" lon="2.8003">
        <ele>798.521</ele>
        <time>2013-06-23T09:01:46Z</time>
      </trkpt>
      <trkpt lat="44.48681" lon="2.8003">
        <ele>802.025</ele>
        <time>2013-06-23T09:02:10Z</time>
      </trkpt>
      <trkpt lat="44.48679" lon="2.80038">
        <ele>800.915</ele>
        <time>2013-06-23T09:02:15Z</time>
      </trkpt>
      <trkpt lat="44.48678" lon="2.80041">
        <ele>800.866</ele>
        <time>2013-06-23T09:02:16Z</time>
      </trkpt>
      <trkpt lat="44.48681" lon="2.8007">
        <ele>801.126</ele>
        <time>2013-06-23T09:02:23Z</time>
      </trkpt>
      <trkpt lat="44.4869" lon="2.80095">
        <ele>798.205</ele>
        <time>2013-06-23T09:02:28Z</time>
      </trkpt>
      <trkpt lat="44.48698" lon="2.80113">
        <ele>795.645</ele>
        <time>2013-06-23T09:02:33Z</time>
      </trkpt>
      <trkpt lat="44.48706" lon="2.80134">
        <ele>793.655</ele>
        <time>2013-06-23T09:02:38Z</time>
      </trkpt>
      <trkpt lat="44.48707" lon="2.80153">
        <ele>795.736</ele>
        <time>2013-06-23T09:02:42Z</time>
      </trkpt>
      <trkpt lat="44.48703" lon="2.80169">
        <ele>798.877</ele>
        <time>2013-06-23T09:02:47Z</time>
      </trkpt>
      <trkpt lat="44.4871" lon="2.80194">
        <ele>799.737</ele>
        <time>2013-06-23T09:02:53Z</time>
      </trkpt>
      <trkpt lat="44.48716" lon="2.80207">
        <ele>800.337</ele>
        <time>2013-06-23T09:02:57Z</time>
      </trkpt>
      <trkpt lat="44.48722" lon="2.80221">
        <ele>802.097</ele>
        <time>2013-06-23T09:03:01Z</time>
      </trkpt>
      <trkpt lat="44.48723" lon="2.80223">
        <ele>802.597</ele>
        <time>2013-06-23T09:03:02Z</time>
      </trkpt>
      <trkpt lat="44.48729" lon="2.80232">
        <ele>803.577</ele>
        <time>2013-06-23T09:03:06Z</time>
      </trkpt>
      <trkpt lat="44.4874" lon="2.80243">
        <ele>804.507</ele>
        <time>2013-06-23T09:03:12Z</time>
      </trkpt>
      <trkpt lat="44.48746" lon="2.80249">
        <ele>805.726</ele>
        <time>2013-06-23T09:03:17Z</time>
      </trkpt>
      <trkpt lat="44.48746" lon="2.80249">
        <ele>806.978</ele>
        <time>2013-06-23T09:03:20Z</time>
      </trkpt>
      <trkpt lat="44.48754" lon="2.80255">
        <ele>806.547</ele>
        <time>2013-06-23T09:03:26Z</time>
      </trkpt>
      <trkpt lat="44.48762" lon="2.8026">
        <ele>808.006</ele>
        <time>2013-06-23T09:03:32Z</time>
      </trkpt>
      <trkpt lat="44.48774" lon="2.80269">
        <ele>809.146</ele>
        <time>2013-06-23T09:03:37Z</time>
      </trkpt>
      <trkpt lat="44.48788" lon="2.80278">
        <ele>808.747</ele>
        <time>2013-06-23T09:03:42Z</time>
      </trkpt>
      <trkpt lat="44.48801" lon="2.80286">
        <ele>807.726</ele>
        <time>2013-06-23T09:03:47Z</time>
      </trkpt>
      <trkpt lat="44.48807" lon="2.80289">
        <ele>807.646</ele>
        <time>2013-06-23T09:03:50Z</time>
      </trkpt>
      <trkpt lat="44.4882" lon="2.80309">
        <ele>807.546</ele>
        <time>2013-06-23T09:03:55Z</time>
      </trkpt>
      <trkpt lat="44.48829" lon="2.80326">
        <ele>808.426</ele>
        <time>2013-06-23T09:04:00Z</time>
      </trkpt>
      <trkpt lat="44.4884" lon="2.80344">
        <ele>808.526</ele>
        <time>2013-06-23T09:04:04Z</time>
      </trkpt>
      <trkpt lat="44.48846" lon="2.80353">
        <ele>808.997</ele>
        <time>2013-06-23T09:04:06Z</time>
      </trkpt>
      <trkpt lat="44.48856" lon="2.80371">
        <ele>807.456</ele>
        <time>2013-06-23T09:04:10Z</time>
      </trkpt>
      <trkpt lat="44.48864" lon="2.80401">
        <ele>802.945</ele>
        <time>2013-06-23T09:04:16Z</time>
      </trkpt>
      <trkpt lat="44.48864" lon="2.80418">
        <ele>800.134</ele>
        <time>2013-06-23T09:04:21Z</time>
      </trkpt>
      <trkpt lat="44.48864" lon="2.80436">
        <ele>798.503</ele>
        <time>2013-06-23T09:04:25Z</time>
      </trkpt>
      <trkpt lat="44.48863" lon="2.8046">
        <ele>797.294</ele>
        <time>2013-06-23T09:04:30Z</time>
      </trkpt>
      <trkpt lat="44.48863" lon="2.805">
        <ele>795.365</ele>
        <time>2013-06-23T09:04:36Z</time>
      </trkpt>
      <trkpt lat="44.4888" lon="2.80529">
        <ele>797.377</ele>
        <time>2013-06-23T09:04:41Z</time>
      </trkpt>
      <trkpt lat="44.48893" lon="2.80549">
        <ele>797.498</ele>
        <time>2013-06-23T09:04:46Z</time>
      </trkpt>
      <trkpt lat="44.489" lon="2.80563">
        <ele>797.357</ele>
        <time>2013-06-23T09:04:50Z</time>
      </trkpt>
      <trkpt lat="44.489" lon="2.80563">
        <ele>798.087</ele>
        <time>2013-06-23T09:04:57Z</time>
      </trkpt>
      <trkpt lat="44.48903" lon="2.80574">
        <ele>801.367</ele>
        <time>2013-06-23T09:06:25Z</time>
      </trkpt>
      <trkpt lat="44.48903" lon="2.80574">
        <ele>800.907</ele>
        <time>2013-06-23T09:06:32Z</time>
      </trkpt>
      <trkpt lat="44.48903" lon="2.80589">
        <ele>800.638</ele>
        <time>2013-06-23T09:06:38Z</time>
      </trkpt>
      <trkpt lat="44.48901" lon="2.80601">
        <ele>801.428</ele>
        <time>2013-06-23T09:06:43Z</time>
      </trkpt>
      <trkpt lat="44.48894" lon="2.80619">
        <ele>802.859</ele>
        <time>2013-06-23T09:06:50Z</time>
      </trkpt>
      <trkpt lat="44.48888" lon="2.80637">
        <ele>805.368</ele>
        <time>2013-06-23T09:06:56Z</time>
      </trkpt>
      <trkpt lat="44.48891" lon="2.80656">
        <ele>805.617</ele>
        <time>2013-06-23T09:07:03Z</time>
      </trkpt>
      <trkpt lat="44.48897" lon="2.80667">
        <ele>805.667</ele>
        <time>2013-06-23T09:07:07Z</time>
      </trkpt>
      <trkpt lat="44.48907" lon="2.80696">
        <ele>805.207</ele>
        <time>2013-06-23T09:07:14Z</time>
      </trkpt>
      <trkpt lat="44.48909" lon="2.80723">
        <ele>804.347</ele>
        <time>2013-06-23T09:07:20Z</time>
      </trkpt>
      <trkpt lat="44.48917" lon="2.80753">
        <ele>804.078</ele>
        <time>2013-06-23T09:07:27Z</time>
      </trkpt>
      <trkpt lat="44.48926" lon="2.80785">
        <ele>804.578</ele>
        <time>2013-06-23T09:07:34Z</time>
      </trkpt>
      <trkpt lat="44.48927" lon="2.80788">
        <ele>804.687</ele>
        <time>2013-06-23T09:07:35Z</time>
      </trkpt>
      <trkpt lat="44.48933" lon="2.80805">
        <ele>804.477</ele>
        <time>2013-06-23T09:07:40Z</time>
      </trkpt>
      <trkpt lat="44.48933" lon="2.80809">
        <ele>804.427</ele>
        <time>2013-06-23T09:07:41Z</time>
      </trkpt>
      <trkpt lat="44.48945" lon="2.80829">
        <ele>805.058</ele>
        <time>2013-06-23T09:07:47Z</time>
      </trkpt>
      <trkpt lat="44.48946" lon="2.80848">
        <ele>804.358</ele>
        <time>2013-06-23T09:07:51Z</time>
      </trkpt>
      <trkpt lat="44.48954" lon="2.80873">
        <ele>803.798</ele>
        <time>2013-06-23T09:07:55Z</time>
      </trkpt>
      <trkpt lat="44.48956" lon="2.8088">
        <ele>803.778</ele>
        <time>2013-06-23T09:07:56Z</time>
      </trkpt>
      <trkpt lat="44.48958" lon="2.80895">
        <ele>803.227</ele>
        <time>2013-06-23T09:07:58Z</time>
      </trkpt>
      <trkpt lat="44.4896" lon="2.80911">
        <ele>802.818</ele>
        <time>2013-06-23T09:08:00Z</time>
      </trkpt>
      <trkpt lat="44.48961" lon="2.80948">
        <ele>799.597</ele>
        <time>2013-06-23T09:08:05Z</time>
      </trkpt>
      <trkpt lat="44.48964" lon="2.80977">
        <ele>796.317</ele>
        <time>2013-06-23T09:08:10Z</time>
      </trkpt>
      <trkpt lat="44.48965" lon="2.81011">
        <ele>792.536</ele>
        <time>2013-06-23T09:08:15Z</time>
      </trkpt>
      <trkpt lat="44.48966" lon="2.81047">
        <ele>791.046</ele>
        <time>2013-06-23T09:08:20Z</time>
      </trkpt>
      <trkpt lat="44.48959" lon="2.81082">
        <ele>790.837</ele>
        <time>2013-06-23T09:08:26Z</time>
      </trkpt>
      <trkpt lat="44.48957" lon="2.81108">
        <ele>789.646</ele>
        <time>2013-06-23T09:08:30Z</time>
      </trkpt>
      <trkpt lat="44.48952" lon="2.81136">
        <ele>787.005</ele>
        <time>2013-06-23T09:08:34Z</time>
      </trkpt>
      <trkpt lat="44.48944" lon="2.81172">
        <ele>785.175</ele>
        <time>2013-06-23T09:08:38Z</time>
      </trkpt>
      <trkpt lat="44.48933" lon="2.81197">
        <ele>784.446</ele>
        <time>2013-06-23T09:08:41Z</time>
      </trkpt>
      <trkpt lat="44.4892" lon="2.81236">
        <ele>783.456</ele>
        <time>2013-06-23T09:08:46Z</time>
      </trkpt>
      <trkpt lat="44.48919" lon="2.81245">
        <ele>783.006</ele>
        <time>2013-06-23T09:08:47Z</time>
      </trkpt>
      <trkpt lat="44.48913" lon="2.8126">
        <ele>781.666</ele>
        <time>2013-06-23T09:08:49Z</time>
      </trkpt>
      <trkpt lat="44.48903" lon="2.8129">
        <ele>779.656</ele>
        <time>2013-06-23T09:08:53Z</time>
      </trkpt>
      <trkpt lat="44.48905" lon="2.81318">
        <ele>778.688</ele>
        <time>2013-06-23T09:08:56Z</time>
      </trkpt>
      <trkpt lat="44.48907" lon="2.8134">
        <ele>778.558</ele>
        <time>2013-06-23T09:08:58Z</time>
      </trkpt>
      <trkpt lat="44.48913" lon="2.8137">
        <ele>778.228</ele>
        <time>2013-06-23T09:09:01Z</time>
      </trkpt>
      <trkpt lat="44.48916" lon="2.81413">
        <ele>778.229</ele>
        <time>2013-06-23T09:09:06Z</time>
      </trkpt>
      <trkpt lat="44.4892" lon="2.81444">
        <ele>778.88</ele>
        <time>2013-06-23T09:09:10Z</time>
      </trkpt>
      <trkpt lat="44.48922" lon="2.81487">
        <ele>780.39</ele>
        <time>2013-06-23T09:09:15Z</time>
      </trkpt>
      <trkpt lat="44.48921" lon="2.81503">
        <ele>780.93</ele>
        <time>2013-06-23T09:09:17Z</time>
      </trkpt>
      <trkpt lat="44.48924" lon="2.81537">
        <ele>781.258</ele>
        <time>2013-06-23T09:09:22Z</time>
      </trkpt>
      <trkpt lat="44.48927" lon="2.81555">
        <ele>779.897</ele>
        <time>2013-06-23T09:09:26Z</time>
      </trkpt>
      <trkpt lat="44.48931" lon="2.81569">
        <ele>778.767</ele>
        <time>2013-06-23T09:09:30Z</time>
      </trkpt>
      <trkpt lat="44.48931" lon="2.81569">
        <ele>778.788</ele>
        <time>2013-06-23T09:09:36Z</time>
      </trkpt>
      <trkpt lat="44.48946" lon="2.81572">
        <ele>776.076</ele>
        <time>2013-06-23T09:09:42Z</time>
      </trkpt>
      <trkpt lat="44.48959" lon="2.81574">
        <ele>774.315</ele>
        <time>2013-06-23T09:09:45Z</time>
      </trkpt>
      <trkpt lat="44.48975" lon="2.8158">
        <ele>770.804</ele>
        <time>2013-06-23T09:09:49Z</time>
      </trkpt>
      <trkpt lat="44.48994" lon="2.81602">
        <ele>766.714</ele>
        <time>2013-06-23T09:09:54Z</time>
      </trkpt>
      <trkpt lat="44.49017" lon="2.8162">
        <ele>762.685</ele>
        <time>2013-06-23T09:10:00Z</time>
      </trkpt>
      <trkpt lat="44.4902" lon="2.81622">
        <ele>762.006</ele>
        <time>2013-06-23T09:10:01Z</time>
      </trkpt>
      <trkpt lat="44.49029" lon="2.81628">
        <ele>759.045</ele>
        <time>2013-06-23T09:10:04Z</time>
      </trkpt>
      <trkpt lat="44.49048" lon="2.81694">
        <ele>752.135</ele>
        <time>2013-06-23T09:10:11Z</time>
      </trkpt>
      <trkpt lat="44.4905" lon="2.81705">
        <ele>751.456</ele>
        <time>2013-06-23T09:10:12Z</time>
      </trkpt>
      <trkpt lat="44.49051" lon="2.81742">
        <ele>749.077</ele>
        <time>2013-06-23T09:10:17Z</time>
      </trkpt>
      <trkpt lat="44.4905" lon="2.81789">
        <ele>744.675</ele>
        <time>2013-06-23T09:10:23Z</time>
      </trkpt>
      <trkpt lat="44.49051" lon="2.81823">
        <ele>741.075</ele>
        <time>2013-06-23T09:10:28Z</time>
      </trkpt>
      <trkpt lat="44.49051" lon="2.81827">
        <ele>740.406</ele>
        <time>2013-06-23T09:10:29Z</time>
      </trkpt>
      <trkpt lat="44.49061" lon="2.81858">
        <ele>734.976</ele>
        <time>2013-06-23T09:10:36Z</time>
      </trkpt>
      <trkpt lat="44.49067" lon="2.81877">
        <ele>732.576</ele>
        <time>2013-06-23T09:10:40Z</time>
      </trkpt>
      <trkpt lat="44.49072" lon="2.81909">
        <ele>728.365</ele>
        <time>2013-06-23T09:10:45Z</time>
      </trkpt>
      <trkpt lat="44.49067" lon="2.81921">
        <ele>727.156</ele>
        <time>2013-06-23T09:10:47Z</time>
      </trkpt>
      <trkpt lat="44.49057" lon="2.81942">
        <ele>724.378</ele>
        <time>2013-06-23T09:10:53Z</time>
      </trkpt>
      <trkpt lat="44.49059" lon="2.81957">
        <ele>722.678</ele>
        <time>2013-06-23T09:10:57Z</time>
      </trkpt>
      <trkpt lat="44.4907" lon="2.81976">
        <ele>720.227</ele>
        <time>2013-06-23T09:11:01Z</time>
      </trkpt>
      <trkpt lat="44.49083" lon="2.81997">
        <ele>716.716</ele>
        <time>2013-06-23T09:11:05Z</time>
      </trkpt>
      <trkpt lat="44.49098" lon="2.82019">
        <ele>713.357</ele>
        <time>2013-06-23T09:11:10Z</time>
      </trkpt>
      <trkpt lat="44.49122" lon="2.82039">
        <ele>711.448</ele>
        <time>2013-06-23T09:11:15Z</time>
      </trkpt>
      <trkpt lat="44.49129" lon="2.82051">
        <ele>709.909</ele>
        <time>2013-06-23T09:11:19Z</time>
      </trkpt>
      <trkpt lat="44.49138" lon="2.82044">
        <ele>708.21</ele>
        <time>2013-06-23T09:11:24Z</time>
      </trkpt>
      <trkpt lat="44.49142" lon="2.82046">
        <ele>706.44</ele>
        <time>2013-06-23T09:11:41Z</time>
      </trkpt>
      <trkpt lat="44.4914" lon="2.82046">
        <ele>705.73</ele>
        <time>2013-06-23T09:11:45Z</time>
      </trkpt>
      <trkpt lat="44.491" lon="2.82027">
        <ele>705.75</ele>
        <time>2013-06-23T09:11:47Z</time>
      </trkpt>
      <trkpt lat="44.49135" lon="2.8206">
        <ele>705.37</ele>
        <time>2013-06-23T09:11:51Z</time>
      </trkpt>
      <trkpt lat="44.49137" lon="2.82064">
        <ele>705.27</ele>
        <time>2013-06-23T09:11:52Z</time>
      </trkpt>
      <trkpt lat="44.49165" lon="2.82109">
        <ele>703.859</ele>
        <time>2013-06-23T09:12:00Z</time>
      </trkpt>
      <trkpt lat="44.49184" lon="2.82136">
        <ele>703.279</ele>
        <time>2013-06-23T09:12:04Z</time>
      </trkpt>
      <trkpt lat="44.49202" lon="2.82165">
        <ele>701.759</ele>
        <time>2013-06-23T09:12:10Z</time>
      </trkpt>
      <trkpt lat="44.49206" lon="2.82177">
        <ele>701.22</ele>
        <time>2013-06-23T09:12:13Z</time>
      </trkpt>
      <trkpt lat="44.4921" lon="2.82188">
        <ele>700.8</ele>
        <time>2013-06-23T09:12:17Z</time>
      </trkpt>
      <trkpt lat="44.4921" lon="2.82188">
        <ele>706.732</ele>
        <time>2013-06-23T09:15:14Z</time>
      </trkpt>
      <trkpt lat="44.4921" lon="2.82188">
        <ele>710.201</ele>
        <time>2013-06-23T09:17:25Z</time>
      </trkpt>
      <trkpt lat="44.49225" lon="2.82198">
        <ele>708.562</ele>
        <time>2013-06-23T09:17:33Z</time>
      </trkpt>
      <trkpt lat="44.49225" lon="2.82198">
        <ele>708.841</ele>
        <time>2013-06-23T09:17:44Z</time>
      </trkpt>
      <trkpt lat="44.49225" lon="2.82198">
        <ele>713.641</ele>
        <time>2013-06-23T09:25:04Z</time>
      </trkpt>
      <trkpt lat="44.49215" lon="2.82191">
        <ele>712.691</ele>
        <time>2013-06-23T09:25:09Z</time>
      </trkpt>
      <trkpt lat="44.49225" lon="2.82199">
        <ele>711.011</ele>
        <time>2013-06-23T09:25:15Z</time>
      </trkpt>
      <trkpt lat="44.49235" lon="2.82206">
        <ele>710.701</ele>
        <time>2013-06-23T09:25:22Z</time>
      </trkpt>
      <trkpt lat="44.49248" lon="2.82215">
        <ele>711.922</ele>
        <time>2013-06-23T09:25:31Z</time>
      </trkpt>
      <trkpt lat="44.4925" lon="2.82222">
        <ele>712.092</ele>
        <time>2013-06-23T09:25:35Z</time>
      </trkpt>
      <trkpt lat="44.49253" lon="2.82228">
        <ele>711.561</ele>
        <time>2013-06-23T09:25:40Z</time>
      </trkpt>
      <trkpt lat="44.49253" lon="2.82245">
        <ele>710.901</ele>
        <time>2013-06-23T09:25:48Z</time>
      </trkpt>
      <trkpt lat="44.49254" lon="2.8225">
        <ele>710.401</ele>
        <time>2013-06-23T09:25:50Z</time>
      </trkpt>
      <trkpt lat="44.49254" lon="2.82263">
        <ele>709.351</ele>
        <time>2013-06-23T09:25:56Z</time>
      </trkpt>
      <trkpt lat="44.49255" lon="2.82277">
        <ele>708.201</ele>
        <time>2013-06-23T09:26:02Z</time>
      </trkpt>
      <trkpt lat="44.49257" lon="2.823">
        <ele>706.41</ele>
        <time>2013-06-23T09:26:08Z</time>
      </trkpt>
      <trkpt lat="44.49265" lon="2.8233">
        <ele>704.119</ele>
        <time>2013-06-23T09:26:14Z</time>
      </trkpt>
      <trkpt lat="44.49267" lon="2.82337">
        <ele>703.619</ele>
        <time>2013-06-23T09:26:15Z</time>
      </trkpt>
      <trkpt lat="44.49282" lon="2.82362">
        <ele>701.479</ele>
        <time>2013-06-23T09:26:19Z</time>
      </trkpt>
      <trkpt lat="44.4931" lon="2.82374">
        <ele>698.899</ele>
        <time>2013-06-23T09:26:23Z</time>
      </trkpt>
      <trkpt lat="44.49331" lon="2.82374">
        <ele>696.038</ele>
        <time>2013-06-23T09:26:26Z</time>
      </trkpt>
      <trkpt lat="44.49359" lon="2.82361">
        <ele>692.138</ele>
        <time>2013-06-23T09:26:30Z</time>
      </trkpt>
      <trkpt lat="44.49364" lon="2.82327">
        <ele>689.928</ele>
        <time>2013-06-23T09:26:33Z</time>
      </trkpt>
      <trkpt lat="44.49359" lon="2.82291">
        <ele>688.028</ele>
        <time>2013-06-23T09:26:36Z</time>
      </trkpt>
      <trkpt lat="44.49333" lon="2.822">
        <ele>682.957</ele>
        <time>2013-06-23T09:26:43Z</time>
      </trkpt>
      <trkpt lat="44.49312" lon="2.82148">
        <ele>679.317</ele>
        <time>2013-06-23T09:26:47Z</time>
      </trkpt>
      <trkpt lat="44.493" lon="2.821">
        <ele>675.237</ele>
        <time>2013-06-23T09:26:51Z</time>
      </trkpt>
      <trkpt lat="44.493" lon="2.8209">
        <ele>674.226</ele>
        <time>2013-06-23T09:26:52Z</time>
      </trkpt>
      <trkpt lat="44.49306" lon="2.82039">
        <ele>669.147</ele>
        <time>2013-06-23T09:26:57Z</time>
      </trkpt>
      <trkpt lat="44.49322" lon="2.81963">
        <ele>664.568</ele>
        <time>2013-06-23T09:27:04Z</time>
      </trkpt>
      <trkpt lat="44.49338" lon="2.81925">
        <ele>661.197</ele>
        <time>2013-06-23T09:27:08Z</time>
      </trkpt>
      <trkpt lat="44.49342" lon="2.81918">
        <ele>660.058</ele>
        <time>2013-06-23T09:27:10Z</time>
      </trkpt>
      <trkpt lat="44.49353" lon="2.81891">
        <ele>657.286</ele>
        <time>2013-06-23T09:27:14Z</time>
      </trkpt>
      <trkpt lat="44.49356" lon="2.81862">
        <ele>653.975</ele>
        <time>2013-06-23T09:27:17Z</time>
      </trkpt>
      <trkpt lat="44.49358" lon="2.81798">
        <ele>648.836</ele>
        <time>2013-06-23T09:27:22Z</time>
      </trkpt>
      <trkpt lat="44.49355" lon="2.81743">
        <ele>644.665</ele>
        <time>2013-06-23T09:27:26Z</time>
      </trkpt>
      <trkpt lat="44.49354" lon="2.8168">
        <ele>640.896</ele>
        <time>2013-06-23T09:27:30Z</time>
      </trkpt>
      <trkpt lat="44.49371" lon="2.81586">
        <ele>634.91</ele>
        <time>2013-06-23T09:27:36Z</time>
      </trkpt>
      <trkpt lat="44.49379" lon="2.81521">
        <ele>630.735</ele>
        <time>2013-06-23T09:27:40Z</time>
      </trkpt>
      <trkpt lat="44.49381" lon="2.81488">
        <ele>628.598</ele>
        <time>2013-06-23T09:27:42Z</time>
      </trkpt>
      <trkpt lat="44.4939" lon="2.8144">
        <ele>625.076</ele>
        <time>2013-06-23T09:27:45Z</time>
      </trkpt>
      <trkpt lat="44.49399" lon="2.81377">
        <ele>621.196</ele>
        <time>2013-06-23T09:27:49Z</time>
      </trkpt>
      <trkpt lat="44.49399" lon="2.81291">
        <ele>614.994</ele>
        <time>2013-06-23T09:27:54Z</time>
      </trkpt>
      <trkpt lat="44.49413" lon="2.81228">
        <ele>611.105</ele>
        <time>2013-06-23T09:27:58Z</time>
      </trkpt>
      <trkpt lat="44.49437" lon="2.81192">
        <ele>607.757</ele>
        <time>2013-06-23T09:28:01Z</time>
      </trkpt>
      <trkpt lat="44.4947" lon="2.81179">
        <ele>605.419</ele>
        <time>2013-06-23T09:28:04Z</time>
      </trkpt>
      <trkpt lat="44.49489" lon="2.81158">
        <ele>603.289</ele>
        <time>2013-06-23T09:28:06Z</time>
      </trkpt>
      <trkpt lat="44.49496" lon="2.81145">
        <ele>602.414</ele>
        <time>2013-06-23T09:28:07Z</time>
      </trkpt>
      <trkpt lat="44.49526" lon="2.81071">
        <ele>597.011</ele>
        <time>2013-06-23T09:28:12Z</time>
      </trkpt>
      <trkpt lat="44.49538" lon="2.81005">
        <ele>591.901</ele>
        <time>2013-06-23T09:28:16Z</time>
      </trkpt>
      <trkpt lat="44.4954" lon="2.8092">
        <ele>584.704</ele>
        <time>2013-06-23T09:28:21Z</time>
      </trkpt>
      <trkpt lat="44.49546" lon="2.80856">
        <ele>581.192</ele>
        <time>2013-06-23T09:28:25Z</time>
      </trkpt>
      <trkpt lat="44.49554" lon="2.80813">
        <ele>576.837</ele>
        <time>2013-06-23T09:28:28Z</time>
      </trkpt>
      <trkpt lat="44.49558" lon="2.80799">
        <ele>574.723</ele>
        <time>2013-06-23T09:28:29Z</time>
      </trkpt>
      <trkpt lat="44.49579" lon="2.80765">
        <ele>570.642</ele>
        <time>2013-06-23T09:28:32Z</time>
      </trkpt>
      <trkpt lat="44.49589" lon="2.80753">
        <ele>569.12</ele>
        <time>2013-06-23T09:28:33Z</time>
      </trkpt>
      <trkpt lat="44.49612" lon="2.80691">
        <ele>564.211</ele>
        <time>2013-06-23T09:28:37Z</time>
      </trkpt>
      <trkpt lat="44.4962" lon="2.8066">
        <ele>562.985</ele>
        <time>2013-06-23T09:28:39Z</time>
      </trkpt>
      <trkpt lat="44.49628" lon="2.80595">
        <ele>559.61</ele>
        <time>2013-06-23T09:28:43Z</time>
      </trkpt>
      <trkpt lat="44.4962" lon="2.80537">
        <ele>556.625</ele>
        <time>2013-06-23T09:28:47Z</time>
      </trkpt>
      <trkpt lat="44.49622" lon="2.80514">
        <ele>555.325</ele>
        <time>2013-06-23T09:28:49Z</time>
      </trkpt>
      <trkpt lat="44.49637" lon="2.8049">
        <ele>554.25</ele>
        <time>2013-06-23T09:28:52Z</time>
      </trkpt>
      <trkpt lat="44.49643" lon="2.80484">
        <ele>552.565</ele>
        <time>2013-06-23T09:28:53Z</time>
      </trkpt>
      <trkpt lat="44.49674" lon="2.80427">
        <ele>544.472</ele>
        <time>2013-06-23T09:28:58Z</time>
      </trkpt>
      <trkpt lat="44.4969" lon="2.8038">
        <ele>541.101</ele>
        <time>2013-06-23T09:29:02Z</time>
      </trkpt>
      <trkpt lat="44.49683" lon="2.80363">
        <ele>541.494</ele>
        <time>2013-06-23T09:29:04Z</time>
      </trkpt>
      <trkpt lat="44.49652" lon="2.80323">
        <ele>540.094</ele>
        <time>2013-06-23T09:29:09Z</time>
      </trkpt>
      <trkpt lat="44.4965" lon="2.80311">
        <ele>539.683</ele>
        <time>2013-06-23T09:29:10Z</time>
      </trkpt>
      <trkpt lat="44.4966" lon="2.80302">
        <ele>540.839</ele>
        <time>2013-06-23T09:29:15Z</time>
      </trkpt>
      <trkpt lat="44.49634" lon="2.80255">
        <ele>542.953</ele>
        <time>2013-06-23T09:29:21Z</time>
      </trkpt>
      <trkpt lat="44.49629" lon="2.80243">
        <ele>544.721</ele>
        <time>2013-06-23T09:29:26Z</time>
      </trkpt>
      <trkpt lat="44.49628" lon="2.80238">
        <ele>550.494</ele>
        <time>2013-06-23T09:29:51Z</time>
      </trkpt>
      <trkpt lat="44.49618" lon="2.80221">
        <ele>551.098</ele>
        <time>2013-06-23T09:29:57Z</time>
      </trkpt>
      <trkpt lat="44.49617" lon="2.8022">
        <ele>551.785</ele>
        <time>2013-06-23T09:30:02Z</time>
      </trkpt>
      <trkpt lat="44.49611" lon="2.80186">
        <ele>552.232</ele>
        <time>2013-06-23T09:30:06Z</time>
      </trkpt>
      <trkpt lat="44.4961" lon="2.80167">
        <ele>552.799</ele>
        <time>2013-06-23T09:30:13Z</time>
      </trkpt>
      <trkpt lat="44.4961" lon="2.80151">
        <ele>553.8</ele>
        <time>2013-06-23T09:30:20Z</time>
      </trkpt>
      <trkpt lat="44.49613" lon="2.80131">
        <ele>554.8</ele>
        <time>2013-06-23T09:30:28Z</time>
      </trkpt>
      <trkpt lat="44.49616" lon="2.80112">
        <ele>555.88</ele>
        <time>2013-06-23T09:30:36Z</time>
      </trkpt>
      <trkpt lat="44.49625" lon="2.80092">
        <ele>557.74</ele>
        <time>2013-06-23T09:30:45Z</time>
      </trkpt>
      <trkpt lat="44.49632" lon="2.8008">
        <ele>557.109</ele>
        <time>2013-06-23T09:30:51Z</time>
      </trkpt>
      <trkpt lat="44.49637" lon="2.80064">
        <ele>555.188</ele>
        <time>2013-06-23T09:30:58Z</time>
      </trkpt>
      <trkpt lat="44.49639" lon="2.80044">
        <ele>557.029</ele>
        <time>2013-06-23T09:31:07Z</time>
      </trkpt>
      <trkpt lat="44.49638" lon="2.80032">
        <ele>556.158</ele>
        <time>2013-06-23T09:31:13Z</time>
      </trkpt>
      <trkpt lat="44.49637" lon="2.80019">
        <ele>555.478</ele>
        <time>2013-06-23T09:31:19Z</time>
      </trkpt>
      <trkpt lat="44.49637" lon="2.80007">
        <ele>554.528</ele>
        <time>2013-06-23T09:31:25Z</time>
      </trkpt>
      <trkpt lat="44.49637" lon="2.8">
        <ele>555.239</ele>
        <time>2013-06-23T09:31:28Z</time>
      </trkpt>
      <trkpt lat="44.49635" lon="2.79984">
        <ele>558.74</ele>
        <time>2013-06-23T09:31:36Z</time>
      </trkpt>
      <trkpt lat="44.49633" lon="2.79974">
        <ele>558.789</ele>
        <time>2013-06-23T09:31:41Z</time>
      </trkpt>
      <trkpt lat="44.49631" lon="2.79964">
        <ele>559.179</ele>
        <time>2013-06-23T09:31:45Z</time>
      </trkpt>
      <trkpt lat="44.49629" lon="2.79957">
        <ele>559.079</ele>
        <time>2013-06-23T09:31:48Z</time>
      </trkpt>
      <trkpt lat="44.49625" lon="2.79937">
        <ele>562.43</ele>
        <time>2013-06-23T09:31:56Z</time>
      </trkpt>
      <trkpt lat="44.4962" lon="2.79919">
        <ele>565.24</ele>
        <time>2013-06-23T09:32:03Z</time>
      </trkpt>
      <trkpt lat="44.49615" lon="2.79901">
        <ele>565.87</ele>
        <time>2013-06-23T09:32:09Z</time>
      </trkpt>
      <trkpt lat="44.49609" lon="2.79883">
        <ele>565.458</ele>
        <time>2013-06-23T09:32:16Z</time>
      </trkpt>
      <trkpt lat="44.49603" lon="2.79869">
        <ele>564.668</ele>
        <time>2013-06-23T09:32:21Z</time>
      </trkpt>
      <trkpt lat="44.49597" lon="2.7985">
        <ele>564.907</ele>
        <time>2013-06-23T09:32:27Z</time>
      </trkpt>
      <trkpt lat="44.49592" lon="2.79835">
        <ele>564.427</ele>
        <time>2013-06-23T09:32:32Z</time>
      </trkpt>
      <trkpt lat="44.49619" lon="2.79799">
        <ele>564.908</ele>
        <time>2013-06-23T09:32:37Z</time>
      </trkpt>
      <trkpt lat="44.49639" lon="2.79775">
        <ele>562.666</ele>
        <time>2013-06-23T09:32:42Z</time>
      </trkpt>
      <trkpt lat="44.49656" lon="2.79746">
        <ele>560.416</ele>
        <time>2013-06-23T09:32:46Z</time>
      </trkpt>
      <trkpt lat="44.49662" lon="2.79726">
        <ele>560.457</ele>
        <time>2013-06-23T09:32:48Z</time>
      </trkpt>
      <trkpt lat="44.49679" lon="2.79661">
        <ele>559.007</ele>
        <time>2013-06-23T09:32:54Z</time>
      </trkpt>
      <trkpt lat="44.49682" lon="2.79637">
        <ele>557.956</ele>
        <time>2013-06-23T09:32:56Z</time>
      </trkpt>
      <trkpt lat="44.4969" lon="2.79577">
        <ele>554.025</ele>
        <time>2013-06-23T09:33:01Z</time>
      </trkpt>
      <trkpt lat="44.49693" lon="2.79531">
        <ele>548.613</ele>
        <time>2013-06-23T09:33:05Z</time>
      </trkpt>
      <trkpt lat="44.49682" lon="2.79482">
        <ele>543.832</ele>
        <time>2013-06-23T09:33:09Z</time>
      </trkpt>
      <trkpt lat="44.49682" lon="2.79465">
        <ele>539.722</ele>
        <time>2013-06-23T09:33:13Z</time>
      </trkpt>
      <trkpt lat="44.49706" lon="2.79415">
        <ele>537.992</ele>
        <time>2013-06-23T09:33:15Z</time>
      </trkpt>
      <trkpt lat="44.49725" lon="2.7933">
        <ele>533.553</ele>
        <time>2013-06-23T09:33:22Z</time>
      </trkpt>
      <trkpt lat="44.49728" lon="2.79311">
        <ele>532.244</ele>
        <time>2013-06-23T09:33:24Z</time>
      </trkpt>
      <trkpt lat="44.49732" lon="2.79286">
        <ele>529.873</ele>
        <time>2013-06-23T09:33:28Z</time>
      </trkpt>
      <trkpt lat="44.49737" lon="2.7927">
        <ele>530.235</ele>
        <time>2013-06-23T09:33:32Z</time>
      </trkpt>
      <trkpt lat="44.49766" lon="2.79266">
        <ele>529.155</ele>
        <time>2013-06-23T09:33:35Z</time>
      </trkpt>
      <trkpt lat="44.49784" lon="2.79276">
        <ele>529.205</ele>
        <time>2013-06-23T09:33:37Z</time>
      </trkpt>
      <trkpt lat="44.49821" lon="2.79306">
        <ele>527.876</ele>
        <time>2013-06-23T09:33:42Z</time>
      </trkpt>
      <trkpt lat="44.49826" lon="2.7931">
        <ele>527.596</ele>
        <time>2013-06-23T09:33:43Z</time>
      </trkpt>
      <trkpt lat="44.49845" lon="2.79321">
        <ele>526.647</ele>
        <time>2013-06-23T09:33:48Z</time>
      </trkpt>
      <trkpt lat="44.49847" lon="2.79321">
        <ele>527.038</ele>
        <time>2013-06-23T09:33:53Z</time>
      </trkpt>
      <trkpt lat="44.49847" lon="2.79321">
        <ele>528.489</ele>
        <time>2013-06-23T09:34:09Z</time>
      </trkpt>
      <trkpt lat="44.49847" lon="2.79321">
        <ele>531.848</ele>
        <time>2013-06-23T09:35:37Z</time>
      </trkpt>
      <trkpt lat="44.49854" lon="2.79321">
        <ele>530.528</ele>
        <time>2013-06-23T09:35:41Z</time>
      </trkpt>
      <trkpt lat="44.49868" lon="2.79315">
        <ele>527.417</ele>
        <time>2013-06-23T09:35:46Z</time>
      </trkpt>
      <trkpt lat="44.49884" lon="2.79321">
        <ele>524.025</ele>
        <time>2013-06-23T09:35:50Z</time>
      </trkpt>
      <trkpt lat="44.49884" lon="2.79333">
        <ele>522.846</ele>
        <time>2013-06-23T09:35:52Z</time>
      </trkpt>
      <trkpt lat="44.49889" lon="2.79366">
        <ele>521.518</ele>
        <time>2013-06-23T09:35:57Z</time>
      </trkpt>
      <trkpt lat="44.49891" lon="2.79374">
        <ele>521.108</ele>
        <time>2013-06-23T09:35:59Z</time>
      </trkpt>
      <trkpt lat="44.49891" lon="2.79383">
        <ele>520.979</ele>
        <time>2013-06-23T09:36:04Z</time>
      </trkpt>
      <trkpt lat="44.4989" lon="2.7938">
        <ele>514.469</ele>
        <time>2013-06-23T09:36:53Z</time>
      </trkpt>
      <trkpt lat="44.49896" lon="2.79384">
        <ele>514.479</ele>
        <time>2013-06-23T09:36:59Z</time>
      </trkpt>
      <trkpt lat="44.49899" lon="2.79391">
        <ele>514.078</ele>
        <time>2013-06-23T09:37:01Z</time>
      </trkpt>
      <trkpt lat="44.4991" lon="2.79426">
        <ele>514.859</ele>
        <time>2013-06-23T09:37:08Z</time>
      </trkpt>
      <trkpt lat="44.49916" lon="2.79467">
        <ele>515.349</ele>
        <time>2013-06-23T09:37:15Z</time>
      </trkpt>
      <trkpt lat="44.49926" lon="2.79488">
        <ele>515.97</ele>
        <time>2013-06-23T09:37:20Z</time>
      </trkpt>
      <trkpt lat="44.49939" lon="2.79502">
        <ele>517.07</ele>
        <time>2013-06-23T09:37:26Z</time>
      </trkpt>
      <trkpt lat="44.4995" lon="2.79505">
        <ele>518.19</ele>
        <time>2013-06-23T09:37:31Z</time>
      </trkpt>
      <trkpt lat="44.49967" lon="2.79511">
        <ele>520.58</ele>
        <time>2013-06-23T09:37:39Z</time>
      </trkpt>
      <trkpt lat="44.49982" lon="2.79516">
        <ele>521.949</ele>
        <time>2013-06-23T09:37:46Z</time>
      </trkpt>
      <trkpt lat="44.50002" lon="2.79528">
        <ele>523.77</ele>
        <time>2013-06-23T09:37:55Z</time>
      </trkpt>
      <trkpt lat="44.50021" lon="2.79537">
        <ele>524.899</ele>
        <time>2013-06-23T09:38:04Z</time>
      </trkpt>
      <trkpt lat="44.50037" lon="2.79543">
        <ele>524.819</ele>
        <time>2013-06-23T09:38:11Z</time>
      </trkpt>
      <trkpt lat="44.50051" lon="2.79542">
        <ele>526.391</ele>
        <time>2013-06-23T09:38:18Z</time>
      </trkpt>
      <trkpt lat="44.50067" lon="2.79534">
        <ele>527.731</ele>
        <time>2013-06-23T09:38:25Z</time>
      </trkpt>
      <trkpt lat="44.50084" lon="2.79532">
        <ele>528.9</ele>
        <time>2013-06-23T09:38:33Z</time>
      </trkpt>
      <trkpt lat="44.50101" lon="2.79529">
        <ele>530.32</ele>
        <time>2013-06-23T09:38:42Z</time>
      </trkpt>
      <trkpt lat="44.50114" lon="2.79525">
        <ele>532.46</ele>
        <time>2013-06-23T09:38:51Z</time>
      </trkpt>
      <trkpt lat="44.50129" lon="2.79518">
        <ele>532.06</ele>
        <time>2013-06-23T09:38:59Z</time>
      </trkpt>
      <trkpt lat="44.5014" lon="2.79509">
        <ele>532.32</ele>
        <time>2013-06-23T09:39:06Z</time>
      </trkpt>
      <trkpt lat="44.50149" lon="2.79497">
        <ele>533.391</ele>
        <time>2013-06-23T09:39:13Z</time>
      </trkpt>
      <trkpt lat="44.50161" lon="2.79482">
        <ele>534.92</ele>
        <time>2013-06-23T09:39:20Z</time>
      </trkpt>
      <trkpt lat="44.50173" lon="2.79467">
        <ele>533.28</ele>
        <time>2013-06-23T09:39:26Z</time>
      </trkpt>
      <trkpt lat="44.50184" lon="2.79453">
        <ele>533.89</ele>
        <time>2013-06-23T09:39:33Z</time>
      </trkpt>
      <trkpt lat="44.50194" lon="2.79437">
        <ele>535.301</ele>
        <time>2013-06-23T09:39:41Z</time>
      </trkpt>
      <trkpt lat="44.50211" lon="2.79411">
        <ele>536.021</ele>
        <time>2013-06-23T09:39:49Z</time>
      </trkpt>
      <trkpt lat="44.50222" lon="2.79394">
        <ele>536.73</ele>
        <time>2013-06-23T09:39:55Z</time>
      </trkpt>
      <trkpt lat="44.50232" lon="2.79382">
        <ele>535.51</ele>
        <time>2013-06-23T09:40:00Z</time>
      </trkpt>
      <trkpt lat="44.5025" lon="2.79356">
        <ele>532.138</ele>
        <time>2013-06-23T09:40:06Z</time>
      </trkpt>
      <trkpt lat="44.50266" lon="2.79332">
        <ele>528.707</ele>
        <time>2013-06-23T09:40:12Z</time>
      </trkpt>
      <trkpt lat="44.50269" lon="2.79327">
        <ele>528.457</ele>
        <time>2013-06-23T09:40:13Z</time>
      </trkpt>
      <trkpt lat="44.50289" lon="2.79284">
        <ele>527.709</ele>
        <time>2013-06-23T09:40:21Z</time>
      </trkpt>
      <trkpt lat="44.5031" lon="2.79239">
        <ele>527.949</ele>
        <time>2013-06-23T09:40:30Z</time>
      </trkpt>
      <trkpt lat="44.50322" lon="2.79214">
        <ele>528.4</ele>
        <time>2013-06-23T09:40:36Z</time>
      </trkpt>
      <trkpt lat="44.50333" lon="2.79174">
        <ele>527.03</ele>
        <time>2013-06-23T09:40:43Z</time>
      </trkpt>
      <trkpt lat="44.5034" lon="2.79143">
        <ele>526.749</ele>
        <time>2013-06-23T09:40:49Z</time>
      </trkpt>
      <trkpt lat="44.50346" lon="2.79119">
        <ele>526.77</ele>
        <time>2013-06-23T09:40:54Z</time>
      </trkpt>
      <trkpt lat="44.50355" lon="2.79084">
        <ele>527.641</ele>
        <time>2013-06-23T09:41:01Z</time>
      </trkpt>
      <trkpt lat="44.50364" lon="2.79049">
        <ele>528.2</ele>
        <time>2013-06-23T09:41:08Z</time>
      </trkpt>
      <trkpt lat="44.50373" lon="2.79016">
        <ele>527.399</ele>
        <time>2013-06-23T09:41:14Z</time>
      </trkpt>
      <trkpt lat="44.50383" lon="2.78982">
        <ele>527.02</ele>
        <time>2013-06-23T09:41:20Z</time>
      </trkpt>
      <trkpt lat="44.50387" lon="2.78969">
        <ele>526.538</ele>
        <time>2013-06-23T09:41:23Z</time>
      </trkpt>
      <trkpt lat="44.50395" lon="2.78945">
        <ele>526.139</ele>
        <time>2013-06-23T09:41:27Z</time>
      </trkpt>
      <trkpt lat="44.50402" lon="2.78924">
        <ele>525.889</ele>
        <time>2013-06-23T09:41:31Z</time>
      </trkpt>
      <trkpt lat="44.50415" lon="2.78885">
        <ele>524.858</ele>
        <time>2013-06-23T09:41:39Z</time>
      </trkpt>
      <trkpt lat="44.50429" lon="2.78844">
        <ele>521.527</ele>
        <time>2013-06-23T09:41:46Z</time>
      </trkpt>
      <trkpt lat="44.50433" lon="2.7883">
        <ele>520.647</ele>
        <time>2013-06-23T09:41:48Z</time>
      </trkpt>
      <trkpt lat="44.50437" lon="2.78815">
        <ele>518.676</ele>
        <time>2013-06-23T09:41:52Z</time>
      </trkpt>
      <trkpt lat="44.50437" lon="2.78815">
        <ele>517.317</ele>
        <time>2013-06-23T09:41:54Z</time>
      </trkpt>
      <trkpt lat="44.50437" lon="2.78815">
        <ele>513.866</ele>
        <time>2013-06-23T09:41:59Z</time>
      </trkpt>
      <trkpt lat="44.50437" lon="2.78815">
        <ele>512.366</ele>
        <time>2013-06-23T09:42:01Z</time>
      </trkpt>
      <trkpt lat="44.50451" lon="2.78696">
        <ele>510.967</ele>
        <time>2013-06-23T09:42:05Z</time>
      </trkpt>
      <trkpt lat="44.50408" lon="2.78604">
        <ele>507.576</ele>
        <time>2013-06-23T09:42:09Z</time>
      </trkpt>
      <trkpt lat="44.50417" lon="2.78592">
        <ele>505.546</ele>
        <time>2013-06-23T09:42:11Z</time>
      </trkpt>
      <trkpt lat="44.50444" lon="2.78556">
        <ele>502.226</ele>
        <time>2013-06-23T09:42:16Z</time>
      </trkpt>
      <trkpt lat="44.50462" lon="2.78533">
        <ele>497.334</ele>
        <time>2013-06-23T09:42:21Z</time>
      </trkpt>
      <trkpt lat="44.50471" lon="2.7852">
        <ele>494.375</ele>
        <time>2013-06-23T09:42:24Z</time>
      </trkpt>
      <trkpt lat="44.5049" lon="2.78496">
        <ele>491.355</ele>
        <time>2013-06-23T09:42:28Z</time>
      </trkpt>
      <trkpt lat="44.50506" lon="2.78475">
        <ele>488.745</ele>
        <time>2013-06-23T09:42:33Z</time>
      </trkpt>
      <trkpt lat="44.5051" lon="2.78469">
        <ele>487.087</ele>
        <time>2013-06-23T09:42:38Z</time>
      </trkpt>
      <trkpt lat="44.50541" lon="2.78473">
        <ele>485.648</ele>
        <time>2013-06-23T09:42:41Z</time>
      </trkpt>
      <trkpt lat="44.50571" lon="2.78477">
        <ele>484.969</ele>
        <time>2013-06-23T09:42:46Z</time>
      </trkpt>
      <trkpt lat="44.50591" lon="2.78479">
        <ele>485.94</ele>
        <time>2013-06-23T09:42:50Z</time>
      </trkpt>
      <trkpt lat="44.50598" lon="2.78489">
        <ele>486.83</ele>
        <time>2013-06-23T09:42:53Z</time>
      </trkpt>
      <trkpt lat="44.50609" lon="2.78516">
        <ele>488.609</ele>
        <time>2013-06-23T09:43:01Z</time>
      </trkpt>
      <trkpt lat="44.50619" lon="2.78541">
        <ele>487.507</ele>
        <time>2013-06-23T09:43:06Z</time>
      </trkpt>
      <trkpt lat="44.50632" lon="2.78576">
        <ele>484.025</ele>
        <time>2013-06-23T09:43:10Z</time>
      </trkpt>
      <trkpt lat="44.5067" lon="2.78624">
        <ele>477.335</ele>
        <time>2013-06-23T09:43:15Z</time>
      </trkpt>
      <trkpt lat="44.5073" lon="2.78655">
        <ele>473.498</ele>
        <time>2013-06-23T09:43:21Z</time>
      </trkpt>
      <trkpt lat="44.50778" lon="2.78666">
        <ele>473.039</ele>
        <time>2013-06-23T09:43:26Z</time>
      </trkpt>
      <trkpt lat="44.50817" lon="2.78681">
        <ele>470.187</ele>
        <time>2013-06-23T09:43:31Z</time>
      </trkpt>
      <trkpt lat="44.50825" lon="2.78684">
        <ele>469.678</ele>
        <time>2013-06-23T09:43:32Z</time>
      </trkpt>
      <trkpt lat="44.50857" lon="2.78686">
        <ele>466.476</ele>
        <time>2013-06-23T09:43:36Z</time>
      </trkpt>
      <trkpt lat="44.50873" lon="2.78686">
        <ele>465.446</ele>
        <time>2013-06-23T09:43:38Z</time>
      </trkpt>
      <trkpt lat="44.50919" lon="2.78678">
        <ele>461.316</ele>
        <time>2013-06-23T09:43:43Z</time>
      </trkpt>
      <trkpt lat="44.50962" lon="2.78652">
        <ele>461.16</ele>
        <time>2013-06-23T09:43:48Z</time>
      </trkpt>
      <trkpt lat="44.50969" lon="2.78647">
        <ele>461.33</ele>
        <time>2013-06-23T09:43:49Z</time>
      </trkpt>
      <trkpt lat="44.50994" lon="2.78624">
        <ele>461.45</ele>
        <time>2013-06-23T09:43:54Z</time>
      </trkpt>
      <trkpt lat="44.5102" lon="2.78601">
        <ele>458.657</ele>
        <time>2013-06-23T09:43:59Z</time>
      </trkpt>
      <trkpt lat="44.51038" lon="2.78583">
        <ele>457.339</ele>
        <time>2013-06-23T09:44:03Z</time>
      </trkpt>
      <trkpt lat="44.51068" lon="2.78565">
        <ele>455.147</ele>
        <time>2013-06-23T09:44:05Z</time>
      </trkpt>
      <trkpt lat="44.51096" lon="2.78534">
        <ele>450.33</ele>
        <time>2013-06-23T09:44:09Z</time>
      </trkpt>
      <trkpt lat="44.51129" lon="2.78466">
        <ele>448.901</ele>
        <time>2013-06-23T09:44:15Z</time>
      </trkpt>
      <trkpt lat="44.51141" lon="2.78445">
        <ele>448.921</ele>
        <time>2013-06-23T09:44:18Z</time>
      </trkpt>
      <trkpt lat="44.5115" lon="2.78456">
        <ele>448.761</ele>
        <time>2013-06-23T09:44:19Z</time>
      </trkpt>
      <trkpt lat="44.51173" lon="2.78456">
        <ele>447.869</ele>
        <time>2013-06-23T09:44:24Z</time>
      </trkpt>
      <trkpt lat="44.51202" lon="2.78444">
        <ele>444.188</ele>
        <time>2013-06-23T09:44:29Z</time>
      </trkpt>
      <trkpt lat="44.51243" lon="2.7842">
        <ele>437.716</ele>
        <time>2013-06-23T09:44:35Z</time>
      </trkpt>
      <trkpt lat="44.51267" lon="2.78426">
        <ele>434.387</ele>
        <time>2013-06-23T09:44:38Z</time>
      </trkpt>
      <trkpt lat="44.51289" lon="2.78434">
        <ele>430.816</ele>
        <time>2013-06-23T09:44:41Z</time>
      </trkpt>
      <trkpt lat="44.51296" lon="2.78432">
        <ele>429.916</ele>
        <time>2013-06-23T09:44:42Z</time>
      </trkpt>
      <trkpt lat="44.51312" lon="2.78429">
        <ele>428.617</ele>
        <time>2013-06-23T09:44:44Z</time>
      </trkpt>
      <trkpt lat="44.5135" lon="2.78423">
        <ele>423.736</ele>
        <time>2013-06-23T09:44:48Z</time>
      </trkpt>
      <trkpt lat="44.5136" lon="2.78422">
        <ele>422.706</ele>
        <time>2013-06-23T09:44:49Z</time>
      </trkpt>
      <trkpt lat="44.51401" lon="2.78436">
        <ele>421.037</ele>
        <time>2013-06-23T09:44:53Z</time>
      </trkpt>
      <trkpt lat="44.51439" lon="2.78448">
        <ele>417.867</ele>
        <time>2013-06-23T09:44:57Z</time>
      </trkpt>
      <trkpt lat="44.51485" lon="2.78441">
        <ele>411.365</ele>
        <time>2013-06-23T09:45:02Z</time>
      </trkpt>
      <trkpt lat="44.51504" lon="2.78436">
        <ele>409.126</ele>
        <time>2013-06-23T09:45:04Z</time>
      </trkpt>
      <trkpt lat="44.51547" lon="2.78417">
        <ele>403.316</ele>
        <time>2013-06-23T09:45:09Z</time>
      </trkpt>
      <trkpt lat="44.5158" lon="2.78393">
        <ele>398.926</ele>
        <time>2013-06-23T09:45:13Z</time>
      </trkpt>
      <trkpt lat="44.51626" lon="2.78349">
        <ele>392.778</ele>
        <time>2013-06-23T09:45:19Z</time>
      </trkpt>
      <trkpt lat="44.51641" lon="2.78334">
        <ele>391.729</ele>
        <time>2013-06-23T09:45:21Z</time>
      </trkpt>
      <trkpt lat="44.5167" lon="2.78306">
        <ele>385.366</ele>
        <time>2013-06-23T09:45:25Z</time>
      </trkpt>
      <trkpt lat="44.51682" lon="2.78294">
        <ele>383.239</ele>
        <time>2013-06-23T09:45:27Z</time>
      </trkpt>
      <trkpt lat="44.51717" lon="2.78254">
        <ele>373.378</ele>
        <time>2013-06-23T09:45:32Z</time>
      </trkpt>
      <trkpt lat="44.51752" lon="2.78192">
        <ele>365.417</ele>
        <time>2013-06-23T09:45:38Z</time>
      </trkpt>
      <trkpt lat="44.51782" lon="2.78144">
        <ele>360.598</ele>
        <time>2013-06-23T09:45:42Z</time>
      </trkpt>
      <trkpt lat="44.518" lon="2.78109">
        <ele>356.208</ele>
        <time>2013-06-23T09:45:45Z</time>
      </trkpt>
      <trkpt lat="44.51813" lon="2.78075">
        <ele>351.12</ele>
        <time>2013-06-23T09:45:49Z</time>
      </trkpt>
      <trkpt lat="44.51845" lon="2.78021">
        <ele>347.401</ele>
        <time>2013-06-23T09:45:58Z</time>
      </trkpt>
      <trkpt lat="44.5185" lon="2.78007">
        <ele>346.342</ele>
        <time>2013-06-23T09:46:00Z</time>
      </trkpt>
      <trkpt lat="44.51858" lon="2.77984">
        <ele>344.622</ele>
        <time>2013-06-23T09:46:04Z</time>
      </trkpt>
      <trkpt lat="44.51866" lon="2.77963">
        <ele>342.692</ele>
        <time>2013-06-23T09:46:08Z</time>
      </trkpt>
      <trkpt lat="44.51877" lon="2.7793">
        <ele>341.372</ele>
        <time>2013-06-23T09:46:14Z</time>
      </trkpt>
      <trkpt lat="44.51886" lon="2.77907">
        <ele>341.062</ele>
        <time>2013-06-23T09:46:18Z</time>
      </trkpt>
      <trkpt lat="44.51894" lon="2.77884">
        <ele>341.233</ele>
        <time>2013-06-23T09:46:22Z</time>
      </trkpt>
      <trkpt lat="44.51897" lon="2.77874">
        <ele>342.073</ele>
        <time>2013-06-23T09:46:24Z</time>
      </trkpt>
      <trkpt lat="44.51905" lon="2.77853">
        <ele>342.733</ele>
        <time>2013-06-23T09:46:28Z</time>
      </trkpt>
      <trkpt lat="44.51898" lon="2.77824">
        <ele>343.673</ele>
        <time>2013-06-23T09:46:33Z</time>
      </trkpt>
      <trkpt lat="44.51886" lon="2.77818">
        <ele>344.583</ele>
        <time>2013-06-23T09:46:37Z</time>
      </trkpt>
      <trkpt lat="44.5191" lon="2.77833">
        <ele>344.843</ele>
        <time>2013-06-23T09:46:41Z</time>
      </trkpt>
      <trkpt lat="44.51879" lon="2.77815">
        <ele>344.654</ele>
        <time>2013-06-23T09:46:45Z</time>
      </trkpt>
      <trkpt lat="44.51863" lon="2.77808">
        <ele>345.324</ele>
        <time>2013-06-23T09:46:52Z</time>
      </trkpt>
      <trkpt lat="44.51852" lon="2.77803">
        <ele>344.933</ele>
        <time>2013-06-23T09:46:57Z</time>
      </trkpt>
      <trkpt lat="44.51842" lon="2.77793">
        <ele>341.223</ele>
        <time>2013-06-23T09:47:13Z</time>
      </trkpt>
      <trkpt lat="44.51836" lon="2.77781">
        <ele>343.863</ele>
        <time>2013-06-23T09:47:17Z</time>
      </trkpt>
      <trkpt lat="44.51829" lon="2.77761">
        <ele>347.273</ele>
        <time>2013-06-23T09:47:22Z</time>
      </trkpt>
      <trkpt lat="44.51824" lon="2.77738">
        <ele>347.203</ele>
        <time>2013-06-23T09:47:27Z</time>
      </trkpt>
      <trkpt lat="44.51819" lon="2.77709">
        <ele>346.703</ele>
        <time>2013-06-23T09:47:32Z</time>
      </trkpt>
      <trkpt lat="44.51823" lon="2.77668">
        <ele>346.792</ele>
        <time>2013-06-23T09:47:39Z</time>
      </trkpt>
      <trkpt lat="44.51822" lon="2.77642">
        <ele>347.712</ele>
        <time>2013-06-23T09:47:43Z</time>
      </trkpt>
      <trkpt lat="44.51821" lon="2.77611">
        <ele>348.073</ele>
        <time>2013-06-23T09:47:48Z</time>
      </trkpt>
      <trkpt lat="44.51811" lon="2.77552">
        <ele>347.953</ele>
        <time>2013-06-23T09:47:58Z</time>
      </trkpt>
      <trkpt lat="44.51801" lon="2.77514">
        <ele>346.323</ele>
        <time>2013-06-23T09:48:05Z</time>
      </trkpt>
      <trkpt lat="44.51786" lon="2.77482">
        <ele>345.793</ele>
        <time>2013-06-23T09:48:12Z</time>
      </trkpt>
      <trkpt lat="44.51783" lon="2.7746">
        <ele>345.482</ele>
        <time>2013-06-23T09:48:16Z</time>
      </trkpt>
      <trkpt lat="44.51793" lon="2.77434">
        <ele>345.262</ele>
        <time>2013-06-23T09:48:21Z</time>
      </trkpt>
      <trkpt lat="44.51796" lon="2.77424">
        <ele>345.052</ele>
        <time>2013-06-23T09:48:23Z</time>
      </trkpt>
      <trkpt lat="44.51799" lon="2.77398">
        <ele>344.832</ele>
        <time>2013-06-23T09:48:28Z</time>
      </trkpt>
      <trkpt lat="44.51794" lon="2.77375">
        <ele>343.602</ele>
        <time>2013-06-23T09:48:33Z</time>
      </trkpt>
      <trkpt lat="44.51786" lon="2.77344">
        <ele>342.722</ele>
        <time>2013-06-23T09:48:39Z</time>
      </trkpt>
      <trkpt lat="44.51785" lon="2.773">
        <ele>341.812</ele>
        <time>2013-06-23T09:48:47Z</time>
      </trkpt>
      <trkpt lat="44.51789" lon="2.77251">
        <ele>341.572</ele>
        <time>2013-06-23T09:48:56Z</time>
      </trkpt>
      <trkpt lat="44.51793" lon="2.77226">
        <ele>342.592</ele>
        <time>2013-06-23T09:49:01Z</time>
      </trkpt>
      <trkpt lat="44.51785" lon="2.77208">
        <ele>343.873</ele>
        <time>2013-06-23T09:49:05Z</time>
      </trkpt>
      <trkpt lat="44.5178" lon="2.77204">
        <ele>344.703</ele>
        <time>2013-06-23T09:49:07Z</time>
      </trkpt>
      <trkpt lat="44.51778" lon="2.77192">
        <ele>345.313</ele>
        <time>2013-06-23T09:49:12Z</time>
      </trkpt>
      <trkpt lat="44.51779" lon="2.7719">
        <ele>345.572</ele>
        <time>2013-06-23T09:49:18Z</time>
      </trkpt>
      <trkpt lat="44.5178" lon="2.77185">
        <ele>345.42</ele>
        <time>2013-06-23T09:49:36Z</time>
      </trkpt>
      <trkpt lat="44.51788" lon="2.77189">
        <ele>344.891</ele>
        <time>2013-06-23T09:49:40Z</time>
      </trkpt>
      <trkpt lat="44.51805" lon="2.7721">
        <ele>344.841</ele>
        <time>2013-06-23T09:49:47Z</time>
      </trkpt>
      <trkpt lat="44.51816" lon="2.7722">
        <ele>344.451</ele>
        <time>2013-06-23T09:49:53Z</time>
      </trkpt>
      <trkpt lat="44.51827" lon="2.77222">
        <ele>344.231</ele>
        <time>2013-06-23T09:49:58Z</time>
      </trkpt>
      <trkpt lat="44.51846" lon="2.77222">
        <ele>345.122</ele>
        <time>2013-06-23T09:50:05Z</time>
      </trkpt>
      <trkpt lat="44.51869" lon="2.77222">
        <ele>345.482</ele>
        <time>2013-06-23T09:50:13Z</time>
      </trkpt>
      <trkpt lat="44.51894" lon="2.77221">
        <ele>345.662</ele>
        <time>2013-06-23T09:50:22Z</time>
      </trkpt>
      <trkpt lat="44.51927" lon="2.77221">
        <ele>345.452</ele>
        <time>2013-06-23T09:50:32Z</time>
      </trkpt>
      <trkpt lat="44.51957" lon="2.7722">
        <ele>345.092</ele>
        <time>2013-06-23T09:50:41Z</time>
      </trkpt>
      <trkpt lat="44.51979" lon="2.77224">
        <ele>345.803</ele>
        <time>2013-06-23T09:50:47Z</time>
      </trkpt>
      <trkpt lat="44.51999" lon="2.77226">
        <ele>346.872</ele>
        <time>2013-06-23T09:50:54Z</time>
      </trkpt>
      <trkpt lat="44.52018" lon="2.77234">
        <ele>347.642</ele>
        <time>2013-06-23T09:51:00Z</time>
      </trkpt>
    </trkseg>
  </trk>
</gpx>